<?xml version='1.0' encoding='UTF-8'?><gpx version="1.1" creator="JPX - https://github.com/jenetics/jpx" xmlns="http://www.topografix.com/GPX/1/1"><trk><trkseg><trkpt lat="45.7137017" lon="9.0502917"><ele>310.0</ele><time>2026-04-03T12:25:34Z</time></trkpt><trkpt lat="45.7136617" lon="9.0502217"><ele>310.0</ele><time>2026-04-03T12:25:37.999Z</time></trkpt><trkpt lat="45.7136083" lon="9.050165"><ele>310.0</ele><time>2026-04-03T12:25:48.999Z</time></trkpt><trkpt lat="45.7135417" lon="9.05014"><ele>310.0</ele><time>2026-04-03T12:25:54.999Z</time></trkpt><trkpt lat="45.7136133" lon="9.0501433"><ele>310.0</ele><time>2026-04-03T12:26:44.999Z</time></trkpt><trkpt lat="45.7136683" lon="9.0501917"><ele>310.0</ele><time>2026-04-03T12:26:53Z</time></trkpt><trkpt lat="45.7137117" lon="9.05026"><ele>310.0</ele><time>2026-04-03T12:26:59.999Z</time></trkpt><trkpt lat="45.7137433" lon="9.050345"><ele>310.0</ele><time>2026-04-03T12:27:06Z</time></trkpt><trkpt lat="45.7136783" lon="9.0503717"><ele>310.0</ele><time>2026-04-03T12:27:15.999Z</time></trkpt><trkpt lat="45.71362" lon="9.05041"><ele>310.0</ele><time>2026-04-03T12:27:27Z</time></trkpt><trkpt lat="45.7136667" lon="9.0503367"><ele>310.0</ele><time>2026-04-03T12:27:54.999Z</time></trkpt><trkpt lat="45.71373" lon="9.0503417"><ele>310.0</ele><time>2026-04-03T12:28:00.999Z</time></trkpt><trkpt lat="45.7137933" lon="9.05038"><ele>310.0</ele><time>2026-04-03T12:28:07.999Z</time></trkpt><trkpt lat="45.7139067" lon="9.050435"><ele>310.0</ele><time>2026-04-03T12:28:30.999Z</time></trkpt><trkpt lat="45.71398" lon="9.0504417"><ele>310.0</ele><time>2026-04-03T12:28:36.999Z</time></trkpt><trkpt lat="45.7140483" lon="9.05042"><ele>310.0</ele><time>2026-04-03T12:28:41Z</time></trkpt><trkpt lat="45.71411" lon="9.0504"><ele>310.0</ele><time>2026-04-03T12:28:46Z</time></trkpt><trkpt lat="45.7141867" lon="9.0504"><ele>310.0</ele><time>2026-04-03T12:28:51Z</time></trkpt><trkpt lat="45.7142517" lon="9.050375"><ele>310.0</ele><time>2026-04-03T12:28:53.999Z</time></trkpt><trkpt lat="45.71431" lon="9.0503233"><ele>310.0</ele><time>2026-04-03T12:28:58Z</time></trkpt><trkpt lat="45.714245" lon="9.0503033"><ele>310.0</ele><time>2026-04-03T12:29:11.999Z</time></trkpt><trkpt lat="45.7141767" lon="9.0503217"><ele>310.0</ele><time>2026-04-03T12:29:16Z</time></trkpt><trkpt lat="45.714245" lon="9.0503133"><ele>310.0</ele><time>2026-04-03T12:29:34Z</time></trkpt><trkpt lat="45.7143083" lon="9.0502917"><ele>310.0</ele><time>2026-04-03T12:29:38Z</time></trkpt><trkpt lat="45.7143867" lon="9.0502733"><ele>310.0</ele><time>2026-04-03T12:29:42Z</time></trkpt><trkpt lat="45.7144633" lon="9.0502767"><ele>310.0</ele><time>2026-04-03T12:29:46.001Z</time></trkpt><trkpt lat="45.7145333" lon="9.0502867"><ele>310.0</ele><time>2026-04-03T12:29:50Z</time></trkpt><trkpt lat="45.714595" lon="9.0502533"><ele>310.7142857142857</ele><time>2026-04-03T12:29:54Z</time></trkpt><trkpt lat="45.7146633" lon="9.0502217"><ele>311.42857142857144</ele><time>2026-04-03T12:29:59Z</time></trkpt><trkpt lat="45.7147133" lon="9.05014"><ele>312.1428571428571</ele><time>2026-04-03T12:30:04.001Z</time></trkpt><trkpt lat="45.71474" lon="9.0500483"><ele>312.8571428571429</ele><time>2026-04-03T12:30:08.001Z</time></trkpt><trkpt lat="45.7147683" lon="9.0499567"><ele>313.57142857142856</ele><time>2026-04-03T12:30:12Z</time></trkpt><trkpt lat="45.71481" lon="9.0498717"><ele>314.2857142857143</ele><time>2026-04-03T12:30:16Z</time></trkpt><trkpt lat="45.71482" lon="9.0497767"><ele>315.0</ele><time>2026-04-03T12:30:24Z</time></trkpt><trkpt lat="45.7148483" lon="9.0498633"><ele>315.0</ele><time>2026-04-03T12:30:47Z</time></trkpt><trkpt lat="45.714805" lon="9.0499483"><ele>315.0</ele><time>2026-04-03T12:30:51.001Z</time></trkpt><trkpt lat="45.714795" lon="9.0500417"><ele>315.0</ele><time>2026-04-03T12:30:54Z</time></trkpt><trkpt lat="45.71477" lon="9.0501517"><ele>315.0</ele><time>2026-04-03T12:30:57Z</time></trkpt><trkpt lat="45.7147983" lon="9.0502567"><ele>315.0</ele><time>2026-04-03T12:31:01Z</time></trkpt><trkpt lat="45.71485" lon="9.0503267"><ele>315.0</ele><time>2026-04-03T12:31:06Z</time></trkpt><trkpt lat="45.7149233" lon="9.0503633"><ele>315.0</ele><time>2026-04-03T12:31:10Z</time></trkpt><trkpt lat="45.7149917" lon="9.0504067"><ele>315.0</ele><time>2026-04-03T12:31:13Z</time></trkpt><trkpt lat="45.71505" lon="9.0504867"><ele>315.0</ele><time>2026-04-03T12:31:16Z</time></trkpt><trkpt lat="45.7151133" lon="9.0505567"><ele>315.0</ele><time>2026-04-03T12:31:19Z</time></trkpt><trkpt lat="45.7151767" lon="9.0506083"><ele>315.0</ele><time>2026-04-03T12:31:22Z</time></trkpt><trkpt lat="45.7152633" lon="9.0506483"><ele>315.0</ele><time>2026-04-03T12:31:25Z</time></trkpt><trkpt lat="45.7153317" lon="9.0506683"><ele>315.0</ele><time>2026-04-03T12:31:27Z</time></trkpt><trkpt lat="45.7154033" lon="9.0506717"><ele>314.7142857142857</ele><time>2026-04-03T12:31:29Z</time></trkpt><trkpt lat="45.7154783" lon="9.0506617"><ele>314.42857142857144</ele><time>2026-04-03T12:31:31Z</time></trkpt><trkpt lat="45.7155533" lon="9.050655"><ele>314.1428571428571</ele><time>2026-04-03T12:31:33Z</time></trkpt><trkpt lat="45.7156217" lon="9.05065"><ele>313.8571428571429</ele><time>2026-04-03T12:31:35Z</time></trkpt><trkpt lat="45.7156917" lon="9.0506467"><ele>313.57142857142856</ele><time>2026-04-03T12:31:37Z</time></trkpt><trkpt lat="45.7157617" lon="9.0506483"><ele>313.2857142857143</ele><time>2026-04-03T12:31:39Z</time></trkpt><trkpt lat="45.7158383" lon="9.0506567"><ele>313.0</ele><time>2026-04-03T12:31:41Z</time></trkpt><trkpt lat="45.71591" lon="9.05065"><ele>313.0</ele><time>2026-04-03T12:31:43Z</time></trkpt><trkpt lat="45.7159933" lon="9.0506567"><ele>313.0</ele><time>2026-04-03T12:31:45Z</time></trkpt><trkpt lat="45.7160583" lon="9.0506583"><ele>313.0</ele><time>2026-04-03T12:31:47Z</time></trkpt><trkpt lat="45.71615" lon="9.0506667"><ele>313.0</ele><time>2026-04-03T12:31:50Z</time></trkpt><trkpt lat="45.7162183" lon="9.050675"><ele>313.0</ele><time>2026-04-03T12:31:52Z</time></trkpt><trkpt lat="45.7162933" lon="9.050685"><ele>313.0</ele><time>2026-04-03T12:31:54Z</time></trkpt><trkpt lat="45.7163917" lon="9.050715"><ele>313.66666666666663</ele><time>2026-04-03T12:31:56Z</time></trkpt><trkpt lat="45.7164783" lon="9.0507383"><ele>314.3333333333333</ele><time>2026-04-03T12:31:58Z</time></trkpt><trkpt lat="45.71656" lon="9.05077"><ele>315.0</ele><time>2026-04-03T12:32:00Z</time></trkpt><trkpt lat="45.7166483" lon="9.0508167"><ele>315.6666666666667</ele><time>2026-04-03T12:32:03Z</time></trkpt><trkpt lat="45.7167317" lon="9.05086"><ele>316.33333333333337</ele><time>2026-04-03T12:32:06Z</time></trkpt><trkpt lat="45.7168083" lon="9.05091"><ele>317.0</ele><time>2026-04-03T12:32:08.001Z</time></trkpt><trkpt lat="45.7168567" lon="9.0509917"><ele>317.33333333333337</ele><time>2026-04-03T12:32:10.001Z</time></trkpt><trkpt lat="45.716895" lon="9.0511017"><ele>317.6666666666667</ele><time>2026-04-03T12:32:13Z</time></trkpt><trkpt lat="45.7169383" lon="9.051205"><ele>318.0</ele><time>2026-04-03T12:32:16Z</time></trkpt><trkpt lat="45.7169617" lon="9.0513167"><ele>318.3333333333333</ele><time>2026-04-03T12:32:19Z</time></trkpt><trkpt lat="45.71697" lon="9.0514417"><ele>318.66666666666663</ele><time>2026-04-03T12:32:22.001Z</time></trkpt><trkpt lat="45.7169567" lon="9.0515317"><ele>319.0</ele><time>2026-04-03T12:32:24.001Z</time></trkpt><trkpt lat="45.716925" lon="9.0516117"><ele>318.8571428571429</ele><time>2026-04-03T12:32:26.001Z</time></trkpt><trkpt lat="45.7169083" lon="9.051725"><ele>318.71428571428567</ele><time>2026-04-03T12:32:29.001Z</time></trkpt><trkpt lat="45.7169217" lon="9.051855"><ele>318.57142857142856</ele><time>2026-04-03T12:32:32Z</time></trkpt><trkpt lat="45.716945" lon="9.0519533"><ele>318.42857142857144</ele><time>2026-04-03T12:32:35Z</time></trkpt><trkpt lat="45.7169667" lon="9.0520433"><ele>318.28571428571433</ele><time>2026-04-03T12:32:38.001Z</time></trkpt><trkpt lat="45.7169817" lon="9.0521317"><ele>318.1428571428571</ele><time>2026-04-03T12:32:41Z</time></trkpt><trkpt lat="45.7169867" lon="9.0522267"><ele>318.0</ele><time>2026-04-03T12:32:44Z</time></trkpt><trkpt lat="45.7169817" lon="9.0523317"><ele>318.0</ele><time>2026-04-03T12:32:47Z</time></trkpt><trkpt lat="45.7169983" lon="9.0524317"><ele>318.0</ele><time>2026-04-03T12:32:50Z</time></trkpt><trkpt lat="45.7169967" lon="9.0525567"><ele>318.0</ele><time>2026-04-03T12:32:53Z</time></trkpt><trkpt lat="45.7169917" lon="9.0526817"><ele>318.0</ele><time>2026-04-03T12:32:56Z</time></trkpt><trkpt lat="45.71706" lon="9.0527533"><ele>318.0</ele><time>2026-04-03T12:32:59Z</time></trkpt><trkpt lat="45.7171533" lon="9.0527417"><ele>318.0</ele><time>2026-04-03T12:33:02Z</time></trkpt><trkpt lat="45.7172167" lon="9.0527167"><ele>318.6666666666667</ele><time>2026-04-03T12:33:04.001Z</time></trkpt><trkpt lat="45.7173033" lon="9.0526833"><ele>319.3333333333333</ele><time>2026-04-03T12:33:07.001Z</time></trkpt><trkpt lat="45.7173783" lon="9.0526583"><ele>320.0</ele><time>2026-04-03T12:33:10Z</time></trkpt><trkpt lat="45.71745" lon="9.0526383"><ele>320.66666666666663</ele><time>2026-04-03T12:33:13.001Z</time></trkpt><trkpt lat="45.7175283" lon="9.0526133"><ele>321.3333333333333</ele><time>2026-04-03T12:33:16Z</time></trkpt><trkpt lat="45.7176167" lon="9.0526017"><ele>322.0</ele><time>2026-04-03T12:33:19Z</time></trkpt><trkpt lat="45.7176917" lon="9.0526217"><ele>322.0</ele><time>2026-04-03T12:33:23.001Z</time></trkpt><trkpt lat="45.7177317" lon="9.0526983"><ele>322.0</ele><time>2026-04-03T12:33:25Z</time></trkpt><trkpt lat="45.717765" lon="9.0528067"><ele>322.0</ele><time>2026-04-03T12:33:28.001Z</time></trkpt><trkpt lat="45.717775" lon="9.052915"><ele>322.0</ele><time>2026-04-03T12:33:31Z</time></trkpt><trkpt lat="45.7177833" lon="9.05304"><ele>322.0</ele><time>2026-04-03T12:33:34Z</time></trkpt><trkpt lat="45.717795" lon="9.0531467"><ele>322.0</ele><time>2026-04-03T12:33:37.001Z</time></trkpt><trkpt lat="45.7178117" lon="9.0532533"><ele>322.42857142857144</ele><time>2026-04-03T12:33:40.001Z</time></trkpt><trkpt lat="45.7178433" lon="9.05336"><ele>322.8571428571429</ele><time>2026-04-03T12:33:43Z</time></trkpt><trkpt lat="45.7178383" lon="9.053465"><ele>323.2857142857143</ele><time>2026-04-03T12:33:46Z</time></trkpt><trkpt lat="45.717785" lon="9.05352"><ele>323.7142857142857</ele><time>2026-04-03T12:33:48Z</time></trkpt><trkpt lat="45.717715" lon="9.0535283"><ele>324.14285714285717</ele><time>2026-04-03T12:33:50Z</time></trkpt><trkpt lat="45.71765" lon="9.0535417"><ele>324.57142857142856</ele><time>2026-04-03T12:33:52.001Z</time></trkpt><trkpt lat="45.7175617" lon="9.0535517"><ele>325.0</ele><time>2026-04-03T12:33:55.001Z</time></trkpt><trkpt lat="45.7174967" lon="9.0535533"><ele>325.0</ele><time>2026-04-03T12:33:58Z</time></trkpt><trkpt lat="45.71742" lon="9.0535783"><ele>325.0</ele><time>2026-04-03T12:34:02Z</time></trkpt><trkpt lat="45.7173567" lon="9.05359"><ele>325.0</ele><time>2026-04-03T12:34:04Z</time></trkpt><trkpt lat="45.717285" lon="9.0536117"><ele>325.0</ele><time>2026-04-03T12:34:06Z</time></trkpt><trkpt lat="45.7172133" lon="9.0536267"><ele>325.0</ele><time>2026-04-03T12:34:08.001Z</time></trkpt><trkpt lat="45.7171467" lon="9.0536467"><ele>325.0</ele><time>2026-04-03T12:34:10Z</time></trkpt><trkpt lat="45.7170583" lon="9.053675"><ele>325.0</ele><time>2026-04-03T12:34:13.001Z</time></trkpt><trkpt lat="45.7169717" lon="9.0536917"><ele>325.3333333333333</ele><time>2026-04-03T12:34:16.001Z</time></trkpt><trkpt lat="45.7168783" lon="9.0537233"><ele>325.66666666666663</ele><time>2026-04-03T12:34:19.001Z</time></trkpt><trkpt lat="45.7167933" lon="9.0537417"><ele>326.0</ele><time>2026-04-03T12:34:22Z</time></trkpt><trkpt lat="45.7167067" lon="9.05376"><ele>326.3333333333333</ele><time>2026-04-03T12:34:25Z</time></trkpt><trkpt lat="45.71664" lon="9.0537817"><ele>326.6666666666667</ele><time>2026-04-03T12:34:27.001Z</time></trkpt><trkpt lat="45.7165683" lon="9.05381"><ele>327.0</ele><time>2026-04-03T12:34:29.001Z</time></trkpt><trkpt lat="45.716495" lon="9.0538483"><ele>327.0</ele><time>2026-04-03T12:34:31Z</time></trkpt><trkpt lat="45.716425" lon="9.0538833"><ele>327.0</ele><time>2026-04-03T12:34:33.001Z</time></trkpt><trkpt lat="45.7163467" lon="9.0539367"><ele>327.0</ele><time>2026-04-03T12:34:35Z</time></trkpt><trkpt lat="45.7162567" lon="9.053995"><ele>327.0</ele><time>2026-04-03T12:34:37Z</time></trkpt><trkpt lat="45.71617" lon="9.054065"><ele>327.0</ele><time>2026-04-03T12:34:39.001Z</time></trkpt><trkpt lat="45.7160767" lon="9.0541067"><ele>326.8</ele><time>2026-04-03T12:34:41Z</time></trkpt><trkpt lat="45.7159733" lon="9.054165"><ele>326.6</ele><time>2026-04-03T12:34:43Z</time></trkpt><trkpt lat="45.7158533" lon="9.0542267"><ele>326.40000000000003</ele><time>2026-04-03T12:34:45Z</time></trkpt><trkpt lat="45.715735" lon="9.0542917"><ele>326.20000000000005</ele><time>2026-04-03T12:34:47.001Z</time></trkpt><trkpt lat="45.7156683" lon="9.05433"><ele>326.0</ele><time>2026-04-03T12:34:48Z</time></trkpt><trkpt lat="45.715595" lon="9.05436"><ele>326.0</ele><time>2026-04-03T12:34:49Z</time></trkpt><trkpt lat="45.7155183" lon="9.054395"><ele>326.0</ele><time>2026-04-03T12:34:50.001Z</time></trkpt><trkpt lat="45.7154367" lon="9.054435"><ele>326.0</ele><time>2026-04-03T12:34:51.001Z</time></trkpt><trkpt lat="45.7153583" lon="9.054475"><ele>326.0</ele><time>2026-04-03T12:34:52.001Z</time></trkpt><trkpt lat="45.71528" lon="9.0545133"><ele>326.0</ele><time>2026-04-03T12:34:53.001Z</time></trkpt><trkpt lat="45.7152067" lon="9.054555"><ele>326.0</ele><time>2026-04-03T12:34:54.001Z</time></trkpt><trkpt lat="45.7151283" lon="9.0545967"><ele>325.33333333333337</ele><time>2026-04-03T12:34:55.001Z</time></trkpt><trkpt lat="45.7150483" lon="9.054645"><ele>324.6666666666667</ele><time>2026-04-03T12:34:56Z</time></trkpt><trkpt lat="45.71497" lon="9.0546883"><ele>324.0</ele><time>2026-04-03T12:34:57Z</time></trkpt><trkpt lat="45.7148883" lon="9.0547283"><ele>323.3333333333333</ele><time>2026-04-03T12:34:58.001Z</time></trkpt><trkpt lat="45.7148217" lon="9.05478"><ele>322.66666666666663</ele><time>2026-04-03T12:34:59Z</time></trkpt><trkpt lat="45.714745" lon="9.0548233"><ele>322.0</ele><time>2026-04-03T12:35:00Z</time></trkpt><trkpt lat="45.71467" lon="9.0548667"><ele>322.0</ele><time>2026-04-03T12:35:01Z</time></trkpt><trkpt lat="45.7146017" lon="9.0549017"><ele>322.0</ele><time>2026-04-03T12:35:02Z</time></trkpt><trkpt lat="45.7145367" lon="9.0549283"><ele>322.0</ele><time>2026-04-03T12:35:03.001Z</time></trkpt><trkpt lat="45.7144733" lon="9.0549683"><ele>322.0</ele><time>2026-04-03T12:35:04.001Z</time></trkpt><trkpt lat="45.7144083" lon="9.0550083"><ele>322.0</ele><time>2026-04-03T12:35:05Z</time></trkpt><trkpt lat="45.7143" lon="9.0550917"><ele>322.0</ele><time>2026-04-03T12:35:07.001Z</time></trkpt><trkpt lat="45.7141883" lon="9.0551467"><ele>322.20000000000005</ele><time>2026-04-03T12:35:09.001Z</time></trkpt><trkpt lat="45.7140917" lon="9.0551817"><ele>322.4</ele><time>2026-04-03T12:35:11Z</time></trkpt><trkpt lat="45.713995" lon="9.0552033"><ele>322.6</ele><time>2026-04-03T12:35:13.001Z</time></trkpt><trkpt lat="45.71391" lon="9.0552217"><ele>322.79999999999995</ele><time>2026-04-03T12:35:15Z</time></trkpt><trkpt lat="45.7138367" lon="9.0552267"><ele>323.0</ele><time>2026-04-03T12:35:17Z</time></trkpt><trkpt lat="45.7137433" lon="9.0552283"><ele>323.0</ele><time>2026-04-03T12:35:20Z</time></trkpt><trkpt lat="45.713655" lon="9.05523"><ele>323.0</ele><time>2026-04-03T12:35:23Z</time></trkpt><trkpt lat="45.7135617" lon="9.0552067"><ele>323.0</ele><time>2026-04-03T12:35:26.001Z</time></trkpt><trkpt lat="45.7134883" lon="9.0552"><ele>323.0</ele><time>2026-04-03T12:35:28Z</time></trkpt><trkpt lat="45.71342" lon="9.0551883"><ele>323.0</ele><time>2026-04-03T12:35:30Z</time></trkpt><trkpt lat="45.713335" lon="9.0551833"><ele>323.0</ele><time>2026-04-03T12:35:32Z</time></trkpt><trkpt lat="45.71325" lon="9.0551717"><ele>322.4</ele><time>2026-04-03T12:35:34Z</time></trkpt><trkpt lat="45.7131783" lon="9.0551317"><ele>321.79999999999995</ele><time>2026-04-03T12:35:36Z</time></trkpt><trkpt lat="45.7131" lon="9.055045"><ele>321.2</ele><time>2026-04-03T12:35:38Z</time></trkpt><trkpt lat="45.7130117" lon="9.0549733"><ele>320.6</ele><time>2026-04-03T12:35:40Z</time></trkpt><trkpt lat="45.7129317" lon="9.0549117"><ele>320.0</ele><time>2026-04-03T12:35:42Z</time></trkpt><trkpt lat="45.712845" lon="9.0548533"><ele>319.4</ele><time>2026-04-03T12:35:44Z</time></trkpt><trkpt lat="45.71275" lon="9.0547967"><ele>318.8</ele><time>2026-04-03T12:35:46Z</time></trkpt><trkpt lat="45.7126517" lon="9.05473"><ele>318.2</ele><time>2026-04-03T12:35:48.001Z</time></trkpt><trkpt lat="45.7125433" lon="9.054655"><ele>317.6</ele><time>2026-04-03T12:35:50Z</time></trkpt><trkpt lat="45.712485" lon="9.0546067"><ele>317.0</ele><time>2026-04-03T12:35:51Z</time></trkpt><trkpt lat="45.71243" lon="9.0545517"><ele>316.7142857142857</ele><time>2026-04-03T12:35:52Z</time></trkpt><trkpt lat="45.7123717" lon="9.0545"><ele>316.42857142857144</ele><time>2026-04-03T12:35:53Z</time></trkpt><trkpt lat="45.7123117" lon="9.0544467"><ele>316.1428571428571</ele><time>2026-04-03T12:35:54.001Z</time></trkpt><trkpt lat="45.7122483" lon="9.0543917"><ele>315.8571428571429</ele><time>2026-04-03T12:35:55Z</time></trkpt><trkpt lat="45.7121817" lon="9.05433"><ele>315.57142857142856</ele><time>2026-04-03T12:35:56.001Z</time></trkpt><trkpt lat="45.7121183" lon="9.0542767"><ele>315.2857142857143</ele><time>2026-04-03T12:35:57Z</time></trkpt><trkpt lat="45.7120533" lon="9.0542167"><ele>315.0</ele><time>2026-04-03T12:35:58Z</time></trkpt><trkpt lat="45.71199" lon="9.0541583"><ele>314.1666666666667</ele><time>2026-04-03T12:35:59Z</time></trkpt><trkpt lat="45.7119217" lon="9.0541033"><ele>313.3333333333333</ele><time>2026-04-03T12:36:00Z</time></trkpt><trkpt lat="45.7118533" lon="9.0540417"><ele>312.5</ele><time>2026-04-03T12:36:01Z</time></trkpt><trkpt lat="45.7117833" lon="9.0539817"><ele>311.66666666666663</ele><time>2026-04-03T12:36:02Z</time></trkpt><trkpt lat="45.7117067" lon="9.0539317"><ele>310.8333333333333</ele><time>2026-04-03T12:36:03Z</time></trkpt><trkpt lat="45.7116283" lon="9.05389"><ele>310.0</ele><time>2026-04-03T12:36:04.001Z</time></trkpt><trkpt lat="45.711545" lon="9.0538567"><ele>309.66666666666663</ele><time>2026-04-03T12:36:05Z</time></trkpt><trkpt lat="45.7114633" lon="9.05383"><ele>309.3333333333333</ele><time>2026-04-03T12:36:06.001Z</time></trkpt><trkpt lat="45.711395" lon="9.0538067"><ele>309.0</ele><time>2026-04-03T12:36:07Z</time></trkpt><trkpt lat="45.711325" lon="9.0537867"><ele>308.6666666666667</ele><time>2026-04-03T12:36:08.001Z</time></trkpt><trkpt lat="45.7112533" lon="9.0537817"><ele>308.33333333333337</ele><time>2026-04-03T12:36:09.001Z</time></trkpt><trkpt lat="45.7111183" lon="9.0537733"><ele>308.0</ele><time>2026-04-03T12:36:11Z</time></trkpt><trkpt lat="45.7110467" lon="9.053795"><ele>307.7142857142857</ele><time>2026-04-03T12:36:12Z</time></trkpt><trkpt lat="45.710985" lon="9.053855"><ele>307.42857142857144</ele><time>2026-04-03T12:36:13Z</time></trkpt><trkpt lat="45.710935" lon="9.0539367"><ele>307.1428571428571</ele><time>2026-04-03T12:36:14Z</time></trkpt><trkpt lat="45.7109083" lon="9.0540333"><ele>306.8571428571429</ele><time>2026-04-03T12:36:15Z</time></trkpt><trkpt lat="45.7108867" lon="9.0541267"><ele>306.57142857142856</ele><time>2026-04-03T12:36:16Z</time></trkpt><trkpt lat="45.7108667" lon="9.054225"><ele>306.2857142857143</ele><time>2026-04-03T12:36:17Z</time></trkpt><trkpt lat="45.7108467" lon="9.054315"><ele>306.0</ele><time>2026-04-03T12:36:18Z</time></trkpt><trkpt lat="45.71083" lon="9.0544033"><ele>306.0</ele><time>2026-04-03T12:36:19Z</time></trkpt><trkpt lat="45.7108117" lon="9.05449"><ele>306.0</ele><time>2026-04-03T12:36:20Z</time></trkpt><trkpt lat="45.710795" lon="9.0545817"><ele>306.0</ele><time>2026-04-03T12:36:21.001Z</time></trkpt><trkpt lat="45.71077" lon="9.0547383"><ele>306.0</ele><time>2026-04-03T12:36:23Z</time></trkpt><trkpt lat="45.7107233" lon="9.0548567"><ele>306.0</ele><time>2026-04-03T12:36:25.001Z</time></trkpt><trkpt lat="45.7106683" lon="9.0549633"><ele>306.0</ele><time>2026-04-03T12:36:27Z</time></trkpt><trkpt lat="45.7105683" lon="9.0550133"><ele>305.8</ele><time>2026-04-03T12:36:29Z</time></trkpt><trkpt lat="45.7104417" lon="9.05504"><ele>305.6</ele><time>2026-04-03T12:36:31Z</time></trkpt><trkpt lat="45.7103167" lon="9.0550733"><ele>305.4</ele><time>2026-04-03T12:36:33.001Z</time></trkpt><trkpt lat="45.710245" lon="9.0551"><ele>305.2</ele><time>2026-04-03T12:36:34Z</time></trkpt><trkpt lat="45.7101767" lon="9.0551383"><ele>305.0</ele><time>2026-04-03T12:36:35.001Z</time></trkpt><trkpt lat="45.7101167" lon="9.0552017"><ele>305.0</ele><time>2026-04-03T12:36:36Z</time></trkpt><trkpt lat="45.7100733" lon="9.055285"><ele>305.0</ele><time>2026-04-03T12:36:37Z</time></trkpt><trkpt lat="45.71004" lon="9.0553617"><ele>305.0</ele><time>2026-04-03T12:36:38Z</time></trkpt><trkpt lat="45.710015" lon="9.05545"><ele>305.0</ele><time>2026-04-03T12:36:39Z</time></trkpt><trkpt lat="45.70999" lon="9.0555383"><ele>305.0</ele><time>2026-04-03T12:36:40.001Z</time></trkpt><trkpt lat="45.7099667" lon="9.0556267"><ele>305.0</ele><time>2026-04-03T12:36:41Z</time></trkpt><trkpt lat="45.7099383" lon="9.05571"><ele>305.0</ele><time>2026-04-03T12:36:42Z</time></trkpt><trkpt lat="45.7098933" lon="9.0557867"><ele>305.0</ele><time>2026-04-03T12:36:43Z</time></trkpt><trkpt lat="45.7097917" lon="9.05588"><ele>305.0</ele><time>2026-04-03T12:36:45.001Z</time></trkpt><trkpt lat="45.7096783" lon="9.05592"><ele>305.0</ele><time>2026-04-03T12:36:47Z</time></trkpt><trkpt lat="45.709565" lon="9.0559633"><ele>305.0</ele><time>2026-04-03T12:36:49Z</time></trkpt><trkpt lat="45.7094467" lon="9.0560083"><ele>304.2</ele><time>2026-04-03T12:36:51Z</time></trkpt><trkpt lat="45.70935" lon="9.0561017"><ele>303.4</ele><time>2026-04-03T12:36:53.001Z</time></trkpt><trkpt lat="45.7093083" lon="9.0562417"><ele>302.6</ele><time>2026-04-03T12:36:55Z</time></trkpt><trkpt lat="45.7092867" lon="9.05635"><ele>301.8</ele><time>2026-04-03T12:36:57.001Z</time></trkpt><trkpt lat="45.7092517" lon="9.0564517"><ele>301.0</ele><time>2026-04-03T12:36:59Z</time></trkpt><trkpt lat="45.7091817" lon="9.05653"><ele>301.0</ele><time>2026-04-03T12:37:01Z</time></trkpt><trkpt lat="45.7090983" lon="9.05657"><ele>301.0</ele><time>2026-04-03T12:37:03.001Z</time></trkpt><trkpt lat="45.709" lon="9.0565817"><ele>301.0</ele><time>2026-04-03T12:37:05.001Z</time></trkpt><trkpt lat="45.7088967" lon="9.0565917"><ele>301.0</ele><time>2026-04-03T12:37:07Z</time></trkpt><trkpt lat="45.7087983" lon="9.056615"><ele>301.0</ele><time>2026-04-03T12:37:09.001Z</time></trkpt><trkpt lat="45.708695" lon="9.0566317"><ele>300.8</ele><time>2026-04-03T12:37:11Z</time></trkpt><trkpt lat="45.7085917" lon="9.056655"><ele>300.6</ele><time>2026-04-03T12:37:13Z</time></trkpt><trkpt lat="45.7084917" lon="9.05667"><ele>300.4</ele><time>2026-04-03T12:37:15Z</time></trkpt><trkpt lat="45.7083917" lon="9.0566883"><ele>300.2</ele><time>2026-04-03T12:37:17Z</time></trkpt><trkpt lat="45.7082933" lon="9.05671"><ele>300.0</ele><time>2026-04-03T12:37:19Z</time></trkpt><trkpt lat="45.7081983" lon="9.0567117"><ele>299.4</ele><time>2026-04-03T12:37:21Z</time></trkpt><trkpt lat="45.7081117" lon="9.05671"><ele>298.8</ele><time>2026-04-03T12:37:23Z</time></trkpt><trkpt lat="45.7080167" lon="9.0567133"><ele>298.2</ele><time>2026-04-03T12:37:25Z</time></trkpt><trkpt lat="45.707915" lon="9.05673"><ele>297.6</ele><time>2026-04-03T12:37:27Z</time></trkpt><trkpt lat="45.7078083" lon="9.0567483"><ele>297.0</ele><time>2026-04-03T12:37:29Z</time></trkpt><trkpt lat="45.7077133" lon="9.056755"><ele>296.8</ele><time>2026-04-03T12:37:31Z</time></trkpt><trkpt lat="45.707615" lon="9.0567833"><ele>296.6</ele><time>2026-04-03T12:37:33.001Z</time></trkpt><trkpt lat="45.7075183" lon="9.0567983"><ele>296.40000000000003</ele><time>2026-04-03T12:37:35Z</time></trkpt><trkpt lat="45.70741" lon="9.05682"><ele>296.2</ele><time>2026-04-03T12:37:37Z</time></trkpt><trkpt lat="45.7073067" lon="9.0568317"><ele>296.0</ele><time>2026-04-03T12:37:39Z</time></trkpt><trkpt lat="45.7072033" lon="9.0568467"><ele>296.0</ele><time>2026-04-03T12:37:41Z</time></trkpt><trkpt lat="45.707095" lon="9.0568733"><ele>296.0</ele><time>2026-04-03T12:37:43Z</time></trkpt><trkpt lat="45.706985" lon="9.05689"><ele>296.0</ele><time>2026-04-03T12:37:45.001Z</time></trkpt><trkpt lat="45.7068883" lon="9.0568967"><ele>296.0</ele><time>2026-04-03T12:37:47Z</time></trkpt><trkpt lat="45.7067867" lon="9.0569133"><ele>296.0</ele><time>2026-04-03T12:37:49Z</time></trkpt><trkpt lat="45.70669" lon="9.056925"><ele>295.8</ele><time>2026-04-03T12:37:51Z</time></trkpt><trkpt lat="45.70659" lon="9.056945"><ele>295.6</ele><time>2026-04-03T12:37:53Z</time></trkpt><trkpt lat="45.7064933" lon="9.05696"><ele>295.4</ele><time>2026-04-03T12:37:55Z</time></trkpt><trkpt lat="45.706395" lon="9.0569733"><ele>295.2</ele><time>2026-04-03T12:37:57Z</time></trkpt><trkpt lat="45.7063067" lon="9.056985"><ele>295.0</ele><time>2026-04-03T12:37:59.001Z</time></trkpt><trkpt lat="45.7062117" lon="9.0569933"><ele>295.0</ele><time>2026-04-03T12:38:01.001Z</time></trkpt><trkpt lat="45.7061183" lon="9.0570067"><ele>295.0</ele><time>2026-04-03T12:38:03.001Z</time></trkpt><trkpt lat="45.7060267" lon="9.057025"><ele>295.0</ele><time>2026-04-03T12:38:05Z</time></trkpt><trkpt lat="45.7059333" lon="9.0570333"><ele>295.0</ele><time>2026-04-03T12:38:07Z</time></trkpt><trkpt lat="45.7058367" lon="9.057045"><ele>295.0</ele><time>2026-04-03T12:38:09Z</time></trkpt><trkpt lat="45.7057533" lon="9.0570583"><ele>294.8333333333333</ele><time>2026-04-03T12:38:11.001Z</time></trkpt><trkpt lat="45.7056633" lon="9.05708"><ele>294.66666666666663</ele><time>2026-04-03T12:38:13Z</time></trkpt><trkpt lat="45.7055733" lon="9.05709"><ele>294.5</ele><time>2026-04-03T12:38:15Z</time></trkpt><trkpt lat="45.70548" lon="9.0570983"><ele>294.3333333333333</ele><time>2026-04-03T12:38:17Z</time></trkpt><trkpt lat="45.70539" lon="9.0571067"><ele>294.1666666666667</ele><time>2026-04-03T12:38:19Z</time></trkpt><trkpt lat="45.70531" lon="9.0571217"><ele>294.0</ele><time>2026-04-03T12:38:21Z</time></trkpt><trkpt lat="45.705235" lon="9.057135"><ele>293.6666666666667</ele><time>2026-04-03T12:38:23.001Z</time></trkpt><trkpt lat="45.705155" lon="9.0571483"><ele>293.3333333333333</ele><time>2026-04-03T12:38:25.001Z</time></trkpt><trkpt lat="45.705075" lon="9.057145"><ele>293.0</ele><time>2026-04-03T12:38:27Z</time></trkpt><trkpt lat="45.7049883" lon="9.0571567"><ele>292.66666666666663</ele><time>2026-04-03T12:38:29Z</time></trkpt><trkpt lat="45.7049017" lon="9.0571667"><ele>292.3333333333333</ele><time>2026-04-03T12:38:31Z</time></trkpt><trkpt lat="45.70483" lon="9.057185"><ele>292.0</ele><time>2026-04-03T12:38:33.001Z</time></trkpt><trkpt lat="45.7047517" lon="9.0572017"><ele>292.0</ele><time>2026-04-03T12:38:35.001Z</time></trkpt><trkpt lat="45.70467" lon="9.0572117"><ele>292.0</ele><time>2026-04-03T12:38:37.001Z</time></trkpt><trkpt lat="45.7045867" lon="9.0572383"><ele>292.0</ele><time>2026-04-03T12:38:39.001Z</time></trkpt><trkpt lat="45.7045" lon="9.05724"><ele>292.0</ele><time>2026-04-03T12:38:41.002Z</time></trkpt><trkpt lat="45.704415" lon="9.0572533"><ele>292.0</ele><time>2026-04-03T12:38:43.002Z</time></trkpt><trkpt lat="45.70433" lon="9.057265"><ele>292.0</ele><time>2026-04-03T12:38:45.001Z</time></trkpt><trkpt lat="45.7042467" lon="9.0572817"><ele>292.16666666666663</ele><time>2026-04-03T12:38:47.001Z</time></trkpt><trkpt lat="45.70416" lon="9.05729"><ele>292.3333333333333</ele><time>2026-04-03T12:38:50.001Z</time></trkpt><trkpt lat="45.7040917" lon="9.05731"><ele>292.5</ele><time>2026-04-03T12:38:52.002Z</time></trkpt><trkpt lat="45.7040783" lon="9.0571683"><ele>292.6666666666667</ele><time>2026-04-03T12:38:55.001Z</time></trkpt><trkpt lat="45.7040717" lon="9.0570383"><ele>292.83333333333337</ele><time>2026-04-03T12:38:57.002Z</time></trkpt><trkpt lat="45.7040583" lon="9.0569"><ele>293.0</ele><time>2026-04-03T12:38:59.001Z</time></trkpt><trkpt lat="45.7040417" lon="9.056755"><ele>293.2</ele><time>2026-04-03T12:39:01.002Z</time></trkpt><trkpt lat="45.7040233" lon="9.0566183"><ele>293.4</ele><time>2026-04-03T12:39:03.001Z</time></trkpt><trkpt lat="45.704005" lon="9.0564717"><ele>293.59999999999997</ele><time>2026-04-03T12:39:05.001Z</time></trkpt><trkpt lat="45.7039933" lon="9.0563217"><ele>293.8</ele><time>2026-04-03T12:39:07.001Z</time></trkpt><trkpt lat="45.7039817" lon="9.056175"><ele>294.0</ele><time>2026-04-03T12:39:09.001Z</time></trkpt><trkpt lat="45.7039733" lon="9.0560483"><ele>294.0</ele><time>2026-04-03T12:39:11.001Z</time></trkpt><trkpt lat="45.7039517" lon="9.055925"><ele>294.0</ele><time>2026-04-03T12:39:13.001Z</time></trkpt><trkpt lat="45.7039417" lon="9.0557967"><ele>294.0</ele><time>2026-04-03T12:39:15.002Z</time></trkpt><trkpt lat="45.7039317" lon="9.05568"><ele>294.0</ele><time>2026-04-03T12:39:17.001Z</time></trkpt><trkpt lat="45.70393" lon="9.05557"><ele>294.0</ele><time>2026-04-03T12:39:19.001Z</time></trkpt><trkpt lat="45.7039183" lon="9.05547"><ele>294.0</ele><time>2026-04-03T12:39:21.001Z</time></trkpt><trkpt lat="45.7039033" lon="9.05538"><ele>294.0</ele><time>2026-04-03T12:39:23.001Z</time></trkpt><trkpt lat="45.703885" lon="9.0552767"><ele>294.0</ele><time>2026-04-03T12:39:25.001Z</time></trkpt><trkpt lat="45.703875" lon="9.0551817"><ele>294.0</ele><time>2026-04-03T12:39:27.001Z</time></trkpt><trkpt lat="45.703885" lon="9.05508"><ele>294.0</ele><time>2026-04-03T12:39:29.001Z</time></trkpt><trkpt lat="45.7038967" lon="9.0549733"><ele>294.0</ele><time>2026-04-03T12:39:31.002Z</time></trkpt><trkpt lat="45.7038883" lon="9.0548767"><ele>294.0</ele><time>2026-04-03T12:39:33.001Z</time></trkpt><trkpt lat="45.7039317" lon="9.05478"><ele>294.0</ele><time>2026-04-03T12:39:36.001Z</time></trkpt><trkpt lat="45.704015" lon="9.0547683"><ele>294.0</ele><time>2026-04-03T12:39:39.001Z</time></trkpt><trkpt lat="45.7041083" lon="9.054785"><ele>294.0</ele><time>2026-04-03T12:39:42.001Z</time></trkpt><trkpt lat="45.704185" lon="9.0547933"><ele>294.0</ele><time>2026-04-03T12:39:45.001Z</time></trkpt><trkpt lat="45.7042517" lon="9.0548217"><ele>294.0</ele><time>2026-04-03T12:39:48.002Z</time></trkpt><trkpt lat="45.7043267" lon="9.0548133"><ele>294.0</ele><time>2026-04-03T12:39:51.001Z</time></trkpt><trkpt lat="45.7043933" lon="9.0548483"><ele>294.0</ele><time>2026-04-03T12:39:53.001Z</time></trkpt><trkpt lat="45.70448" lon="9.0548683"><ele>294.1666666666667</ele><time>2026-04-03T12:39:55.002Z</time></trkpt><trkpt lat="45.704565" lon="9.0548817"><ele>294.3333333333333</ele><time>2026-04-03T12:39:57.001Z</time></trkpt><trkpt lat="45.7046567" lon="9.054885"><ele>294.5</ele><time>2026-04-03T12:39:59.001Z</time></trkpt><trkpt lat="45.7047333" lon="9.0548967"><ele>294.66666666666663</ele><time>2026-04-03T12:40:01.001Z</time></trkpt><trkpt lat="45.7048167" lon="9.05488"><ele>294.8333333333333</ele><time>2026-04-03T12:40:03.002Z</time></trkpt><trkpt lat="45.7049017" lon="9.05481"><ele>295.0</ele><time>2026-04-03T12:40:06.001Z</time></trkpt><trkpt lat="45.7049533" lon="9.0547383"><ele>295.00000000000006</ele><time>2026-04-03T12:40:08.001Z</time></trkpt><trkpt lat="45.705" lon="9.0546617"><ele>295.0</ele><time>2026-04-03T12:40:10.001Z</time></trkpt><trkpt lat="45.7050467" lon="9.054575"><ele>295.0</ele><time>2026-04-03T12:40:12.001Z</time></trkpt><trkpt lat="45.705075" lon="9.0544933"><ele>295.0</ele><time>2026-04-03T12:40:14.002Z</time></trkpt><trkpt lat="45.70511" lon="9.0543783"><ele>295.0</ele><time>2026-04-03T12:40:17.001Z</time></trkpt><trkpt lat="45.7051433" lon="9.054285"><ele>295.00000000000006</ele><time>2026-04-03T12:40:19.001Z</time></trkpt><trkpt lat="45.705175" lon="9.0541867"><ele>295.0</ele><time>2026-04-03T12:40:21.001Z</time></trkpt><trkpt lat="45.705205" lon="9.0540983"><ele>295.00000000000006</ele><time>2026-04-03T12:40:23.001Z</time></trkpt><trkpt lat="45.7052317" lon="9.053975"><ele>295.0</ele><time>2026-04-03T12:40:26.001Z</time></trkpt><trkpt lat="45.7052617" lon="9.0538683"><ele>295.0</ele><time>2026-04-03T12:40:28.001Z</time></trkpt><trkpt lat="45.70528" lon="9.0537733"><ele>295.0</ele><time>2026-04-03T12:40:30.001Z</time></trkpt><trkpt lat="45.7052933" lon="9.053675"><ele>295.0</ele><time>2026-04-03T12:40:32.002Z</time></trkpt><trkpt lat="45.705305" lon="9.0535833"><ele>295.00000000000006</ele><time>2026-04-03T12:40:34.001Z</time></trkpt><trkpt lat="45.7053117" lon="9.0534883"><ele>295.0</ele><time>2026-04-03T12:40:36.002Z</time></trkpt><trkpt lat="45.705355" lon="9.0534017"><ele>295.16666666666663</ele><time>2026-04-03T12:40:38.001Z</time></trkpt><trkpt lat="45.70539" lon="9.0532967"><ele>295.3333333333333</ele><time>2026-04-03T12:40:40.002Z</time></trkpt><trkpt lat="45.7054317" lon="9.05319"><ele>295.5</ele><time>2026-04-03T12:40:42.001Z</time></trkpt><trkpt lat="45.705475" lon="9.05308"><ele>295.6666666666667</ele><time>2026-04-03T12:40:44.001Z</time></trkpt><trkpt lat="45.705535" lon="9.052975"><ele>295.83333333333337</ele><time>2026-04-03T12:40:46.002Z</time></trkpt><trkpt lat="45.7056017" lon="9.052885"><ele>296.0</ele><time>2026-04-03T12:40:48.001Z</time></trkpt><trkpt lat="45.7056783" lon="9.0527883"><ele>296.0</ele><time>2026-04-03T12:40:50.001Z</time></trkpt><trkpt lat="45.70576" lon="9.05268"><ele>296.0</ele><time>2026-04-03T12:40:52.001Z</time></trkpt><trkpt lat="45.70582" lon="9.052565"><ele>296.0</ele><time>2026-04-03T12:40:54.002Z</time></trkpt><trkpt lat="45.7058617" lon="9.0524267"><ele>296.0</ele><time>2026-04-03T12:40:56.001Z</time></trkpt><trkpt lat="45.7058733" lon="9.0523067"><ele>296.0</ele><time>2026-04-03T12:40:58.002Z</time></trkpt><trkpt lat="45.705865" lon="9.052175"><ele>296.0</ele><time>2026-04-03T12:41:00.001Z</time></trkpt><trkpt lat="45.7058517" lon="9.05205"><ele>296.0</ele><time>2026-04-03T12:41:02.001Z</time></trkpt><trkpt lat="45.7058533" lon="9.0519217"><ele>296.0</ele><time>2026-04-03T12:41:04.001Z</time></trkpt><trkpt lat="45.7058583" lon="9.0518017"><ele>296.0</ele><time>2026-04-03T12:41:06.001Z</time></trkpt><trkpt lat="45.7058667" lon="9.0516883"><ele>296.0</ele><time>2026-04-03T12:41:08.001Z</time></trkpt><trkpt lat="45.7058767" lon="9.05157"><ele>296.0</ele><time>2026-04-03T12:41:10.001Z</time></trkpt><trkpt lat="45.70589" lon="9.0514583"><ele>295.0</ele><time>2026-04-03T12:41:12.002Z</time></trkpt><trkpt lat="45.7058917" lon="9.051345"><ele>294.0</ele><time>2026-04-03T12:41:14.002Z</time></trkpt><trkpt lat="45.7058817" lon="9.0512233"><ele>293.0</ele><time>2026-04-03T12:41:16.002Z</time></trkpt><trkpt lat="45.70588" lon="9.0511083"><ele>292.0</ele><time>2026-04-03T12:41:18.001Z</time></trkpt><trkpt lat="45.7058683" lon="9.0510017"><ele>291.0</ele><time>2026-04-03T12:41:20.002Z</time></trkpt><trkpt lat="45.7058533" lon="9.050875"><ele>290.0</ele><time>2026-04-03T12:41:22.002Z</time></trkpt><trkpt lat="45.7058483" lon="9.0507533"><ele>290.0</ele><time>2026-04-03T12:41:24.001Z</time></trkpt><trkpt lat="45.7058417" lon="9.05064"><ele>290.0</ele><time>2026-04-03T12:41:26.001Z</time></trkpt><trkpt lat="45.7058367" lon="9.05052"><ele>290.0</ele><time>2026-04-03T12:41:28.001Z</time></trkpt><trkpt lat="45.705835" lon="9.0504067"><ele>290.0</ele><time>2026-04-03T12:41:30.001Z</time></trkpt><trkpt lat="45.705835" lon="9.050305"><ele>290.0</ele><time>2026-04-03T12:41:32.001Z</time></trkpt><trkpt lat="45.7058317" lon="9.0502033"><ele>290.0</ele><time>2026-04-03T12:41:34.002Z</time></trkpt><trkpt lat="45.7058467" lon="9.0501067"><ele>290.0</ele><time>2026-04-03T12:41:36.001Z</time></trkpt><trkpt lat="45.7058567" lon="9.0500083"><ele>290.0</ele><time>2026-04-03T12:41:38.001Z</time></trkpt><trkpt lat="45.7058783" lon="9.04991"><ele>290.0</ele><time>2026-04-03T12:41:40.002Z</time></trkpt><trkpt lat="45.7059" lon="9.049815"><ele>290.0</ele><time>2026-04-03T12:41:42.002Z</time></trkpt><trkpt lat="45.705925" lon="9.049695"><ele>290.0</ele><time>2026-04-03T12:41:45.001Z</time></trkpt><trkpt lat="45.7059517" lon="9.0495917"><ele>290.0</ele><time>2026-04-03T12:41:47.001Z</time></trkpt><trkpt lat="45.7059883" lon="9.0494967"><ele>290.5</ele><time>2026-04-03T12:41:49.001Z</time></trkpt><trkpt lat="45.7060117" lon="9.0494067"><ele>291.0</ele><time>2026-04-03T12:41:51.001Z</time></trkpt><trkpt lat="45.706045" lon="9.0492917"><ele>291.5</ele><time>2026-04-03T12:41:54.001Z</time></trkpt><trkpt lat="45.7060633" lon="9.0492"><ele>292.0</ele><time>2026-04-03T12:41:56.001Z</time></trkpt><trkpt lat="45.7060933" lon="9.049075"><ele>292.5</ele><time>2026-04-03T12:41:59.001Z</time></trkpt><trkpt lat="45.7061067" lon="9.0489583"><ele>293.0</ele><time>2026-04-03T12:42:02.002Z</time></trkpt><trkpt lat="45.7060967" lon="9.0488417"><ele>293.1666666666667</ele><time>2026-04-03T12:42:05.001Z</time></trkpt><trkpt lat="45.706095" lon="9.0487217"><ele>293.33333333333337</ele><time>2026-04-03T12:42:08.001Z</time></trkpt><trkpt lat="45.7060867" lon="9.0485917"><ele>293.5</ele><time>2026-04-03T12:42:11.001Z</time></trkpt><trkpt lat="45.7060583" lon="9.0484717"><ele>293.6666666666667</ele><time>2026-04-03T12:42:14.002Z</time></trkpt><trkpt lat="45.706015" lon="9.0483517"><ele>293.8333333333333</ele><time>2026-04-03T12:42:17.001Z</time></trkpt><trkpt lat="45.705975" lon="9.0482733"><ele>294.0</ele><time>2026-04-03T12:42:19.001Z</time></trkpt><trkpt lat="45.705915" lon="9.048205"><ele>294.0</ele><time>2026-04-03T12:42:21.002Z</time></trkpt><trkpt lat="45.7058467" lon="9.048145"><ele>294.0</ele><time>2026-04-03T12:42:23.002Z</time></trkpt><trkpt lat="45.705775" lon="9.0480917"><ele>294.0</ele><time>2026-04-03T12:42:25.001Z</time></trkpt><trkpt lat="45.7057033" lon="9.048035"><ele>294.0</ele><time>2026-04-03T12:42:27.002Z</time></trkpt><trkpt lat="45.7056333" lon="9.04798"><ele>294.0</ele><time>2026-04-03T12:42:29.001Z</time></trkpt><trkpt lat="45.7055717" lon="9.04793"><ele>294.0</ele><time>2026-04-03T12:42:31.002Z</time></trkpt><trkpt lat="45.7054933" lon="9.0478883"><ele>294.0</ele><time>2026-04-03T12:42:33.001Z</time></trkpt><trkpt lat="45.7054183" lon="9.0478283"><ele>294.0</ele><time>2026-04-03T12:42:35.002Z</time></trkpt><trkpt lat="45.7053417" lon="9.04778"><ele>294.0</ele><time>2026-04-03T12:42:37.001Z</time></trkpt><trkpt lat="45.7052633" lon="9.0477267"><ele>294.0</ele><time>2026-04-03T12:42:39.002Z</time></trkpt><trkpt lat="45.705185" lon="9.04767"><ele>294.0</ele><time>2026-04-03T12:42:41.001Z</time></trkpt><trkpt lat="45.7051017" lon="9.0476217"><ele>294.0</ele><time>2026-04-03T12:42:43.001Z</time></trkpt><trkpt lat="45.705025" lon="9.047565"><ele>293.4</ele><time>2026-04-03T12:42:45.001Z</time></trkpt><trkpt lat="45.704945" lon="9.0475"><ele>292.79999999999995</ele><time>2026-04-03T12:42:47.001Z</time></trkpt><trkpt lat="45.7048633" lon="9.0474267"><ele>292.20000000000005</ele><time>2026-04-03T12:42:49.001Z</time></trkpt><trkpt lat="45.7047833" lon="9.04736"><ele>291.6</ele><time>2026-04-03T12:42:51.001Z</time></trkpt><trkpt lat="45.70469" lon="9.0473017"><ele>291.0</ele><time>2026-04-03T12:42:53.001Z</time></trkpt><trkpt lat="45.7045867" lon="9.0472267"><ele>290.8</ele><time>2026-04-03T12:42:55.002Z</time></trkpt><trkpt lat="45.7045" lon="9.0471667"><ele>290.6</ele><time>2026-04-03T12:42:57.002Z</time></trkpt><trkpt lat="45.704415" lon="9.0470967"><ele>290.4</ele><time>2026-04-03T12:42:59.001Z</time></trkpt><trkpt lat="45.704325" lon="9.0470417"><ele>290.2</ele><time>2026-04-03T12:43:01.002Z</time></trkpt><trkpt lat="45.704235" lon="9.04697"><ele>290.0</ele><time>2026-04-03T12:43:03.002Z</time></trkpt><trkpt lat="45.7041467" lon="9.0469067"><ele>290.0</ele><time>2026-04-03T12:43:05.001Z</time></trkpt><trkpt lat="45.7040583" lon="9.0468317"><ele>290.0</ele><time>2026-04-03T12:43:07.001Z</time></trkpt><trkpt lat="45.7039533" lon="9.0467767"><ele>290.0</ele><time>2026-04-03T12:43:09.001Z</time></trkpt><trkpt lat="45.7038517" lon="9.0467117"><ele>290.0</ele><time>2026-04-03T12:43:11.001Z</time></trkpt><trkpt lat="45.7037617" lon="9.04665"><ele>290.0</ele><time>2026-04-03T12:43:13.002Z</time></trkpt><trkpt lat="45.70366" lon="9.0465767"><ele>289.0</ele><time>2026-04-03T12:43:15.001Z</time></trkpt><trkpt lat="45.7035667" lon="9.04651"><ele>288.0</ele><time>2026-04-03T12:43:17.001Z</time></trkpt><trkpt lat="45.7034667" lon="9.0464333"><ele>287.0</ele><time>2026-04-03T12:43:19.002Z</time></trkpt><trkpt lat="45.7033783" lon="9.046355"><ele>286.0</ele><time>2026-04-03T12:43:21.001Z</time></trkpt><trkpt lat="45.7032817" lon="9.0462783"><ele>285.0</ele><time>2026-04-03T12:43:23.001Z</time></trkpt><trkpt lat="45.703225" lon="9.04623"><ele>285.0</ele><time>2026-04-03T12:43:24.001Z</time></trkpt><trkpt lat="45.7031167" lon="9.0461483"><ele>285.0</ele><time>2026-04-03T12:43:26.001Z</time></trkpt><trkpt lat="45.703005" lon="9.0460683"><ele>285.0</ele><time>2026-04-03T12:43:28.001Z</time></trkpt><trkpt lat="45.7029017" lon="9.0459917"><ele>285.0</ele><time>2026-04-03T12:43:30.001Z</time></trkpt><trkpt lat="45.7028" lon="9.0459367"><ele>284.5</ele><time>2026-04-03T12:43:32.001Z</time></trkpt><trkpt lat="45.7026817" lon="9.045895"><ele>284.0</ele><time>2026-04-03T12:43:34.002Z</time></trkpt><trkpt lat="45.7025683" lon="9.04585"><ele>283.5</ele><time>2026-04-03T12:43:36.001Z</time></trkpt><trkpt lat="45.70246" lon="9.0458183"><ele>283.0</ele><time>2026-04-03T12:43:38.001Z</time></trkpt><trkpt lat="45.7023583" lon="9.0457917"><ele>283.16666666666663</ele><time>2026-04-03T12:43:40.001Z</time></trkpt><trkpt lat="45.70226" lon="9.045765"><ele>283.3333333333333</ele><time>2026-04-03T12:43:42.001Z</time></trkpt><trkpt lat="45.7021717" lon="9.0457333"><ele>283.5</ele><time>2026-04-03T12:43:44.001Z</time></trkpt><trkpt lat="45.7021" lon="9.0456967"><ele>283.6666666666667</ele><time>2026-04-03T12:43:46.001Z</time></trkpt><trkpt lat="45.7020317" lon="9.045675"><ele>283.83333333333337</ele><time>2026-04-03T12:43:48.001Z</time></trkpt><trkpt lat="45.70195" lon="9.04566"><ele>284.0</ele><time>2026-04-03T12:43:50.001Z</time></trkpt><trkpt lat="45.7018467" lon="9.0456367"><ele>284.0</ele><time>2026-04-03T12:43:52.002Z</time></trkpt><trkpt lat="45.70173" lon="9.0456067"><ele>284.0</ele><time>2026-04-03T12:43:54.001Z</time></trkpt><trkpt lat="45.7016667" lon="9.0455883"><ele>284.0</ele><time>2026-04-03T12:43:55.002Z</time></trkpt><trkpt lat="45.7015467" lon="9.0455433"><ele>284.0</ele><time>2026-04-03T12:43:57.001Z</time></trkpt><trkpt lat="45.7014767" lon="9.0455067"><ele>284.0</ele><time>2026-04-03T12:43:58.001Z</time></trkpt><trkpt lat="45.7014117" lon="9.0454517"><ele>284.0</ele><time>2026-04-03T12:43:59.001Z</time></trkpt><trkpt lat="45.70135" lon="9.0453983"><ele>284.0</ele><time>2026-04-03T12:44:00.001Z</time></trkpt><trkpt lat="45.7012933" lon="9.045325"><ele>284.0</ele><time>2026-04-03T12:44:01.001Z</time></trkpt><trkpt lat="45.7012467" lon="9.045245"><ele>284.0</ele><time>2026-04-03T12:44:02.002Z</time></trkpt><trkpt lat="45.7011933" lon="9.04517"><ele>284.0</ele><time>2026-04-03T12:44:03.001Z</time></trkpt><trkpt lat="45.701145" lon="9.04508"><ele>284.0</ele><time>2026-04-03T12:44:04.001Z</time></trkpt><trkpt lat="45.7010983" lon="9.0449717"><ele>282.6666666666667</ele><time>2026-04-03T12:44:05.001Z</time></trkpt><trkpt lat="45.7010633" lon="9.044845"><ele>281.33333333333337</ele><time>2026-04-03T12:44:06.001Z</time></trkpt><trkpt lat="45.7010267" lon="9.0447267"><ele>280.0</ele><time>2026-04-03T12:44:07.001Z</time></trkpt><trkpt lat="45.7010033" lon="9.0446067"><ele>278.6666666666667</ele><time>2026-04-03T12:44:08.001Z</time></trkpt><trkpt lat="45.7009883" lon="9.0444917"><ele>277.3333333333333</ele><time>2026-04-03T12:44:09.001Z</time></trkpt><trkpt lat="45.7009733" lon="9.0443717"><ele>276.0</ele><time>2026-04-03T12:44:10.002Z</time></trkpt><trkpt lat="45.700955" lon="9.0442583"><ele>276.0</ele><time>2026-04-03T12:44:11.002Z</time></trkpt><trkpt lat="45.700935" lon="9.0441517"><ele>276.0</ele><time>2026-04-03T12:44:12.001Z</time></trkpt><trkpt lat="45.700915" lon="9.04404"><ele>276.0</ele><time>2026-04-03T12:44:13.001Z</time></trkpt><trkpt lat="45.7008967" lon="9.0439333"><ele>276.0</ele><time>2026-04-03T12:44:14.001Z</time></trkpt><trkpt lat="45.7008817" lon="9.0438283"><ele>276.0</ele><time>2026-04-03T12:44:15.002Z</time></trkpt><trkpt lat="45.7008667" lon="9.043725"><ele>276.0</ele><time>2026-04-03T12:44:16.001Z</time></trkpt><trkpt lat="45.70085" lon="9.04363"><ele>275.0</ele><time>2026-04-03T12:44:17.002Z</time></trkpt><trkpt lat="45.700835" lon="9.0435367"><ele>274.0</ele><time>2026-04-03T12:44:18.001Z</time></trkpt><trkpt lat="45.7008117" lon="9.04345"><ele>273.0</ele><time>2026-04-03T12:44:19.002Z</time></trkpt><trkpt lat="45.7007833" lon="9.0433683"><ele>272.0</ele><time>2026-04-03T12:44:20.002Z</time></trkpt><trkpt lat="45.700675" lon="9.04326"><ele>271.0</ele><time>2026-04-03T12:44:22.002Z</time></trkpt><trkpt lat="45.700605" lon="9.04322"><ele>270.0</ele><time>2026-04-03T12:44:23.001Z</time></trkpt><trkpt lat="45.7005283" lon="9.043195"><ele>270.42857142857144</ele><time>2026-04-03T12:44:24.001Z</time></trkpt><trkpt lat="45.7004583" lon="9.043175"><ele>270.85714285714283</ele><time>2026-04-03T12:44:25.001Z</time></trkpt><trkpt lat="45.70038" lon="9.0431683"><ele>271.2857142857143</ele><time>2026-04-03T12:44:26.001Z</time></trkpt><trkpt lat="45.7003083" lon="9.0431717"><ele>271.7142857142857</ele><time>2026-04-03T12:44:27.001Z</time></trkpt><trkpt lat="45.70024" lon="9.0431683"><ele>272.1428571428571</ele><time>2026-04-03T12:44:28.002Z</time></trkpt><trkpt lat="45.7001733" lon="9.0431533"><ele>272.57142857142856</ele><time>2026-04-03T12:44:29.001Z</time></trkpt><trkpt lat="45.70011" lon="9.0431233"><ele>273.0</ele><time>2026-04-03T12:44:30.001Z</time></trkpt><trkpt lat="45.700055" lon="9.04307"><ele>273.0</ele><time>2026-04-03T12:44:31.002Z</time></trkpt><trkpt lat="45.7000033" lon="9.0430033"><ele>273.0</ele><time>2026-04-03T12:44:32.001Z</time></trkpt><trkpt lat="45.6999533" lon="9.0429483"><ele>273.0</ele><time>2026-04-03T12:44:33.002Z</time></trkpt><trkpt lat="45.6998633" lon="9.0428533"><ele>273.0</ele><time>2026-04-03T12:44:35.002Z</time></trkpt><trkpt lat="45.6997867" lon="9.0427733"><ele>273.0</ele><time>2026-04-03T12:44:37.001Z</time></trkpt><trkpt lat="45.6997317" lon="9.0427"><ele>273.0</ele><time>2026-04-03T12:44:39.002Z</time></trkpt><trkpt lat="45.6996633" lon="9.04261"><ele>273.0</ele><time>2026-04-03T12:44:42.001Z</time></trkpt><trkpt lat="45.6996183" lon="9.0425433"><ele>273.0</ele><time>2026-04-03T12:44:44.001Z</time></trkpt><trkpt lat="45.699575" lon="9.0424767"><ele>273.0</ele><time>2026-04-03T12:44:46.002Z</time></trkpt><trkpt lat="45.6995183" lon="9.042385"><ele>273.0</ele><time>2026-04-03T12:44:49.002Z</time></trkpt><trkpt lat="45.6994683" lon="9.042315"><ele>273.0</ele><time>2026-04-03T12:44:52.001Z</time></trkpt><trkpt lat="45.6993983" lon="9.0422567"><ele>273.0</ele><time>2026-04-03T12:44:55.001Z</time></trkpt><trkpt lat="45.6993233" lon="9.0422017"><ele>273.0</ele><time>2026-04-03T12:44:58.002Z</time></trkpt><trkpt lat="45.699245" lon="9.0421533"><ele>276.3333333333333</ele><time>2026-04-03T12:45:01.001Z</time></trkpt><trkpt lat="45.699185" lon="9.042115"><ele>279.6666666666667</ele><time>2026-04-03T12:45:03.001Z</time></trkpt><trkpt lat="45.6991383" lon="9.04202"><ele>283.0</ele><time>2026-04-03T12:45:06.001Z</time></trkpt><trkpt lat="45.6990533" lon="9.041955"><ele>286.33333333333337</ele><time>2026-04-03T12:45:09.001Z</time></trkpt><trkpt lat="45.698995" lon="9.04192"><ele>289.6666666666667</ele><time>2026-04-03T12:45:11.002Z</time></trkpt><trkpt lat="45.6989267" lon="9.04187"><ele>293.0</ele><time>2026-04-03T12:45:14.002Z</time></trkpt><trkpt lat="45.69887" lon="9.0418167"><ele>293.0</ele><time>2026-04-03T12:45:17.002Z</time></trkpt><trkpt lat="45.698815" lon="9.04176"><ele>293.0</ele><time>2026-04-03T12:45:20.001Z</time></trkpt><trkpt lat="45.698755" lon="9.041685"><ele>293.0</ele><time>2026-04-03T12:45:23.002Z</time></trkpt><trkpt lat="45.6987333" lon="9.0415783"><ele>293.0</ele><time>2026-04-03T12:45:26.001Z</time></trkpt><trkpt lat="45.6987183" lon="9.0414867"><ele>293.0</ele><time>2026-04-03T12:45:29.002Z</time></trkpt><trkpt lat="45.69869" lon="9.0413783"><ele>293.0</ele><time>2026-04-03T12:45:33.002Z</time></trkpt><trkpt lat="45.69865" lon="9.04128"><ele>293.1666666666667</ele><time>2026-04-03T12:45:37.001Z</time></trkpt><trkpt lat="45.698595" lon="9.0411933"><ele>293.33333333333337</ele><time>2026-04-03T12:45:41.001Z</time></trkpt><trkpt lat="45.6985467" lon="9.0411083"><ele>293.5</ele><time>2026-04-03T12:45:44.001Z</time></trkpt><trkpt lat="45.6984933" lon="9.041035"><ele>293.6666666666667</ele><time>2026-04-03T12:45:48.001Z</time></trkpt><trkpt lat="45.69843" lon="9.0409517"><ele>293.8333333333333</ele><time>2026-04-03T12:45:52.001Z</time></trkpt><trkpt lat="45.6984317" lon="9.040855"><ele>294.0</ele><time>2026-04-03T12:45:56.002Z</time></trkpt><trkpt lat="45.6985017" lon="9.0408667"><ele>294.0</ele><time>2026-04-03T12:46:54.002Z</time></trkpt><trkpt lat="45.6986083" lon="9.040955"><ele>294.0</ele><time>2026-04-03T12:47:15.002Z</time></trkpt><trkpt lat="45.6986483" lon="9.041025"><ele>294.0</ele><time>2026-04-03T12:47:18.002Z</time></trkpt><trkpt lat="45.6987" lon="9.0410883"><ele>294.0</ele><time>2026-04-03T12:47:22.002Z</time></trkpt><trkpt lat="45.69877" lon="9.0410433"><ele>294.0</ele><time>2026-04-03T12:47:27.002Z</time></trkpt><trkpt lat="45.69875" lon="9.0409467"><ele>294.0</ele><time>2026-04-03T12:47:31.002Z</time></trkpt><trkpt lat="45.69872" lon="9.0408617"><ele>293.8333333333333</ele><time>2026-04-03T12:47:35.002Z</time></trkpt><trkpt lat="45.6986283" lon="9.0407883"><ele>293.6666666666667</ele><time>2026-04-03T12:47:50.002Z</time></trkpt><trkpt lat="45.6986683" lon="9.0407183"><ele>293.5</ele><time>2026-04-03T12:47:57.002Z</time></trkpt><trkpt lat="45.6986667" lon="9.0406167"><ele>293.33333333333337</ele><time>2026-04-03T12:48:08.003Z</time></trkpt><trkpt lat="45.69867" lon="9.0405083"><ele>293.1666666666667</ele><time>2026-04-03T12:48:12.002Z</time></trkpt><trkpt lat="45.69859" lon="9.0404883"><ele>293.0</ele><time>2026-04-03T12:48:24.002Z</time></trkpt><trkpt lat="45.6985267" lon="9.040505"><ele>293.0</ele><time>2026-04-03T12:48:29.003Z</time></trkpt><trkpt lat="45.6984183" lon="9.0403967"><ele>293.0</ele><time>2026-04-03T12:56:35.004Z</time></trkpt><trkpt lat="45.69835" lon="9.0403833"><ele>293.0</ele><time>2026-04-03T12:56:42.003Z</time></trkpt><trkpt lat="45.6983067" lon="9.0402983"><ele>293.0</ele><time>2026-04-03T12:56:47.004Z</time></trkpt><trkpt lat="45.6983083" lon="9.0401933"><ele>293.0</ele><time>2026-04-03T12:56:50.003Z</time></trkpt><trkpt lat="45.698315" lon="9.0400783"><ele>293.0</ele><time>2026-04-03T12:56:53.003Z</time></trkpt><trkpt lat="45.6983117" lon="9.0399683"><ele>293.33333333333337</ele><time>2026-04-03T12:56:56.003Z</time></trkpt><trkpt lat="45.69829" lon="9.0398683"><ele>293.6666666666667</ele><time>2026-04-03T12:56:59.003Z</time></trkpt><trkpt lat="45.6982167" lon="9.039805"><ele>294.0</ele><time>2026-04-03T12:57:02.003Z</time></trkpt><trkpt lat="45.6981517" lon="9.03981"><ele>294.3333333333333</ele><time>2026-04-03T12:57:04.004Z</time></trkpt><trkpt lat="45.698065" lon="9.0398183"><ele>294.66666666666663</ele><time>2026-04-03T12:57:07.004Z</time></trkpt><trkpt lat="45.697985" lon="9.0398433"><ele>295.0</ele><time>2026-04-03T12:57:10.004Z</time></trkpt><trkpt lat="45.6979033" lon="9.0398417"><ele>295.0</ele><time>2026-04-03T12:57:13.003Z</time></trkpt><trkpt lat="45.6978183" lon="9.0398317"><ele>295.0</ele><time>2026-04-03T12:57:16.003Z</time></trkpt><trkpt lat="45.6977367" lon="9.039845"><ele>295.0</ele><time>2026-04-03T12:57:19.003Z</time></trkpt><trkpt lat="45.69767" lon="9.039865"><ele>295.0</ele><time>2026-04-03T12:57:22.004Z</time></trkpt><trkpt lat="45.6976" lon="9.0399"><ele>295.0</ele><time>2026-04-03T12:57:25.003Z</time></trkpt><trkpt lat="45.6975217" lon="9.0399333"><ele>295.0</ele><time>2026-04-03T12:57:28.003Z</time></trkpt><trkpt lat="45.6974417" lon="9.0399717"><ele>295.00000000000006</ele><time>2026-04-03T12:57:31.003Z</time></trkpt><trkpt lat="45.69739" lon="9.0400417"><ele>295.0</ele><time>2026-04-03T12:57:34.004Z</time></trkpt><trkpt lat="45.6973367" lon="9.0401333"><ele>295.0</ele><time>2026-04-03T12:57:38.004Z</time></trkpt><trkpt lat="45.6972817" lon="9.0401917"><ele>295.0</ele><time>2026-04-03T12:57:41.003Z</time></trkpt><trkpt lat="45.6972333" lon="9.0402517"><ele>295.0</ele><time>2026-04-03T12:57:44.004Z</time></trkpt><trkpt lat="45.6971883" lon="9.040315"><ele>295.00000000000006</ele><time>2026-04-03T12:57:47.003Z</time></trkpt><trkpt lat="45.6971467" lon="9.04039"><ele>295.0</ele><time>2026-04-03T12:57:50.003Z</time></trkpt><trkpt lat="45.6970717" lon="9.0404317"><ele>295.00000000000006</ele><time>2026-04-03T12:57:53.003Z</time></trkpt><trkpt lat="45.69701" lon="9.04047"><ele>295.0</ele><time>2026-04-03T12:57:55.003Z</time></trkpt><trkpt lat="45.6969367" lon="9.0405267"><ele>295.0</ele><time>2026-04-03T12:57:58.004Z</time></trkpt><trkpt lat="45.6968733" lon="9.0405733"><ele>295.0</ele><time>2026-04-03T12:58:01.003Z</time></trkpt><trkpt lat="45.696805" lon="9.0406133"><ele>295.0</ele><time>2026-04-03T12:58:04.003Z</time></trkpt><trkpt lat="45.6967333" lon="9.040605"><ele>295.00000000000006</ele><time>2026-04-03T12:58:06.003Z</time></trkpt><trkpt lat="45.6966667" lon="9.0405733"><ele>295.0</ele><time>2026-04-03T12:58:08.003Z</time></trkpt><trkpt lat="45.6965817" lon="9.0405383"><ele>295.4</ele><time>2026-04-03T12:58:10.003Z</time></trkpt><trkpt lat="45.6964983" lon="9.040505"><ele>295.8</ele><time>2026-04-03T12:58:12.003Z</time></trkpt><trkpt lat="45.6964067" lon="9.0404867"><ele>296.2</ele><time>2026-04-03T12:58:14.004Z</time></trkpt><trkpt lat="45.6963033" lon="9.0404767"><ele>296.6</ele><time>2026-04-03T12:58:16.003Z</time></trkpt><trkpt lat="45.6961933" lon="9.04046"><ele>297.0</ele><time>2026-04-03T12:58:18.004Z</time></trkpt><trkpt lat="45.696075" lon="9.0404317"><ele>296.2</ele><time>2026-04-03T12:58:20.003Z</time></trkpt><trkpt lat="45.6959683" lon="9.0404117"><ele>295.4</ele><time>2026-04-03T12:58:22.004Z</time></trkpt><trkpt lat="45.69585" lon="9.040415"><ele>294.6</ele><time>2026-04-03T12:58:24.003Z</time></trkpt><trkpt lat="45.6957317" lon="9.0404133"><ele>293.8</ele><time>2026-04-03T12:58:26.003Z</time></trkpt><trkpt lat="45.6956633" lon="9.0404017"><ele>293.0</ele><time>2026-04-03T12:58:27.003Z</time></trkpt><trkpt lat="45.69554" lon="9.0403783"><ele>292.99999999999994</ele><time>2026-04-03T12:58:29.003Z</time></trkpt><trkpt lat="45.6954683" lon="9.0403817"><ele>293.0</ele><time>2026-04-03T12:58:30.004Z</time></trkpt><trkpt lat="45.6953983" lon="9.0403767"><ele>293.0</ele><time>2026-04-03T12:58:31.003Z</time></trkpt><trkpt lat="45.6953333" lon="9.040365"><ele>293.0</ele><time>2026-04-03T12:58:32.004Z</time></trkpt><trkpt lat="45.6952667" lon="9.040365"><ele>293.0</ele><time>2026-04-03T12:58:33.003Z</time></trkpt><trkpt lat="45.6951933" lon="9.040355"><ele>292.99999999999994</ele><time>2026-04-03T12:58:34.003Z</time></trkpt><trkpt lat="45.6951167" lon="9.0403383"><ele>293.0</ele><time>2026-04-03T12:58:35.004Z</time></trkpt><trkpt lat="45.695045" lon="9.0403283"><ele>292.0</ele><time>2026-04-03T12:58:36.003Z</time></trkpt><trkpt lat="45.694965" lon="9.0403267"><ele>291.0</ele><time>2026-04-03T12:58:37.004Z</time></trkpt><trkpt lat="45.6948833" lon="9.0403217"><ele>290.0</ele><time>2026-04-03T12:58:38.004Z</time></trkpt><trkpt lat="45.6948033" lon="9.04031"><ele>289.0</ele><time>2026-04-03T12:58:39.004Z</time></trkpt><trkpt lat="45.6947283" lon="9.040315"><ele>288.0</ele><time>2026-04-03T12:58:40.004Z</time></trkpt><trkpt lat="45.6946533" lon="9.0403233"><ele>287.0</ele><time>2026-04-03T12:58:41.003Z</time></trkpt><trkpt lat="45.6945767" lon="9.04033"><ele>287.0</ele><time>2026-04-03T12:58:42.003Z</time></trkpt><trkpt lat="45.6944983" lon="9.04033"><ele>287.0</ele><time>2026-04-03T12:58:43.003Z</time></trkpt><trkpt lat="45.6944217" lon="9.0403383"><ele>287.0</ele><time>2026-04-03T12:58:44.003Z</time></trkpt><trkpt lat="45.6943417" lon="9.040345"><ele>287.0</ele><time>2026-04-03T12:58:45.003Z</time></trkpt><trkpt lat="45.6942583" lon="9.0403333"><ele>287.0</ele><time>2026-04-03T12:58:46.003Z</time></trkpt><trkpt lat="45.6941817" lon="9.0403233"><ele>287.0</ele><time>2026-04-03T12:58:47.003Z</time></trkpt><trkpt lat="45.6941067" lon="9.040325"><ele>286.57142857142856</ele><time>2026-04-03T12:58:48.003Z</time></trkpt><trkpt lat="45.694035" lon="9.0403183"><ele>286.1428571428571</ele><time>2026-04-03T12:58:49.004Z</time></trkpt><trkpt lat="45.693965" lon="9.0403167"><ele>285.7142857142857</ele><time>2026-04-03T12:58:50.004Z</time></trkpt><trkpt lat="45.693895" lon="9.04031"><ele>285.2857142857143</ele><time>2026-04-03T12:58:51.004Z</time></trkpt><trkpt lat="45.6938267" lon="9.0403133"><ele>284.85714285714283</ele><time>2026-04-03T12:58:52.003Z</time></trkpt><trkpt lat="45.6937617" lon="9.0403117"><ele>284.42857142857144</ele><time>2026-04-03T12:58:53.003Z</time></trkpt><trkpt lat="45.6936867" lon="9.040315"><ele>284.0</ele><time>2026-04-03T12:58:54.004Z</time></trkpt><trkpt lat="45.693615" lon="9.040315"><ele>283.7142857142857</ele><time>2026-04-03T12:58:55.003Z</time></trkpt><trkpt lat="45.6935433" lon="9.0403167"><ele>283.4285714285714</ele><time>2026-04-03T12:58:56.003Z</time></trkpt><trkpt lat="45.6934733" lon="9.040305"><ele>283.1428571428571</ele><time>2026-04-03T12:58:57.003Z</time></trkpt><trkpt lat="45.69341" lon="9.0402933"><ele>282.85714285714283</ele><time>2026-04-03T12:58:58.003Z</time></trkpt><trkpt lat="45.69334" lon="9.040295"><ele>282.57142857142856</ele><time>2026-04-03T12:58:59.004Z</time></trkpt><trkpt lat="45.693265" lon="9.0403017"><ele>282.2857142857143</ele><time>2026-04-03T12:59:00.003Z</time></trkpt><trkpt lat="45.6932" lon="9.0402933"><ele>282.0</ele><time>2026-04-03T12:59:01.003Z</time></trkpt><trkpt lat="45.6931283" lon="9.040275"><ele>282.0</ele><time>2026-04-03T12:59:02.004Z</time></trkpt><trkpt lat="45.6929917" lon="9.0402667"><ele>282.0</ele><time>2026-04-03T12:59:04.004Z</time></trkpt><trkpt lat="45.6929217" lon="9.040275"><ele>282.0</ele><time>2026-04-03T12:59:05.003Z</time></trkpt><trkpt lat="45.6928433" lon="9.0402717"><ele>282.0</ele><time>2026-04-03T12:59:06.003Z</time></trkpt><trkpt lat="45.692775" lon="9.0402633"><ele>282.0</ele><time>2026-04-03T12:59:07.003Z</time></trkpt><trkpt lat="45.6927117" lon="9.0402667"><ele>282.0</ele><time>2026-04-03T12:59:08.003Z</time></trkpt><trkpt lat="45.6926467" lon="9.0402583"><ele>281.5</ele><time>2026-04-03T12:59:09.004Z</time></trkpt><trkpt lat="45.6925267" lon="9.0402467"><ele>281.0</ele><time>2026-04-03T12:59:11.003Z</time></trkpt><trkpt lat="45.69246" lon="9.0402517"><ele>280.5</ele><time>2026-04-03T12:59:12.003Z</time></trkpt><trkpt lat="45.6923917" lon="9.0402583"><ele>280.0</ele><time>2026-04-03T12:59:13.003Z</time></trkpt><trkpt lat="45.6923233" lon="9.0402717"><ele>279.5</ele><time>2026-04-03T12:59:14.004Z</time></trkpt><trkpt lat="45.6922067" lon="9.0402567"><ele>279.0</ele><time>2026-04-03T12:59:16.003Z</time></trkpt><trkpt lat="45.6921383" lon="9.0402667"><ele>279.0</ele><time>2026-04-03T12:59:17.003Z</time></trkpt><trkpt lat="45.6920683" lon="9.0402683"><ele>279.0</ele><time>2026-04-03T12:59:18.003Z</time></trkpt><trkpt lat="45.6920017" lon="9.0402683"><ele>279.0</ele><time>2026-04-03T12:59:19.003Z</time></trkpt><trkpt lat="45.6918817" lon="9.0402567"><ele>279.0</ele><time>2026-04-03T12:59:21.003Z</time></trkpt><trkpt lat="45.6918167" lon="9.04023"><ele>279.0</ele><time>2026-04-03T12:59:23.003Z</time></trkpt><trkpt lat="45.6917467" lon="9.04017"><ele>279.0</ele><time>2026-04-03T12:59:30.003Z</time></trkpt><trkpt lat="45.6916733" lon="9.04012"><ele>278.59999999999997</ele><time>2026-04-03T12:59:32.003Z</time></trkpt><trkpt lat="45.691595" lon="9.0401167"><ele>278.2</ele><time>2026-04-03T12:59:34.003Z</time></trkpt><trkpt lat="45.6915067" lon="9.040175"><ele>277.79999999999995</ele><time>2026-04-03T12:59:36.003Z</time></trkpt><trkpt lat="45.6914183" lon="9.0402217"><ele>277.4</ele><time>2026-04-03T12:59:38.003Z</time></trkpt><trkpt lat="45.6913217" lon="9.040225"><ele>277.0</ele><time>2026-04-03T12:59:40.003Z</time></trkpt><trkpt lat="45.6912167" lon="9.0402167"><ele>277.0</ele><time>2026-04-03T12:59:42.003Z</time></trkpt><trkpt lat="45.6911167" lon="9.0402133"><ele>277.0</ele><time>2026-04-03T12:59:44.003Z</time></trkpt><trkpt lat="45.6910133" lon="9.0402083"><ele>277.0</ele><time>2026-04-03T12:59:46.003Z</time></trkpt><trkpt lat="45.6908983" lon="9.0402133"><ele>277.0</ele><time>2026-04-03T12:59:48.003Z</time></trkpt><trkpt lat="45.6908333" lon="9.0402217"><ele>277.0</ele><time>2026-04-03T12:59:49.004Z</time></trkpt><trkpt lat="45.69077" lon="9.0402283"><ele>277.0</ele><time>2026-04-03T12:59:50.003Z</time></trkpt><trkpt lat="45.6906467" lon="9.04023"><ele>276.6</ele><time>2026-04-03T12:59:52.003Z</time></trkpt><trkpt lat="45.6905833" lon="9.04023"><ele>276.2</ele><time>2026-04-03T12:59:53.003Z</time></trkpt><trkpt lat="45.6904683" lon="9.040235"><ele>275.8</ele><time>2026-04-03T12:59:55.003Z</time></trkpt><trkpt lat="45.6903483" lon="9.040235"><ele>275.4</ele><time>2026-04-03T12:59:57.003Z</time></trkpt><trkpt lat="45.6902267" lon="9.0402383"><ele>275.0</ele><time>2026-04-03T12:59:59.003Z</time></trkpt><trkpt lat="45.6901633" lon="9.0402383"><ele>275.0</ele><time>2026-04-03T13:00:00.004Z</time></trkpt><trkpt lat="45.69004" lon="9.0402333"><ele>275.0</ele><time>2026-04-03T13:00:02.003Z</time></trkpt><trkpt lat="45.689925" lon="9.0402267"><ele>275.0</ele><time>2026-04-03T13:00:04.003Z</time></trkpt><trkpt lat="45.6898117" lon="9.0402133"><ele>275.0</ele><time>2026-04-03T13:00:06.003Z</time></trkpt><trkpt lat="45.6897017" lon="9.0402017"><ele>275.0</ele><time>2026-04-03T13:00:08.004Z</time></trkpt><trkpt lat="45.6895867" lon="9.0401983"><ele>275.0</ele><time>2026-04-03T13:00:10.004Z</time></trkpt><trkpt lat="45.6895217" lon="9.0402"><ele>275.0</ele><time>2026-04-03T13:00:11.003Z</time></trkpt><trkpt lat="45.6894017" lon="9.0401917"><ele>275.0</ele><time>2026-04-03T13:00:13.003Z</time></trkpt><trkpt lat="45.68928" lon="9.0401833"><ele>275.0</ele><time>2026-04-03T13:00:15.003Z</time></trkpt><trkpt lat="45.6891583" lon="9.0401783"><ele>274.4</ele><time>2026-04-03T13:00:17.004Z</time></trkpt><trkpt lat="45.6890467" lon="9.0401683"><ele>273.8</ele><time>2026-04-03T13:00:19.004Z</time></trkpt><trkpt lat="45.6889333" lon="9.040165"><ele>273.2</ele><time>2026-04-03T13:00:21.004Z</time></trkpt><trkpt lat="45.68887" lon="9.0401667"><ele>272.6</ele><time>2026-04-03T13:00:22.003Z</time></trkpt><trkpt lat="45.6888067" lon="9.0401667"><ele>272.0</ele><time>2026-04-03T13:00:23.003Z</time></trkpt><trkpt lat="45.6886817" lon="9.04017"><ele>272.0</ele><time>2026-04-03T13:00:25.003Z</time></trkpt><trkpt lat="45.6886133" lon="9.0401683"><ele>272.0</ele><time>2026-04-03T13:00:26.003Z</time></trkpt><trkpt lat="45.68855" lon="9.040165"><ele>272.0</ele><time>2026-04-03T13:00:27.003Z</time></trkpt><trkpt lat="45.6884267" lon="9.04016"><ele>272.0</ele><time>2026-04-03T13:00:29.003Z</time></trkpt><trkpt lat="45.6883633" lon="9.0401667"><ele>272.0</ele><time>2026-04-03T13:00:30.003Z</time></trkpt><trkpt lat="45.6882467" lon="9.0401583"><ele>272.0</ele><time>2026-04-03T13:00:32.003Z</time></trkpt><trkpt lat="45.688125" lon="9.0401567"><ele>271.8</ele><time>2026-04-03T13:00:34.003Z</time></trkpt><trkpt lat="45.688" lon="9.0401483"><ele>271.6</ele><time>2026-04-03T13:00:36.003Z</time></trkpt><trkpt lat="45.68787" lon="9.0401517"><ele>271.40000000000003</ele><time>2026-04-03T13:00:38.004Z</time></trkpt><trkpt lat="45.6878067" lon="9.0401583"><ele>271.2</ele><time>2026-04-03T13:00:39.003Z</time></trkpt><trkpt lat="45.6876783" lon="9.04015"><ele>271.0</ele><time>2026-04-03T13:00:41.003Z</time></trkpt><trkpt lat="45.6875567" lon="9.0401417"><ele>270.8333333333333</ele><time>2026-04-03T13:00:43.003Z</time></trkpt><trkpt lat="45.6874933" lon="9.0401333"><ele>270.66666666666663</ele><time>2026-04-03T13:00:44.004Z</time></trkpt><trkpt lat="45.68743" lon="9.04013"><ele>270.5</ele><time>2026-04-03T13:00:45.003Z</time></trkpt><trkpt lat="45.6873667" lon="9.0401283"><ele>270.3333333333333</ele><time>2026-04-03T13:00:46.003Z</time></trkpt><trkpt lat="45.6872433" lon="9.0401267"><ele>270.1666666666667</ele><time>2026-04-03T13:00:48.004Z</time></trkpt><trkpt lat="45.6871233" lon="9.0401183"><ele>270.0</ele><time>2026-04-03T13:00:50.003Z</time></trkpt><trkpt lat="45.687005" lon="9.0401117"><ele>269.6</ele><time>2026-04-03T13:00:52.004Z</time></trkpt><trkpt lat="45.6868817" lon="9.0401167"><ele>269.2</ele><time>2026-04-03T13:00:54.003Z</time></trkpt><trkpt lat="45.6867667" lon="9.0401167"><ele>268.8</ele><time>2026-04-03T13:00:56.003Z</time></trkpt><trkpt lat="45.6866433" lon="9.0401067"><ele>268.4</ele><time>2026-04-03T13:00:58.003Z</time></trkpt><trkpt lat="45.6865783" lon="9.0401017"><ele>268.0</ele><time>2026-04-03T13:00:59.003Z</time></trkpt><trkpt lat="45.6865117" lon="9.0400967"><ele>268.0</ele><time>2026-04-03T13:01:00.003Z</time></trkpt><trkpt lat="45.6863917" lon="9.0400817"><ele>268.0</ele><time>2026-04-03T13:01:02.003Z</time></trkpt><trkpt lat="45.6862717" lon="9.040085"><ele>268.0</ele><time>2026-04-03T13:01:04.004Z</time></trkpt><trkpt lat="45.6862083" lon="9.0400817"><ele>268.0</ele><time>2026-04-03T13:01:05.003Z</time></trkpt><trkpt lat="45.68614" lon="9.0400833"><ele>268.0</ele><time>2026-04-03T13:01:06.003Z</time></trkpt><trkpt lat="45.6860717" lon="9.040085"><ele>268.0</ele><time>2026-04-03T13:01:07.003Z</time></trkpt><trkpt lat="45.6860083" lon="9.0400867"><ele>267.25</ele><time>2026-04-03T13:01:08.004Z</time></trkpt><trkpt lat="45.6858833" lon="9.0400883"><ele>266.5</ele><time>2026-04-03T13:01:10.003Z</time></trkpt><trkpt lat="45.6857583" lon="9.040085"><ele>265.75</ele><time>2026-04-03T13:01:12.004Z</time></trkpt><trkpt lat="45.6856383" lon="9.0400867"><ele>265.0</ele><time>2026-04-03T13:01:14.004Z</time></trkpt><trkpt lat="45.6855217" lon="9.0400767"><ele>265.0</ele><time>2026-04-03T13:01:16.004Z</time></trkpt><trkpt lat="45.6854067" lon="9.0400717"><ele>265.0</ele><time>2026-04-03T13:01:18.004Z</time></trkpt><trkpt lat="45.6852983" lon="9.0400567"><ele>265.0</ele><time>2026-04-03T13:01:20.004Z</time></trkpt><trkpt lat="45.685185" lon="9.0400567"><ele>265.0</ele><time>2026-04-03T13:01:22.005Z</time></trkpt><trkpt lat="45.6850717" lon="9.0400533"><ele>264.8</ele><time>2026-04-03T13:01:24.004Z</time></trkpt><trkpt lat="45.6849567" lon="9.040055"><ele>264.6</ele><time>2026-04-03T13:01:26.004Z</time></trkpt><trkpt lat="45.68485" lon="9.0400567"><ele>264.4</ele><time>2026-04-03T13:01:28.004Z</time></trkpt><trkpt lat="45.684735" lon="9.0400617"><ele>264.2</ele><time>2026-04-03T13:01:30.004Z</time></trkpt><trkpt lat="45.6846383" lon="9.04005"><ele>264.0</ele><time>2026-04-03T13:01:32.004Z</time></trkpt><trkpt lat="45.6845383" lon="9.0400333"><ele>264.0</ele><time>2026-04-03T13:01:34.004Z</time></trkpt><trkpt lat="45.6844317" lon="9.0400367"><ele>264.0</ele><time>2026-04-03T13:01:36.005Z</time></trkpt><trkpt lat="45.6843333" lon="9.040035"><ele>264.0</ele><time>2026-04-03T13:01:38.004Z</time></trkpt><trkpt lat="45.68423" lon="9.0400283"><ele>264.0</ele><time>2026-04-03T13:01:40.005Z</time></trkpt><trkpt lat="45.6841167" lon="9.0400233"><ele>264.0</ele><time>2026-04-03T13:01:42.004Z</time></trkpt><trkpt lat="45.6840083" lon="9.0400183"><ele>264.2</ele><time>2026-04-03T13:01:44.005Z</time></trkpt><trkpt lat="45.6839017" lon="9.0400183"><ele>264.4</ele><time>2026-04-03T13:01:46.004Z</time></trkpt><trkpt lat="45.683795" lon="9.0400083"><ele>264.6</ele><time>2026-04-03T13:01:48.004Z</time></trkpt><trkpt lat="45.6837" lon="9.040005"><ele>264.8</ele><time>2026-04-03T13:01:50.004Z</time></trkpt><trkpt lat="45.6835867" lon="9.0400133"><ele>265.0</ele><time>2026-04-03T13:01:52.004Z</time></trkpt><trkpt lat="45.68348" lon="9.0400233"><ele>264.5</ele><time>2026-04-03T13:01:54.004Z</time></trkpt><trkpt lat="45.6833667" lon="9.0400583"><ele>264.0</ele><time>2026-04-03T13:01:56.005Z</time></trkpt><trkpt lat="45.6832517" lon="9.040085"><ele>263.5</ele><time>2026-04-03T13:01:58.004Z</time></trkpt><trkpt lat="45.6831433" lon="9.040085"><ele>263.0</ele><time>2026-04-03T13:02:00.004Z</time></trkpt><trkpt lat="45.6830333" lon="9.04008"><ele>263.0</ele><time>2026-04-03T13:02:02.004Z</time></trkpt><trkpt lat="45.6829233" lon="9.04009"><ele>263.0</ele><time>2026-04-03T13:02:04.004Z</time></trkpt><trkpt lat="45.6828183" lon="9.0401067"><ele>263.0</ele><time>2026-04-03T13:02:06.004Z</time></trkpt><trkpt lat="45.6827117" lon="9.0400983"><ele>263.0</ele><time>2026-04-03T13:02:08.004Z</time></trkpt><trkpt lat="45.682605" lon="9.0400833"><ele>263.0</ele><time>2026-04-03T13:02:10.004Z</time></trkpt><trkpt lat="45.682505" lon="9.0400833"><ele>263.2</ele><time>2026-04-03T13:02:12.004Z</time></trkpt><trkpt lat="45.6824117" lon="9.0400733"><ele>263.4</ele><time>2026-04-03T13:02:14.004Z</time></trkpt><trkpt lat="45.6823183" lon="9.04007"><ele>263.59999999999997</ele><time>2026-04-03T13:02:16.004Z</time></trkpt><trkpt lat="45.6822117" lon="9.040085"><ele>263.8</ele><time>2026-04-03T13:02:18.004Z</time></trkpt><trkpt lat="45.68211" lon="9.040075"><ele>264.0</ele><time>2026-04-03T13:02:20.004Z</time></trkpt><trkpt lat="45.6820017" lon="9.0400717"><ele>263.8</ele><time>2026-04-03T13:02:22.004Z</time></trkpt><trkpt lat="45.681905" lon="9.0400733"><ele>263.59999999999997</ele><time>2026-04-03T13:02:24.004Z</time></trkpt><trkpt lat="45.6818" lon="9.040065"><ele>263.4</ele><time>2026-04-03T13:02:26.005Z</time></trkpt><trkpt lat="45.6817133" lon="9.0400633"><ele>263.2</ele><time>2026-04-03T13:02:28.004Z</time></trkpt><trkpt lat="45.681635" lon="9.0400567"><ele>263.0</ele><time>2026-04-03T13:02:30.005Z</time></trkpt><trkpt lat="45.6815483" lon="9.04005"><ele>263.0</ele><time>2026-04-03T13:02:32.005Z</time></trkpt><trkpt lat="45.6814533" lon="9.04006"><ele>263.0</ele><time>2026-04-03T13:02:34.004Z</time></trkpt><trkpt lat="45.6813517" lon="9.0400617"><ele>263.0</ele><time>2026-04-03T13:02:36.004Z</time></trkpt><trkpt lat="45.68126" lon="9.0400483"><ele>263.0</ele><time>2026-04-03T13:02:38.004Z</time></trkpt><trkpt lat="45.6811717" lon="9.0400517"><ele>263.0</ele><time>2026-04-03T13:02:40.004Z</time></trkpt><trkpt lat="45.681075" lon="9.0400483"><ele>262.83333333333337</ele><time>2026-04-03T13:02:42.004Z</time></trkpt><trkpt lat="45.6809917" lon="9.0400517"><ele>262.6666666666667</ele><time>2026-04-03T13:02:44.004Z</time></trkpt><trkpt lat="45.6809017" lon="9.04005"><ele>262.5</ele><time>2026-04-03T13:02:46.004Z</time></trkpt><trkpt lat="45.6808083" lon="9.0400483"><ele>262.3333333333333</ele><time>2026-04-03T13:02:48.005Z</time></trkpt><trkpt lat="45.6807183" lon="9.0400467"><ele>262.16666666666663</ele><time>2026-04-03T13:02:50.004Z</time></trkpt><trkpt lat="45.68063" lon="9.04004"><ele>262.0</ele><time>2026-04-03T13:02:52.004Z</time></trkpt><trkpt lat="45.6805333" lon="9.040035"><ele>262.0</ele><time>2026-04-03T13:02:54.004Z</time></trkpt><trkpt lat="45.68043" lon="9.0400267"><ele>262.0</ele><time>2026-04-03T13:02:56.004Z</time></trkpt><trkpt lat="45.6803267" lon="9.040025"><ele>262.0</ele><time>2026-04-03T13:02:58.005Z</time></trkpt><trkpt lat="45.68022" lon="9.040035"><ele>262.0</ele><time>2026-04-03T13:03:00.004Z</time></trkpt><trkpt lat="45.6801183" lon="9.0400367"><ele>262.0</ele><time>2026-04-03T13:03:02.004Z</time></trkpt><trkpt lat="45.6800217" lon="9.0400283"><ele>261.8</ele><time>2026-04-03T13:03:04.004Z</time></trkpt><trkpt lat="45.6799183" lon="9.0400183"><ele>261.6</ele><time>2026-04-03T13:03:06.004Z</time></trkpt><trkpt lat="45.6798133" lon="9.0400033"><ele>261.40000000000003</ele><time>2026-04-03T13:03:08.005Z</time></trkpt><trkpt lat="45.6797117" lon="9.0399933"><ele>261.2</ele><time>2026-04-03T13:03:10.004Z</time></trkpt><trkpt lat="45.679615" lon="9.0399933"><ele>261.0</ele><time>2026-04-03T13:03:12.005Z</time></trkpt><trkpt lat="45.679515" lon="9.0399967"><ele>260.8</ele><time>2026-04-03T13:03:14.004Z</time></trkpt><trkpt lat="45.6794117" lon="9.0399967"><ele>260.6</ele><time>2026-04-03T13:03:16.004Z</time></trkpt><trkpt lat="45.6793017" lon="9.0399883"><ele>260.4</ele><time>2026-04-03T13:03:18.004Z</time></trkpt><trkpt lat="45.67919" lon="9.0399983"><ele>260.2</ele><time>2026-04-03T13:03:20.004Z</time></trkpt><trkpt lat="45.6790833" lon="9.0400083"><ele>260.0</ele><time>2026-04-03T13:03:22.004Z</time></trkpt><trkpt lat="45.6789817" lon="9.0399883"><ele>260.0</ele><time>2026-04-03T13:03:24.005Z</time></trkpt><trkpt lat="45.6788817" lon="9.03998"><ele>260.0</ele><time>2026-04-03T13:03:26.004Z</time></trkpt><trkpt lat="45.67878" lon="9.0399817"><ele>260.0</ele><time>2026-04-03T13:03:28.004Z</time></trkpt><trkpt lat="45.678685" lon="9.0399767"><ele>260.0</ele><time>2026-04-03T13:03:30.004Z</time></trkpt><trkpt lat="45.6785867" lon="9.039975"><ele>260.0</ele><time>2026-04-03T13:03:32.004Z</time></trkpt><trkpt lat="45.678505" lon="9.039965"><ele>260.0</ele><time>2026-04-03T13:03:34.005Z</time></trkpt><trkpt lat="45.6784133" lon="9.0399617"><ele>260.0</ele><time>2026-04-03T13:03:36.004Z</time></trkpt><trkpt lat="45.678315" lon="9.03996"><ele>260.0</ele><time>2026-04-03T13:03:38.004Z</time></trkpt><trkpt lat="45.678225" lon="9.03995"><ele>260.0</ele><time>2026-04-03T13:03:40.005Z</time></trkpt><trkpt lat="45.67814" lon="9.039955"><ele>260.0</ele><time>2026-04-03T13:03:42.005Z</time></trkpt><trkpt lat="45.6780617" lon="9.0399417"><ele>260.0</ele><time>2026-04-03T13:03:44.005Z</time></trkpt><trkpt lat="45.6779733" lon="9.0399333"><ele>260.0</ele><time>2026-04-03T13:03:46.004Z</time></trkpt><trkpt lat="45.67789" lon="9.0399433"><ele>260.0</ele><time>2026-04-03T13:03:48.004Z</time></trkpt><trkpt lat="45.6777967" lon="9.0399467"><ele>260.0</ele><time>2026-04-03T13:03:50.004Z</time></trkpt><trkpt lat="45.6777183" lon="9.03996"><ele>260.0</ele><time>2026-04-03T13:03:52.004Z</time></trkpt><trkpt lat="45.6776283" lon="9.0399733"><ele>260.0</ele><time>2026-04-03T13:03:54.004Z</time></trkpt><trkpt lat="45.67754" lon="9.0399683"><ele>260.0</ele><time>2026-04-03T13:03:56.004Z</time></trkpt><trkpt lat="45.67746" lon="9.03995"><ele>259.83333333333337</ele><time>2026-04-03T13:03:58.004Z</time></trkpt><trkpt lat="45.6773917" lon="9.0399333"><ele>259.6666666666667</ele><time>2026-04-03T13:04:00.005Z</time></trkpt><trkpt lat="45.677315" lon="9.0399267"><ele>259.5</ele><time>2026-04-03T13:04:02.004Z</time></trkpt><trkpt lat="45.6772333" lon="9.039925"><ele>259.3333333333333</ele><time>2026-04-03T13:04:04.005Z</time></trkpt><trkpt lat="45.6771467" lon="9.03992"><ele>259.16666666666663</ele><time>2026-04-03T13:04:06.004Z</time></trkpt><trkpt lat="45.67706" lon="9.0399167"><ele>259.0</ele><time>2026-04-03T13:04:08.004Z</time></trkpt><trkpt lat="45.6769717" lon="9.0399067"><ele>258.59999999999997</ele><time>2026-04-03T13:04:10.005Z</time></trkpt><trkpt lat="45.6768817" lon="9.039905"><ele>258.2</ele><time>2026-04-03T13:04:12.005Z</time></trkpt><trkpt lat="45.67678" lon="9.039895"><ele>257.79999999999995</ele><time>2026-04-03T13:04:14.005Z</time></trkpt><trkpt lat="45.6766933" lon="9.0398717"><ele>257.4</ele><time>2026-04-03T13:04:16.004Z</time></trkpt><trkpt lat="45.6766" lon="9.03987"><ele>257.0</ele><time>2026-04-03T13:04:18.005Z</time></trkpt><trkpt lat="45.6765117" lon="9.03988"><ele>257.0</ele><time>2026-04-03T13:04:20.005Z</time></trkpt><trkpt lat="45.6764317" lon="9.03989"><ele>257.0</ele><time>2026-04-03T13:04:22.004Z</time></trkpt><trkpt lat="45.6763533" lon="9.0398933"><ele>257.0</ele><time>2026-04-03T13:04:24.005Z</time></trkpt><trkpt lat="45.67626" lon="9.0398933"><ele>257.0</ele><time>2026-04-03T13:04:26.004Z</time></trkpt><trkpt lat="45.676155" lon="9.0398833"><ele>257.0</ele><time>2026-04-03T13:04:28.004Z</time></trkpt><trkpt lat="45.676065" lon="9.03988"><ele>257.0</ele><time>2026-04-03T13:04:30.005Z</time></trkpt><trkpt lat="45.6759733" lon="9.039885"><ele>256.8</ele><time>2026-04-03T13:04:32.005Z</time></trkpt><trkpt lat="45.6758717" lon="9.0398733"><ele>256.6</ele><time>2026-04-03T13:04:34.005Z</time></trkpt><trkpt lat="45.6757633" lon="9.0398617"><ele>256.40000000000003</ele><time>2026-04-03T13:04:36.004Z</time></trkpt><trkpt lat="45.6756733" lon="9.03987"><ele>256.2</ele><time>2026-04-03T13:04:38.005Z</time></trkpt><trkpt lat="45.6755833" lon="9.03987"><ele>256.0</ele><time>2026-04-03T13:04:40.004Z</time></trkpt><trkpt lat="45.6754867" lon="9.0398683"><ele>255.99999999999997</ele><time>2026-04-03T13:04:42.004Z</time></trkpt><trkpt lat="45.6754" lon="9.039865"><ele>256.0</ele><time>2026-04-03T13:04:44.004Z</time></trkpt><trkpt lat="45.6753117" lon="9.0398633"><ele>256.0</ele><time>2026-04-03T13:04:46.004Z</time></trkpt><trkpt lat="45.6752167" lon="9.0398483"><ele>256.0</ele><time>2026-04-03T13:04:48.004Z</time></trkpt><trkpt lat="45.6751367" lon="9.0398333"><ele>255.99999999999997</ele><time>2026-04-03T13:04:50.004Z</time></trkpt><trkpt lat="45.675045" lon="9.0398283"><ele>256.0</ele><time>2026-04-03T13:04:52.004Z</time></trkpt><trkpt lat="45.67495" lon="9.0398333"><ele>256.2</ele><time>2026-04-03T13:04:54.004Z</time></trkpt><trkpt lat="45.67486" lon="9.039835"><ele>256.40000000000003</ele><time>2026-04-03T13:04:56.005Z</time></trkpt><trkpt lat="45.674765" lon="9.0398183"><ele>256.6</ele><time>2026-04-03T13:04:58.004Z</time></trkpt><trkpt lat="45.6746633" lon="9.0398117"><ele>256.8</ele><time>2026-04-03T13:05:00.004Z</time></trkpt><trkpt lat="45.67455" lon="9.0398117"><ele>257.0</ele><time>2026-04-03T13:05:02.004Z</time></trkpt><trkpt lat="45.6744433" lon="9.0398167"><ele>257.2</ele><time>2026-04-03T13:05:04.005Z</time></trkpt><trkpt lat="45.67433" lon="9.03982"><ele>257.4</ele><time>2026-04-03T13:05:06.004Z</time></trkpt><trkpt lat="45.6742233" lon="9.0398183"><ele>257.6</ele><time>2026-04-03T13:05:08.004Z</time></trkpt><trkpt lat="45.6741283" lon="9.0398017"><ele>257.8</ele><time>2026-04-03T13:05:10.005Z</time></trkpt><trkpt lat="45.6740317" lon="9.0398033"><ele>258.0</ele><time>2026-04-03T13:05:12.004Z</time></trkpt><trkpt lat="45.6739283" lon="9.03982"><ele>258.0</ele><time>2026-04-03T13:05:14.005Z</time></trkpt><trkpt lat="45.6738267" lon="9.0398333"><ele>258.0</ele><time>2026-04-03T13:05:16.004Z</time></trkpt><trkpt lat="45.6737417" lon="9.0398667"><ele>258.0</ele><time>2026-04-03T13:05:18.004Z</time></trkpt><trkpt lat="45.67366" lon="9.0398983"><ele>258.0</ele><time>2026-04-03T13:05:20.004Z</time></trkpt><trkpt lat="45.673585" lon="9.0399383"><ele>258.0</ele><time>2026-04-03T13:05:23.004Z</time></trkpt><trkpt lat="45.6735417" lon="9.03983"><ele>258.0</ele><time>2026-04-03T13:05:31.005Z</time></trkpt><trkpt lat="45.67349" lon="9.0397717"><ele>258.0</ele><time>2026-04-03T13:05:33.004Z</time></trkpt><trkpt lat="45.6734017" lon="9.0397783"><ele>258.0</ele><time>2026-04-03T13:05:35.004Z</time></trkpt><trkpt lat="45.673315" lon="9.0398"><ele>258.0</ele><time>2026-04-03T13:05:37.004Z</time></trkpt><trkpt lat="45.6732383" lon="9.0398417"><ele>258.0</ele><time>2026-04-03T13:05:39.004Z</time></trkpt><trkpt lat="45.6731567" lon="9.03988"><ele>258.0</ele><time>2026-04-03T13:05:41.005Z</time></trkpt><trkpt lat="45.6730733" lon="9.0399233"><ele>258.0</ele><time>2026-04-03T13:05:43.004Z</time></trkpt><trkpt lat="45.672985" lon="9.0399567"><ele>258.0</ele><time>2026-04-03T13:05:45.005Z</time></trkpt><trkpt lat="45.67289" lon="9.0399683"><ele>258.0</ele><time>2026-04-03T13:05:47.005Z</time></trkpt><trkpt lat="45.6727967" lon="9.0399583"><ele>258.0</ele><time>2026-04-03T13:05:49.004Z</time></trkpt><trkpt lat="45.6726883" lon="9.03993"><ele>258.0</ele><time>2026-04-03T13:05:51.004Z</time></trkpt><trkpt lat="45.672585" lon="9.039895"><ele>258.0</ele><time>2026-04-03T13:05:53.004Z</time></trkpt><trkpt lat="45.67248" lon="9.0398767"><ele>257.8</ele><time>2026-04-03T13:05:55.004Z</time></trkpt><trkpt lat="45.672385" lon="9.039875"><ele>257.6</ele><time>2026-04-03T13:05:57.004Z</time></trkpt><trkpt lat="45.6722883" lon="9.0398483"><ele>257.4</ele><time>2026-04-03T13:05:59.004Z</time></trkpt><trkpt lat="45.6721783" lon="9.0398117"><ele>257.2</ele><time>2026-04-03T13:06:01.005Z</time></trkpt><trkpt lat="45.6720667" lon="9.039775"><ele>257.0</ele><time>2026-04-03T13:06:03.004Z</time></trkpt><trkpt lat="45.67196" lon="9.039735"><ele>257.25</ele><time>2026-04-03T13:06:05.004Z</time></trkpt><trkpt lat="45.6718567" lon="9.0397067"><ele>257.5</ele><time>2026-04-03T13:06:07.004Z</time></trkpt><trkpt lat="45.6717567" lon="9.03968"><ele>257.75</ele><time>2026-04-03T13:06:09.004Z</time></trkpt><trkpt lat="45.6716317" lon="9.03963"><ele>258.0</ele><time>2026-04-03T13:06:11.005Z</time></trkpt><trkpt lat="45.67152" lon="9.03956"><ele>258.0</ele><time>2026-04-03T13:06:13.004Z</time></trkpt><trkpt lat="45.6714183" lon="9.0395167"><ele>258.0</ele><time>2026-04-03T13:06:15.005Z</time></trkpt><trkpt lat="45.6713333" lon="9.03945"><ele>258.0</ele><time>2026-04-03T13:06:17.004Z</time></trkpt><trkpt lat="45.6712433" lon="9.0393967"><ele>258.0</ele><time>2026-04-03T13:06:19.005Z</time></trkpt><trkpt lat="45.6711617" lon="9.0393517"><ele>258.0</ele><time>2026-04-03T13:06:21.004Z</time></trkpt><trkpt lat="45.6710617" lon="9.0393217"><ele>257.4</ele><time>2026-04-03T13:06:23.005Z</time></trkpt><trkpt lat="45.6709567" lon="9.0392833"><ele>256.8</ele><time>2026-04-03T13:06:25.005Z</time></trkpt><trkpt lat="45.6708517" lon="9.03924"><ele>256.2</ele><time>2026-04-03T13:06:27.004Z</time></trkpt><trkpt lat="45.6707517" lon="9.0392083"><ele>255.6</ele><time>2026-04-03T13:06:29.005Z</time></trkpt><trkpt lat="45.670655" lon="9.0391867"><ele>255.0</ele><time>2026-04-03T13:06:31.004Z</time></trkpt><trkpt lat="45.67057" lon="9.039135"><ele>254.8</ele><time>2026-04-03T13:06:33.005Z</time></trkpt><trkpt lat="45.6704917" lon="9.03906"><ele>254.6</ele><time>2026-04-03T13:06:35.004Z</time></trkpt><trkpt lat="45.6704367" lon="9.038955"><ele>254.39999999999998</ele><time>2026-04-03T13:06:37.004Z</time></trkpt><trkpt lat="45.6703817" lon="9.0388533"><ele>254.2</ele><time>2026-04-03T13:06:39.004Z</time></trkpt><trkpt lat="45.67029" lon="9.038805"><ele>254.0</ele><time>2026-04-03T13:06:41.004Z</time></trkpt><trkpt lat="45.6701967" lon="9.0388483"><ele>253.79999999999998</ele><time>2026-04-03T13:06:43.005Z</time></trkpt><trkpt lat="45.6701167" lon="9.0389"><ele>253.59999999999997</ele><time>2026-04-03T13:06:45.005Z</time></trkpt><trkpt lat="45.6700217" lon="9.0389067"><ele>253.4</ele><time>2026-04-03T13:06:47.004Z</time></trkpt><trkpt lat="45.6699267" lon="9.0388917"><ele>253.2</ele><time>2026-04-03T13:06:49.004Z</time></trkpt><trkpt lat="45.6698267" lon="9.0388733"><ele>253.0</ele><time>2026-04-03T13:06:51.005Z</time></trkpt><trkpt lat="45.6697233" lon="9.03886"><ele>253.0</ele><time>2026-04-03T13:06:53.005Z</time></trkpt><trkpt lat="45.669615" lon="9.03885"><ele>253.0</ele><time>2026-04-03T13:06:55.004Z</time></trkpt><trkpt lat="45.6695117" lon="9.0388567"><ele>253.0</ele><time>2026-04-03T13:06:57.004Z</time></trkpt><trkpt lat="45.6694067" lon="9.03886"><ele>253.0</ele><time>2026-04-03T13:06:59.004Z</time></trkpt><trkpt lat="45.66931" lon="9.03884"><ele>253.0</ele><time>2026-04-03T13:07:01.004Z</time></trkpt><trkpt lat="45.66921" lon="9.03884"><ele>252.8</ele><time>2026-04-03T13:07:03.004Z</time></trkpt><trkpt lat="45.6691117" lon="9.0388233"><ele>252.60000000000002</ele><time>2026-04-03T13:07:05.004Z</time></trkpt><trkpt lat="45.66901" lon="9.0388233"><ele>252.39999999999998</ele><time>2026-04-03T13:07:07.005Z</time></trkpt><trkpt lat="45.6689133" lon="9.03881"><ele>252.2</ele><time>2026-04-03T13:07:09.004Z</time></trkpt><trkpt lat="45.6688183" lon="9.038785"><ele>252.0</ele><time>2026-04-03T13:07:11.004Z</time></trkpt><trkpt lat="45.6687217" lon="9.03876"><ele>252.0</ele><time>2026-04-03T13:07:13.004Z</time></trkpt><trkpt lat="45.6686117" lon="9.03876"><ele>252.0</ele><time>2026-04-03T13:07:15.005Z</time></trkpt><trkpt lat="45.668515" lon="9.038745"><ele>252.0</ele><time>2026-04-03T13:07:17.004Z</time></trkpt><trkpt lat="45.66843" lon="9.03873"><ele>252.0</ele><time>2026-04-03T13:07:19.004Z</time></trkpt><trkpt lat="45.6683333" lon="9.03872"><ele>252.0</ele><time>2026-04-03T13:07:21.005Z</time></trkpt><trkpt lat="45.6682233" lon="9.0387167"><ele>251.8</ele><time>2026-04-03T13:07:23.005Z</time></trkpt><trkpt lat="45.66811" lon="9.0387117"><ele>251.6</ele><time>2026-04-03T13:07:25.004Z</time></trkpt><trkpt lat="45.6680017" lon="9.038705"><ele>251.40000000000003</ele><time>2026-04-03T13:07:27.004Z</time></trkpt><trkpt lat="45.6678983" lon="9.0387017"><ele>251.20000000000002</ele><time>2026-04-03T13:07:29.004Z</time></trkpt><trkpt lat="45.6678017" lon="9.0386967"><ele>251.0</ele><time>2026-04-03T13:07:31.004Z</time></trkpt><trkpt lat="45.6677" lon="9.0386867"><ele>251.0</ele><time>2026-04-03T13:07:33.004Z</time></trkpt><trkpt lat="45.6676" lon="9.038685"><ele>251.00000000000003</ele><time>2026-04-03T13:07:35.005Z</time></trkpt><trkpt lat="45.6674967" lon="9.038665"><ele>251.00000000000003</ele><time>2026-04-03T13:07:37.005Z</time></trkpt><trkpt lat="45.6674033" lon="9.0386583"><ele>251.0</ele><time>2026-04-03T13:07:39.005Z</time></trkpt><trkpt lat="45.6673017" lon="9.03865"><ele>251.0</ele><time>2026-04-03T13:07:41.004Z</time></trkpt><trkpt lat="45.6671983" lon="9.0386333"><ele>251.0</ele><time>2026-04-03T13:07:43.004Z</time></trkpt><trkpt lat="45.6671017" lon="9.03863"><ele>251.00000000000003</ele><time>2026-04-03T13:07:45.004Z</time></trkpt><trkpt lat="45.6670033" lon="9.0386183"><ele>251.00000000000003</ele><time>2026-04-03T13:07:47.004Z</time></trkpt><trkpt lat="45.666905" lon="9.0386183"><ele>251.0</ele><time>2026-04-03T13:07:49.004Z</time></trkpt><trkpt lat="45.6668167" lon="9.0386"><ele>251.0</ele><time>2026-04-03T13:07:51.004Z</time></trkpt><trkpt lat="45.66672" lon="9.0385967"><ele>250.60000000000002</ele><time>2026-04-03T13:07:53.004Z</time></trkpt><trkpt lat="45.6666233" lon="9.0385883"><ele>250.20000000000002</ele><time>2026-04-03T13:07:55.004Z</time></trkpt><trkpt lat="45.6665167" lon="9.0385967"><ele>249.79999999999998</ele><time>2026-04-03T13:07:57.004Z</time></trkpt><trkpt lat="45.6664233" lon="9.038575"><ele>249.39999999999998</ele><time>2026-04-03T13:07:59.004Z</time></trkpt><trkpt lat="45.6663383" lon="9.0385617"><ele>249.0</ele><time>2026-04-03T13:08:01.004Z</time></trkpt><trkpt lat="45.6662483" lon="9.0385467"><ele>249.0</ele><time>2026-04-03T13:08:03.004Z</time></trkpt><trkpt lat="45.66616" lon="9.0385417"><ele>248.99999999999997</ele><time>2026-04-03T13:08:05.004Z</time></trkpt><trkpt lat="45.666065" lon="9.038545"><ele>248.99999999999997</ele><time>2026-04-03T13:08:07.004Z</time></trkpt><trkpt lat="45.6659633" lon="9.0385567"><ele>249.0</ele><time>2026-04-03T13:08:09.004Z</time></trkpt><trkpt lat="45.66587" lon="9.0385467"><ele>249.0</ele><time>2026-04-03T13:08:11.004Z</time></trkpt><trkpt lat="45.6657667" lon="9.03854"><ele>249.0</ele><time>2026-04-03T13:08:13.004Z</time></trkpt><trkpt lat="45.6656783" lon="9.0385217"><ele>248.99999999999997</ele><time>2026-04-03T13:08:15.004Z</time></trkpt><trkpt lat="45.66559" lon="9.0384917"><ele>248.99999999999997</ele><time>2026-04-03T13:08:17.004Z</time></trkpt><trkpt lat="45.6655" lon="9.0384683"><ele>249.0</ele><time>2026-04-03T13:08:19.004Z</time></trkpt><trkpt lat="45.6654183" lon="9.0384567"><ele>249.0</ele><time>2026-04-03T13:08:21.004Z</time></trkpt><trkpt lat="45.66532" lon="9.0384467"><ele>248.79999999999998</ele><time>2026-04-03T13:08:23.005Z</time></trkpt><trkpt lat="45.66523" lon="9.0384483"><ele>248.59999999999997</ele><time>2026-04-03T13:08:25.005Z</time></trkpt><trkpt lat="45.66514" lon="9.03845"><ele>248.4</ele><time>2026-04-03T13:08:27.005Z</time></trkpt><trkpt lat="45.665045" lon="9.0384433"><ele>248.2</ele><time>2026-04-03T13:08:29.004Z</time></trkpt><trkpt lat="45.664945" lon="9.03844"><ele>248.0</ele><time>2026-04-03T13:08:31.005Z</time></trkpt><trkpt lat="45.664845" lon="9.03842"><ele>248.0</ele><time>2026-04-03T13:08:33.004Z</time></trkpt><trkpt lat="45.664745" lon="9.0384067"><ele>248.0</ele><time>2026-04-03T13:08:35.004Z</time></trkpt><trkpt lat="45.6646517" lon="9.0383967"><ele>248.0</ele><time>2026-04-03T13:08:37.005Z</time></trkpt><trkpt lat="45.6645567" lon="9.0383833"><ele>248.0</ele><time>2026-04-03T13:08:39.004Z</time></trkpt><trkpt lat="45.6644633" lon="9.038375"><ele>248.0</ele><time>2026-04-03T13:08:41.005Z</time></trkpt><trkpt lat="45.6643667" lon="9.03837"><ele>247.8</ele><time>2026-04-03T13:08:43.006Z</time></trkpt><trkpt lat="45.664265" lon="9.0383633"><ele>247.60000000000002</ele><time>2026-04-03T13:08:45.005Z</time></trkpt><trkpt lat="45.6641767" lon="9.0383583"><ele>247.39999999999998</ele><time>2026-04-03T13:08:47.006Z</time></trkpt><trkpt lat="45.6640817" lon="9.038355"><ele>247.2</ele><time>2026-04-03T13:08:49.005Z</time></trkpt><trkpt lat="45.6639783" lon="9.0383317"><ele>247.0</ele><time>2026-04-03T13:08:51.005Z</time></trkpt><trkpt lat="45.6638767" lon="9.03832"><ele>247.0</ele><time>2026-04-03T13:08:53.006Z</time></trkpt><trkpt lat="45.66376" lon="9.0383067"><ele>247.0</ele><time>2026-04-03T13:08:55.005Z</time></trkpt><trkpt lat="45.6636583" lon="9.0382983"><ele>247.0</ele><time>2026-04-03T13:08:57.006Z</time></trkpt><trkpt lat="45.663555" lon="9.03829"><ele>247.0</ele><time>2026-04-03T13:08:59.006Z</time></trkpt><trkpt lat="45.6634483" lon="9.0382833"><ele>247.0</ele><time>2026-04-03T13:09:01.006Z</time></trkpt><trkpt lat="45.663345" lon="9.038275"><ele>246.8</ele><time>2026-04-03T13:09:03.005Z</time></trkpt><trkpt lat="45.6632483" lon="9.0382683"><ele>246.6</ele><time>2026-04-03T13:09:05.006Z</time></trkpt><trkpt lat="45.6631433" lon="9.03826"><ele>246.40000000000003</ele><time>2026-04-03T13:09:07.005Z</time></trkpt><trkpt lat="45.663035" lon="9.0382533"><ele>246.20000000000002</ele><time>2026-04-03T13:09:09.005Z</time></trkpt><trkpt lat="45.6629267" lon="9.03824"><ele>246.0</ele><time>2026-04-03T13:09:11.005Z</time></trkpt><trkpt lat="45.6628283" lon="9.0382217"><ele>245.60000000000002</ele><time>2026-04-03T13:09:13.005Z</time></trkpt><trkpt lat="45.662725" lon="9.0382117"><ele>245.20000000000002</ele><time>2026-04-03T13:09:15.005Z</time></trkpt><trkpt lat="45.6626167" lon="9.0382067"><ele>244.79999999999998</ele><time>2026-04-03T13:09:17.005Z</time></trkpt><trkpt lat="45.6625067" lon="9.0381983"><ele>244.39999999999998</ele><time>2026-04-03T13:09:19.005Z</time></trkpt><trkpt lat="45.6624" lon="9.038195"><ele>244.0</ele><time>2026-04-03T13:09:21.005Z</time></trkpt><trkpt lat="45.6623017" lon="9.0381933"><ele>244.0</ele><time>2026-04-03T13:09:23.005Z</time></trkpt><trkpt lat="45.6622033" lon="9.0381767"><ele>243.99999999999997</ele><time>2026-04-03T13:09:25.005Z</time></trkpt><trkpt lat="45.6621" lon="9.03816"><ele>243.99999999999997</ele><time>2026-04-03T13:09:27.005Z</time></trkpt><trkpt lat="45.6619983" lon="9.0381433"><ele>244.0</ele><time>2026-04-03T13:09:29.005Z</time></trkpt><trkpt lat="45.6618983" lon="9.038135"><ele>244.0</ele><time>2026-04-03T13:09:31.005Z</time></trkpt><trkpt lat="45.661795" lon="9.0381283"><ele>244.2</ele><time>2026-04-03T13:09:33.006Z</time></trkpt><trkpt lat="45.66169" lon="9.03812"><ele>244.39999999999998</ele><time>2026-04-03T13:09:35.006Z</time></trkpt><trkpt lat="45.6615883" lon="9.03811"><ele>244.6</ele><time>2026-04-03T13:09:37.005Z</time></trkpt><trkpt lat="45.6614917" lon="9.0381"><ele>244.8</ele><time>2026-04-03T13:09:39.005Z</time></trkpt><trkpt lat="45.6613867" lon="9.03809"><ele>245.0</ele><time>2026-04-03T13:09:41.006Z</time></trkpt><trkpt lat="45.6612867" lon="9.0380883"><ele>245.0</ele><time>2026-04-03T13:09:43.005Z</time></trkpt><trkpt lat="45.6611867" lon="9.0380733"><ele>245.0</ele><time>2026-04-03T13:09:45.005Z</time></trkpt><trkpt lat="45.6610933" lon="9.0380633"><ele>245.0</ele><time>2026-04-03T13:09:47.005Z</time></trkpt><trkpt lat="45.6609967" lon="9.0380433"><ele>245.0</ele><time>2026-04-03T13:09:49.006Z</time></trkpt><trkpt lat="45.6609033" lon="9.0380367"><ele>245.0</ele><time>2026-04-03T13:09:51.005Z</time></trkpt><trkpt lat="45.6608117" lon="9.03803"><ele>244.8</ele><time>2026-04-03T13:09:53.005Z</time></trkpt><trkpt lat="45.6607133" lon="9.03802"><ele>244.6</ele><time>2026-04-03T13:09:55.005Z</time></trkpt><trkpt lat="45.6606183" lon="9.0380083"><ele>244.39999999999998</ele><time>2026-04-03T13:09:57.006Z</time></trkpt><trkpt lat="45.660525" lon="9.0380017"><ele>244.2</ele><time>2026-04-03T13:09:59.006Z</time></trkpt><trkpt lat="45.6604117" lon="9.03799"><ele>244.0</ele><time>2026-04-03T13:10:01.005Z</time></trkpt><trkpt lat="45.6603" lon="9.03797"><ele>243.75</ele><time>2026-04-03T13:10:03.005Z</time></trkpt><trkpt lat="45.6601933" lon="9.037955"><ele>243.5</ele><time>2026-04-03T13:10:05.005Z</time></trkpt><trkpt lat="45.6600833" lon="9.03795"><ele>243.25</ele><time>2026-04-03T13:10:07.006Z</time></trkpt><trkpt lat="45.659965" lon="9.0379417"><ele>243.0</ele><time>2026-04-03T13:10:09.006Z</time></trkpt><trkpt lat="45.6598483" lon="9.0379317"><ele>243.0</ele><time>2026-04-03T13:10:11.005Z</time></trkpt><trkpt lat="45.6597367" lon="9.03792"><ele>243.0</ele><time>2026-04-03T13:10:13.005Z</time></trkpt><trkpt lat="45.659635" lon="9.0379117"><ele>243.0</ele><time>2026-04-03T13:10:15.005Z</time></trkpt><trkpt lat="45.6595367" lon="9.0379033"><ele>243.0</ele><time>2026-04-03T13:10:17.005Z</time></trkpt><trkpt lat="45.659435" lon="9.03789"><ele>243.0</ele><time>2026-04-03T13:10:19.006Z</time></trkpt><trkpt lat="45.6593267" lon="9.0378867"><ele>243.25</ele><time>2026-04-03T13:10:21.005Z</time></trkpt><trkpt lat="45.6592133" lon="9.0378783"><ele>243.5</ele><time>2026-04-03T13:10:23.005Z</time></trkpt><trkpt lat="45.6591033" lon="9.0378633"><ele>243.75</ele><time>2026-04-03T13:10:25.005Z</time></trkpt><trkpt lat="45.6589917" lon="9.0378467"><ele>244.0</ele><time>2026-04-03T13:10:27.006Z</time></trkpt><trkpt lat="45.658875" lon="9.0378433"><ele>244.0</ele><time>2026-04-03T13:10:29.006Z</time></trkpt><trkpt lat="45.6587717" lon="9.0378283"><ele>243.99999999999997</ele><time>2026-04-03T13:10:31.006Z</time></trkpt><trkpt lat="45.6586667" lon="9.0378183"><ele>243.99999999999997</ele><time>2026-04-03T13:10:33.005Z</time></trkpt><trkpt lat="45.65856" lon="9.0378033"><ele>244.0</ele><time>2026-04-03T13:10:35.005Z</time></trkpt><trkpt lat="45.6584583" lon="9.0377933"><ele>244.0</ele><time>2026-04-03T13:10:37.005Z</time></trkpt><trkpt lat="45.6583533" lon="9.0377783"><ele>243.6</ele><time>2026-04-03T13:10:39.005Z</time></trkpt><trkpt lat="45.6582467" lon="9.0377717"><ele>243.2</ele><time>2026-04-03T13:10:41.006Z</time></trkpt><trkpt lat="45.65815" lon="9.0377633"><ele>242.79999999999998</ele><time>2026-04-03T13:10:43.005Z</time></trkpt><trkpt lat="45.6580417" lon="9.037755"><ele>242.39999999999998</ele><time>2026-04-03T13:10:45.006Z</time></trkpt><trkpt lat="45.65794" lon="9.0377417"><ele>242.0</ele><time>2026-04-03T13:10:47.006Z</time></trkpt><trkpt lat="45.6578417" lon="9.0377367"><ele>242.2</ele><time>2026-04-03T13:10:49.006Z</time></trkpt><trkpt lat="45.65774" lon="9.037725"><ele>242.39999999999998</ele><time>2026-04-03T13:10:51.005Z</time></trkpt><trkpt lat="45.65764" lon="9.0377183"><ele>242.60000000000002</ele><time>2026-04-03T13:10:53.006Z</time></trkpt><trkpt lat="45.6575383" lon="9.037715"><ele>242.8</ele><time>2026-04-03T13:10:55.006Z</time></trkpt><trkpt lat="45.6574367" lon="9.0377067"><ele>243.0</ele><time>2026-04-03T13:10:57.006Z</time></trkpt><trkpt lat="45.6573383" lon="9.037695"><ele>243.0</ele><time>2026-04-03T13:10:59.005Z</time></trkpt><trkpt lat="45.657235" lon="9.0376817"><ele>243.0</ele><time>2026-04-03T13:11:01.006Z</time></trkpt><trkpt lat="45.65713" lon="9.0376783"><ele>243.0</ele><time>2026-04-03T13:11:03.005Z</time></trkpt><trkpt lat="45.6570267" lon="9.03767"><ele>243.0</ele><time>2026-04-03T13:11:05.005Z</time></trkpt><trkpt lat="45.65692" lon="9.037675"><ele>243.0</ele><time>2026-04-03T13:11:07.005Z</time></trkpt><trkpt lat="45.6568067" lon="9.0376717"><ele>242.8</ele><time>2026-04-03T13:11:09.005Z</time></trkpt><trkpt lat="45.6567033" lon="9.03767"><ele>242.60000000000002</ele><time>2026-04-03T13:11:11.005Z</time></trkpt><trkpt lat="45.656605" lon="9.0376467"><ele>242.39999999999998</ele><time>2026-04-03T13:11:13.006Z</time></trkpt><trkpt lat="45.656505" lon="9.0376333"><ele>242.2</ele><time>2026-04-03T13:11:15.005Z</time></trkpt><trkpt lat="45.656405" lon="9.0376183"><ele>242.0</ele><time>2026-04-03T13:11:17.006Z</time></trkpt><trkpt lat="45.6563033" lon="9.0376017"><ele>242.0</ele><time>2026-04-03T13:11:19.005Z</time></trkpt><trkpt lat="45.6562" lon="9.0375917"><ele>242.0</ele><time>2026-04-03T13:11:21.005Z</time></trkpt><trkpt lat="45.6560917" lon="9.0375717"><ele>242.0</ele><time>2026-04-03T13:11:23.006Z</time></trkpt><trkpt lat="45.655985" lon="9.0375567"><ele>242.0</ele><time>2026-04-03T13:11:25.005Z</time></trkpt><trkpt lat="45.6558767" lon="9.0375433"><ele>242.0</ele><time>2026-04-03T13:11:27.005Z</time></trkpt><trkpt lat="45.6557733" lon="9.037535"><ele>242.0</ele><time>2026-04-03T13:11:29.005Z</time></trkpt><trkpt lat="45.6556667" lon="9.037535"><ele>242.0</ele><time>2026-04-03T13:11:31.005Z</time></trkpt><trkpt lat="45.6555583" lon="9.0375317"><ele>242.0</ele><time>2026-04-03T13:11:33.005Z</time></trkpt><trkpt lat="45.65546" lon="9.03753"><ele>242.0</ele><time>2026-04-03T13:11:35.005Z</time></trkpt><trkpt lat="45.6553583" lon="9.037525"><ele>242.0</ele><time>2026-04-03T13:11:37.005Z</time></trkpt><trkpt lat="45.655255" lon="9.0375"><ele>241.8</ele><time>2026-04-03T13:11:39.005Z</time></trkpt><trkpt lat="45.6551517" lon="9.0374883"><ele>241.6</ele><time>2026-04-03T13:11:41.006Z</time></trkpt><trkpt lat="45.65505" lon="9.0374783"><ele>241.40000000000003</ele><time>2026-04-03T13:11:43.005Z</time></trkpt><trkpt lat="45.6549567" lon="9.037485"><ele>241.20000000000002</ele><time>2026-04-03T13:11:45.005Z</time></trkpt><trkpt lat="45.654855" lon="9.0374733"><ele>241.0</ele><time>2026-04-03T13:11:47.005Z</time></trkpt><trkpt lat="45.6547517" lon="9.037455"><ele>241.0</ele><time>2026-04-03T13:11:49.005Z</time></trkpt><trkpt lat="45.654655" lon="9.0374417"><ele>241.00000000000003</ele><time>2026-04-03T13:11:51.006Z</time></trkpt><trkpt lat="45.6545517" lon="9.0374367"><ele>241.00000000000003</ele><time>2026-04-03T13:11:53.005Z</time></trkpt><trkpt lat="45.6544483" lon="9.0374267"><ele>241.0</ele><time>2026-04-03T13:11:55.005Z</time></trkpt><trkpt lat="45.6543533" lon="9.037415"><ele>241.0</ele><time>2026-04-03T13:11:57.005Z</time></trkpt><trkpt lat="45.65426" lon="9.0373983"><ele>240.8</ele><time>2026-04-03T13:11:59.006Z</time></trkpt><trkpt lat="45.65416" lon="9.0373833"><ele>240.60000000000002</ele><time>2026-04-03T13:12:01.005Z</time></trkpt><trkpt lat="45.6540583" lon="9.0373733"><ele>240.4</ele><time>2026-04-03T13:12:03.005Z</time></trkpt><trkpt lat="45.653955" lon="9.0373683"><ele>240.2</ele><time>2026-04-03T13:12:05.005Z</time></trkpt><trkpt lat="45.6538483" lon="9.037375"><ele>240.0</ele><time>2026-04-03T13:12:07.006Z</time></trkpt><trkpt lat="45.6537533" lon="9.0373867"><ele>240.0</ele><time>2026-04-03T13:12:09.005Z</time></trkpt><trkpt lat="45.6536483" lon="9.0373817"><ele>240.0</ele><time>2026-04-03T13:12:11.005Z</time></trkpt><trkpt lat="45.6535583" lon="9.0373383"><ele>240.0</ele><time>2026-04-03T13:12:13.005Z</time></trkpt><trkpt lat="45.6534917" lon="9.0372367"><ele>240.0</ele><time>2026-04-03T13:12:15.006Z</time></trkpt><trkpt lat="45.6534433" lon="9.0371367"><ele>240.0</ele><time>2026-04-03T13:12:17.005Z</time></trkpt><trkpt lat="45.6533717" lon="9.0371"><ele>240.2</ele><time>2026-04-03T13:12:19.006Z</time></trkpt><trkpt lat="45.6532867" lon="9.0371267"><ele>240.4</ele><time>2026-04-03T13:12:21.005Z</time></trkpt><trkpt lat="45.653195" lon="9.037175"><ele>240.60000000000002</ele><time>2026-04-03T13:12:23.005Z</time></trkpt><trkpt lat="45.65309" lon="9.0372217"><ele>240.8</ele><time>2026-04-03T13:12:25.005Z</time></trkpt><trkpt lat="45.653" lon="9.037235"><ele>241.0</ele><time>2026-04-03T13:12:27.005Z</time></trkpt><trkpt lat="45.6529083" lon="9.03724"><ele>241.0</ele><time>2026-04-03T13:12:29.006Z</time></trkpt><trkpt lat="45.6528167" lon="9.0372383"><ele>241.00000000000003</ele><time>2026-04-03T13:12:31.005Z</time></trkpt><trkpt lat="45.65272" lon="9.0372317"><ele>241.00000000000003</ele><time>2026-04-03T13:12:33.005Z</time></trkpt><trkpt lat="45.6526233" lon="9.0372217"><ele>241.0</ele><time>2026-04-03T13:12:35.005Z</time></trkpt><trkpt lat="45.652525" lon="9.0372083"><ele>241.0</ele><time>2026-04-03T13:12:37.006Z</time></trkpt><trkpt lat="45.6524333" lon="9.0371883"><ele>240.60000000000002</ele><time>2026-04-03T13:12:39.005Z</time></trkpt><trkpt lat="45.65234" lon="9.037175"><ele>240.20000000000002</ele><time>2026-04-03T13:12:41.005Z</time></trkpt><trkpt lat="45.6522433" lon="9.03715"><ele>239.79999999999998</ele><time>2026-04-03T13:12:43.005Z</time></trkpt><trkpt lat="45.6521333" lon="9.0371483"><ele>239.39999999999998</ele><time>2026-04-03T13:12:45.005Z</time></trkpt><trkpt lat="45.6520417" lon="9.0371417"><ele>239.0</ele><time>2026-04-03T13:12:47.006Z</time></trkpt><trkpt lat="45.6519433" lon="9.0371233"><ele>238.79999999999998</ele><time>2026-04-03T13:12:49.005Z</time></trkpt><trkpt lat="45.6518467" lon="9.0371083"><ele>238.59999999999997</ele><time>2026-04-03T13:12:51.006Z</time></trkpt><trkpt lat="45.6517483" lon="9.03711"><ele>238.4</ele><time>2026-04-03T13:12:53.005Z</time></trkpt><trkpt lat="45.65165" lon="9.0371033"><ele>238.2</ele><time>2026-04-03T13:12:55.005Z</time></trkpt><trkpt lat="45.651545" lon="9.037105"><ele>238.0</ele><time>2026-04-03T13:12:57.005Z</time></trkpt><trkpt lat="45.65144" lon="9.037095"><ele>238.0</ele><time>2026-04-03T13:12:59.005Z</time></trkpt><trkpt lat="45.651335" lon="9.0370833"><ele>238.0</ele><time>2026-04-03T13:13:01.006Z</time></trkpt><trkpt lat="45.6512333" lon="9.0370783"><ele>238.0</ele><time>2026-04-03T13:13:03.006Z</time></trkpt><trkpt lat="45.651125" lon="9.0370867"><ele>238.0</ele><time>2026-04-03T13:13:05.006Z</time></trkpt><trkpt lat="45.6510183" lon="9.03708"><ele>238.0</ele><time>2026-04-03T13:13:07.006Z</time></trkpt><trkpt lat="45.6509133" lon="9.0370917"><ele>237.8</ele><time>2026-04-03T13:13:09.005Z</time></trkpt><trkpt lat="45.6508067" lon="9.03708"><ele>237.60000000000002</ele><time>2026-04-03T13:13:11.005Z</time></trkpt><trkpt lat="45.6506917" lon="9.0370467"><ele>237.39999999999998</ele><time>2026-04-03T13:13:13.005Z</time></trkpt><trkpt lat="45.650585" lon="9.037025"><ele>237.2</ele><time>2026-04-03T13:13:15.005Z</time></trkpt><trkpt lat="45.6504717" lon="9.0369983"><ele>237.0</ele><time>2026-04-03T13:13:17.005Z</time></trkpt><trkpt lat="45.65036" lon="9.0369833"><ele>237.0</ele><time>2026-04-03T13:13:19.005Z</time></trkpt><trkpt lat="45.6502517" lon="9.0369517"><ele>237.0</ele><time>2026-04-03T13:13:21.005Z</time></trkpt><trkpt lat="45.6501467" lon="9.0369383"><ele>237.0</ele><time>2026-04-03T13:13:23.006Z</time></trkpt><trkpt lat="45.6500317" lon="9.0369233"><ele>237.0</ele><time>2026-04-03T13:13:25.006Z</time></trkpt><trkpt lat="45.6499233" lon="9.0369167"><ele>237.0</ele><time>2026-04-03T13:13:27.005Z</time></trkpt><trkpt lat="45.6498183" lon="9.0368933"><ele>237.0</ele><time>2026-04-03T13:13:29.005Z</time></trkpt><trkpt lat="45.6497167" lon="9.0368767"><ele>237.0</ele><time>2026-04-03T13:13:31.005Z</time></trkpt><trkpt lat="45.6496017" lon="9.03686"><ele>237.0</ele><time>2026-04-03T13:13:33.005Z</time></trkpt><trkpt lat="45.6494933" lon="9.03685"><ele>237.0</ele><time>2026-04-03T13:13:35.006Z</time></trkpt><trkpt lat="45.64938" lon="9.0368333"><ele>237.0</ele><time>2026-04-03T13:13:37.005Z</time></trkpt><trkpt lat="45.6492783" lon="9.0368167"><ele>237.0</ele><time>2026-04-03T13:13:39.005Z</time></trkpt><trkpt lat="45.6491617" lon="9.0368133"><ele>237.0</ele><time>2026-04-03T13:13:41.005Z</time></trkpt><trkpt lat="45.6490533" lon="9.036815"><ele>237.0</ele><time>2026-04-03T13:13:43.005Z</time></trkpt><trkpt lat="45.6489467" lon="9.0368067"><ele>237.0</ele><time>2026-04-03T13:13:45.006Z</time></trkpt><trkpt lat="45.6488233" lon="9.03678"><ele>237.0</ele><time>2026-04-03T13:13:47.005Z</time></trkpt><trkpt lat="45.6487583" lon="9.0367583"><ele>237.0</ele><time>2026-04-03T13:13:48.005Z</time></trkpt><trkpt lat="45.648695" lon="9.0367467"><ele>237.0</ele><time>2026-04-03T13:13:49.005Z</time></trkpt><trkpt lat="45.6485817" lon="9.03673"><ele>237.0</ele><time>2026-04-03T13:13:51.005Z</time></trkpt><trkpt lat="45.6484683" lon="9.0367267"><ele>237.0</ele><time>2026-04-03T13:13:53.005Z</time></trkpt><trkpt lat="45.64836" lon="9.0367267"><ele>236.39999999999998</ele><time>2026-04-03T13:13:55.006Z</time></trkpt><trkpt lat="45.6482483" lon="9.0367167"><ele>235.79999999999998</ele><time>2026-04-03T13:13:57.006Z</time></trkpt><trkpt lat="45.648145" lon="9.036705"><ele>235.2</ele><time>2026-04-03T13:13:59.005Z</time></trkpt><trkpt lat="45.6480417" lon="9.0367083"><ele>234.6</ele><time>2026-04-03T13:14:01.006Z</time></trkpt><trkpt lat="45.6479267" lon="9.0366817"><ele>234.0</ele><time>2026-04-03T13:14:03.005Z</time></trkpt><trkpt lat="45.6478167" lon="9.03668"><ele>234.25</ele><time>2026-04-03T13:14:05.005Z</time></trkpt><trkpt lat="45.6476983" lon="9.03664"><ele>234.5</ele><time>2026-04-03T13:14:07.005Z</time></trkpt><trkpt lat="45.64758" lon="9.0366233"><ele>234.75</ele><time>2026-04-03T13:14:09.005Z</time></trkpt><trkpt lat="45.6474783" lon="9.0366267"><ele>235.0</ele><time>2026-04-03T13:14:11.005Z</time></trkpt><trkpt lat="45.6473633" lon="9.0366033"><ele>234.75</ele><time>2026-04-03T13:14:13.006Z</time></trkpt><trkpt lat="45.64725" lon="9.0365733"><ele>234.5</ele><time>2026-04-03T13:14:15.006Z</time></trkpt><trkpt lat="45.6471367" lon="9.0365617"><ele>234.25</ele><time>2026-04-03T13:14:17.006Z</time></trkpt><trkpt lat="45.6470233" lon="9.0365617"><ele>234.0</ele><time>2026-04-03T13:14:19.006Z</time></trkpt><trkpt lat="45.6469083" lon="9.036545"><ele>234.0</ele><time>2026-04-03T13:14:21.005Z</time></trkpt><trkpt lat="45.6467867" lon="9.03654"><ele>234.0</ele><time>2026-04-03T13:14:23.005Z</time></trkpt><trkpt lat="45.64668" lon="9.0365367"><ele>234.0</ele><time>2026-04-03T13:14:25.005Z</time></trkpt><trkpt lat="45.6465683" lon="9.0365167"><ele>234.0</ele><time>2026-04-03T13:14:27.005Z</time></trkpt><trkpt lat="45.64645" lon="9.0365017"><ele>234.0</ele><time>2026-04-03T13:14:29.006Z</time></trkpt><trkpt lat="45.6463383" lon="9.0364783"><ele>233.99999999999997</ele><time>2026-04-03T13:14:31.006Z</time></trkpt><trkpt lat="45.64623" lon="9.0364533"><ele>233.99999999999997</ele><time>2026-04-03T13:14:33.005Z</time></trkpt><trkpt lat="45.6461217" lon="9.0364333"><ele>234.0</ele><time>2026-04-03T13:14:35.005Z</time></trkpt><trkpt lat="45.64602" lon="9.0364183"><ele>234.0</ele><time>2026-04-03T13:14:37.005Z</time></trkpt><trkpt lat="45.64591" lon="9.0363983"><ele>233.79999999999998</ele><time>2026-04-03T13:14:39.005Z</time></trkpt><trkpt lat="45.6458067" lon="9.0363767"><ele>233.59999999999997</ele><time>2026-04-03T13:14:41.005Z</time></trkpt><trkpt lat="45.645705" lon="9.0363683"><ele>233.4</ele><time>2026-04-03T13:14:43.005Z</time></trkpt><trkpt lat="45.6456117" lon="9.0363467"><ele>233.2</ele><time>2026-04-03T13:14:45.005Z</time></trkpt><trkpt lat="45.64551" lon="9.0363383"><ele>233.0</ele><time>2026-04-03T13:14:47.005Z</time></trkpt><trkpt lat="45.64541" lon="9.0363267"><ele>233.0</ele><time>2026-04-03T13:14:49.005Z</time></trkpt><trkpt lat="45.6453067" lon="9.0363133"><ele>233.0</ele><time>2026-04-03T13:14:51.005Z</time></trkpt><trkpt lat="45.6452067" lon="9.0362933"><ele>233.0</ele><time>2026-04-03T13:14:53.005Z</time></trkpt><trkpt lat="45.6451033" lon="9.03629"><ele>233.0</ele><time>2026-04-03T13:14:55.006Z</time></trkpt><trkpt lat="45.64501" lon="9.0362933"><ele>233.0</ele><time>2026-04-03T13:14:57.005Z</time></trkpt><trkpt lat="45.6449133" lon="9.03628"><ele>232.8</ele><time>2026-04-03T13:14:59.005Z</time></trkpt><trkpt lat="45.6448267" lon="9.0362667"><ele>232.60000000000002</ele><time>2026-04-03T13:15:01.005Z</time></trkpt><trkpt lat="45.6447367" lon="9.03626"><ele>232.39999999999998</ele><time>2026-04-03T13:15:03.006Z</time></trkpt><trkpt lat="45.64465" lon="9.0362533"><ele>232.2</ele><time>2026-04-03T13:15:05.006Z</time></trkpt><trkpt lat="45.64456" lon="9.036235"><ele>232.0</ele><time>2026-04-03T13:15:07.006Z</time></trkpt><trkpt lat="45.6444633" lon="9.0362183"><ele>231.8</ele><time>2026-04-03T13:15:09.005Z</time></trkpt><trkpt lat="45.6443783" lon="9.0362267"><ele>231.6</ele><time>2026-04-03T13:15:11.005Z</time></trkpt><trkpt lat="45.644295" lon="9.0362483"><ele>231.40000000000003</ele><time>2026-04-03T13:15:13.005Z</time></trkpt><trkpt lat="45.6441983" lon="9.03628"><ele>231.20000000000002</ele><time>2026-04-03T13:15:15.005Z</time></trkpt><trkpt lat="45.6440983" lon="9.036265"><ele>231.0</ele><time>2026-04-03T13:15:17.005Z</time></trkpt><trkpt lat="45.644" lon="9.0362567"><ele>231.0</ele><time>2026-04-03T13:15:19.005Z</time></trkpt><trkpt lat="45.6439033" lon="9.0362467"><ele>231.00000000000003</ele><time>2026-04-03T13:15:21.005Z</time></trkpt><trkpt lat="45.6438083" lon="9.0362383"><ele>231.00000000000003</ele><time>2026-04-03T13:15:23.005Z</time></trkpt><trkpt lat="45.6437183" lon="9.03623"><ele>231.0</ele><time>2026-04-03T13:15:25.006Z</time></trkpt><trkpt lat="45.6436233" lon="9.036215"><ele>231.0</ele><time>2026-04-03T13:15:27.006Z</time></trkpt><trkpt lat="45.6435383" lon="9.0362033"><ele>230.60000000000002</ele><time>2026-04-03T13:15:29.005Z</time></trkpt><trkpt lat="45.6434517" lon="9.036185"><ele>230.20000000000002</ele><time>2026-04-03T13:15:31.006Z</time></trkpt><trkpt lat="45.6433583" lon="9.03618"><ele>229.79999999999998</ele><time>2026-04-03T13:15:33.005Z</time></trkpt><trkpt lat="45.6432633" lon="9.0361667"><ele>229.39999999999998</ele><time>2026-04-03T13:15:35.005Z</time></trkpt><trkpt lat="45.6431683" lon="9.0361567"><ele>229.0</ele><time>2026-04-03T13:15:37.005Z</time></trkpt><trkpt lat="45.6430767" lon="9.0361417"><ele>229.0</ele><time>2026-04-03T13:15:39.006Z</time></trkpt><trkpt lat="45.6429833" lon="9.0361333"><ele>228.99999999999997</ele><time>2026-04-03T13:15:41.006Z</time></trkpt><trkpt lat="45.642895" lon="9.0361233"><ele>228.99999999999997</ele><time>2026-04-03T13:15:43.005Z</time></trkpt><trkpt lat="45.6428033" lon="9.0361083"><ele>229.0</ele><time>2026-04-03T13:15:45.005Z</time></trkpt><trkpt lat="45.6427117" lon="9.0360933"><ele>229.0</ele><time>2026-04-03T13:15:47.005Z</time></trkpt><trkpt lat="45.6426217" lon="9.0360783"><ele>228.83333333333331</ele><time>2026-04-03T13:15:49.006Z</time></trkpt><trkpt lat="45.642535" lon="9.0360717"><ele>228.66666666666666</ele><time>2026-04-03T13:15:51.005Z</time></trkpt><trkpt lat="45.6424533" lon="9.0360533"><ele>228.5</ele><time>2026-04-03T13:15:53.005Z</time></trkpt><trkpt lat="45.6423617" lon="9.0360367"><ele>228.33333333333331</ele><time>2026-04-03T13:15:55.005Z</time></trkpt><trkpt lat="45.6422717" lon="9.0360217"><ele>228.16666666666666</ele><time>2026-04-03T13:15:57.005Z</time></trkpt><trkpt lat="45.64218" lon="9.0360083"><ele>228.0</ele><time>2026-04-03T13:15:59.007Z</time></trkpt><trkpt lat="45.6420933" lon="9.0360067"><ele>228.0</ele><time>2026-04-03T13:16:01.006Z</time></trkpt><trkpt lat="45.64202" lon="9.03599"><ele>228.0</ele><time>2026-04-03T13:16:03.006Z</time></trkpt><trkpt lat="45.6419567" lon="9.0359967"><ele>228.0</ele><time>2026-04-03T13:16:05.006Z</time></trkpt><trkpt lat="45.6418783" lon="9.03599"><ele>228.0</ele><time>2026-04-03T13:16:07.006Z</time></trkpt><trkpt lat="45.6417883" lon="9.0359783"><ele>228.0</ele><time>2026-04-03T13:16:09.006Z</time></trkpt><trkpt lat="45.6416983" lon="9.035965"><ele>228.0</ele><time>2026-04-03T13:16:11.007Z</time></trkpt><trkpt lat="45.6416083" lon="9.0359617"><ele>228.0</ele><time>2026-04-03T13:16:13.006Z</time></trkpt><trkpt lat="45.6415283" lon="9.03595"><ele>228.0</ele><time>2026-04-03T13:16:15.006Z</time></trkpt><trkpt lat="45.641445" lon="9.0359467"><ele>228.0</ele><time>2026-04-03T13:16:17.006Z</time></trkpt><trkpt lat="45.6413583" lon="9.0359367"><ele>228.0</ele><time>2026-04-03T13:16:19.006Z</time></trkpt><trkpt lat="45.6412817" lon="9.0359333"><ele>228.0</ele><time>2026-04-03T13:16:21.006Z</time></trkpt><trkpt lat="45.6412017" lon="9.0359233"><ele>228.0</ele><time>2026-04-03T13:16:23.006Z</time></trkpt><trkpt lat="45.6411267" lon="9.0359117"><ele>228.0</ele><time>2026-04-03T13:16:25.006Z</time></trkpt><trkpt lat="45.6410483" lon="9.0359017"><ele>228.0</ele><time>2026-04-03T13:16:27.007Z</time></trkpt><trkpt lat="45.6409733" lon="9.0358917"><ele>228.0</ele><time>2026-04-03T13:16:29.006Z</time></trkpt><trkpt lat="45.6408967" lon="9.035895"><ele>228.0</ele><time>2026-04-03T13:16:31.007Z</time></trkpt><trkpt lat="45.6408117" lon="9.0358817"><ele>228.0</ele><time>2026-04-03T13:16:33.006Z</time></trkpt><trkpt lat="45.64073" lon="9.0358633"><ele>228.0</ele><time>2026-04-03T13:16:35.006Z</time></trkpt><trkpt lat="45.6406517" lon="9.0358533"><ele>228.0</ele><time>2026-04-03T13:16:37.006Z</time></trkpt><trkpt lat="45.6405667" lon="9.035855"><ele>228.0</ele><time>2026-04-03T13:16:39.007Z</time></trkpt><trkpt lat="45.6404817" lon="9.0358467"><ele>228.0</ele><time>2026-04-03T13:16:41.006Z</time></trkpt><trkpt lat="45.6404017" lon="9.0358317"><ele>228.0</ele><time>2026-04-03T13:16:43.007Z</time></trkpt><trkpt lat="45.6403183" lon="9.0357967"><ele>228.0</ele><time>2026-04-03T13:16:45.006Z</time></trkpt><trkpt lat="45.6402283" lon="9.0357733"><ele>228.0</ele><time>2026-04-03T13:16:47.006Z</time></trkpt><trkpt lat="45.6401467" lon="9.035745"><ele>228.0</ele><time>2026-04-03T13:16:49.006Z</time></trkpt><trkpt lat="45.6400583" lon="9.0357167"><ele>228.0</ele><time>2026-04-03T13:16:51.007Z</time></trkpt><trkpt lat="45.6399717" lon="9.0356767"><ele>228.0</ele><time>2026-04-03T13:16:53.007Z</time></trkpt><trkpt lat="45.6398867" lon="9.0356533"><ele>228.0</ele><time>2026-04-03T13:16:55.006Z</time></trkpt><trkpt lat="45.6398133" lon="9.0356167"><ele>228.0</ele><time>2026-04-03T13:16:57.006Z</time></trkpt><trkpt lat="45.6397267" lon="9.0355967"><ele>228.0</ele><time>2026-04-03T13:16:59.006Z</time></trkpt><trkpt lat="45.6396283" lon="9.0355867"><ele>228.0</ele><time>2026-04-03T13:17:01.006Z</time></trkpt><trkpt lat="45.6395183" lon="9.03557"><ele>228.0</ele><time>2026-04-03T13:17:03.007Z</time></trkpt><trkpt lat="45.6393983" lon="9.0355683"><ele>228.0</ele><time>2026-04-03T13:17:05.006Z</time></trkpt><trkpt lat="45.63928" lon="9.0355683"><ele>228.0</ele><time>2026-04-03T13:17:07.007Z</time></trkpt><trkpt lat="45.63916" lon="9.03558"><ele>228.25</ele><time>2026-04-03T13:17:09.006Z</time></trkpt><trkpt lat="45.6390433" lon="9.0355883"><ele>228.5</ele><time>2026-04-03T13:17:11.006Z</time></trkpt><trkpt lat="45.638935" lon="9.03559"><ele>228.75</ele><time>2026-04-03T13:17:13.006Z</time></trkpt><trkpt lat="45.6388183" lon="9.0355917"><ele>229.0</ele><time>2026-04-03T13:17:15.006Z</time></trkpt><trkpt lat="45.638705" lon="9.0355783"><ele>228.6</ele><time>2026-04-03T13:17:17.006Z</time></trkpt><trkpt lat="45.6386067" lon="9.0355667"><ele>228.2</ele><time>2026-04-03T13:17:19.006Z</time></trkpt><trkpt lat="45.6385017" lon="9.0355667"><ele>227.79999999999998</ele><time>2026-04-03T13:17:21.006Z</time></trkpt><trkpt lat="45.6383967" lon="9.0355667"><ele>227.39999999999998</ele><time>2026-04-03T13:17:23.006Z</time></trkpt><trkpt lat="45.6382967" lon="9.0355683"><ele>227.0</ele><time>2026-04-03T13:17:25.006Z</time></trkpt><trkpt lat="45.6382267" lon="9.0355817"><ele>227.00000000000003</ele><time>2026-04-03T13:17:27.007Z</time></trkpt><trkpt lat="45.638165" lon="9.0356233"><ele>227.0</ele><time>2026-04-03T13:17:30.006Z</time></trkpt><trkpt lat="45.6380617" lon="9.0356067"><ele>227.0</ele><time>2026-04-03T13:17:33.006Z</time></trkpt><trkpt lat="45.6379833" lon="9.0356"><ele>227.0</ele><time>2026-04-03T13:17:35.006Z</time></trkpt><trkpt lat="45.6379033" lon="9.0356083"><ele>227.00000000000003</ele><time>2026-04-03T13:17:37.007Z</time></trkpt><trkpt lat="45.6378417" lon="9.03567"><ele>227.0</ele><time>2026-04-03T13:17:41.006Z</time></trkpt><trkpt lat="45.6377767" lon="9.0356483"><ele>226.66666666666669</ele><time>2026-04-03T13:17:44.006Z</time></trkpt><trkpt lat="45.6377067" lon="9.03568"><ele>226.33333333333334</ele><time>2026-04-03T13:17:46.007Z</time></trkpt><trkpt lat="45.6376933" lon="9.0357783"><ele>226.0</ele><time>2026-04-03T13:17:48.006Z</time></trkpt><trkpt lat="45.6377117" lon="9.0358833"><ele>225.66666666666669</ele><time>2026-04-03T13:17:50.006Z</time></trkpt><trkpt lat="45.63775" lon="9.0359917"><ele>225.33333333333334</ele><time>2026-04-03T13:17:52.006Z</time></trkpt><trkpt lat="45.6377967" lon="9.0361017"><ele>225.0</ele><time>2026-04-03T13:17:54.006Z</time></trkpt><trkpt lat="45.6378617" lon="9.03621"><ele>225.0</ele><time>2026-04-03T13:17:56.007Z</time></trkpt><trkpt lat="45.6379267" lon="9.0363267"><ele>225.0</ele><time>2026-04-03T13:17:58.006Z</time></trkpt><trkpt lat="45.6379983" lon="9.0364383"><ele>225.0</ele><time>2026-04-03T13:18:00.006Z</time></trkpt><trkpt lat="45.6380617" lon="9.0365167"><ele>225.0</ele><time>2026-04-03T13:18:02.006Z</time></trkpt><trkpt lat="45.6381267" lon="9.036565"><ele>225.0</ele><time>2026-04-03T13:18:04.006Z</time></trkpt><trkpt lat="45.63821" lon="9.0365933"><ele>225.0</ele><time>2026-04-03T13:18:06.006Z</time></trkpt><trkpt lat="45.6382783" lon="9.0366233"><ele>225.0</ele><time>2026-04-03T13:18:08.006Z</time></trkpt><trkpt lat="45.6383467" lon="9.036655"><ele>225.0</ele><time>2026-04-03T13:18:10.006Z</time></trkpt><trkpt lat="45.6384383" lon="9.0366833"><ele>225.0</ele><time>2026-04-03T13:18:12.006Z</time></trkpt><trkpt lat="45.6385333" lon="9.0367183"><ele>225.0</ele><time>2026-04-03T13:18:14.006Z</time></trkpt><trkpt lat="45.6386217" lon="9.0367567"><ele>225.0</ele><time>2026-04-03T13:18:16.007Z</time></trkpt><trkpt lat="45.6386967" lon="9.0367983"><ele>225.0</ele><time>2026-04-03T13:18:18.007Z</time></trkpt><trkpt lat="45.63877" lon="9.0368283"><ele>225.0</ele><time>2026-04-03T13:18:20.006Z</time></trkpt><trkpt lat="45.6388483" lon="9.0368683"><ele>225.0</ele><time>2026-04-03T13:18:22.007Z</time></trkpt><trkpt lat="45.6389233" lon="9.0369233"><ele>225.0</ele><time>2026-04-03T13:18:24.006Z</time></trkpt><trkpt lat="45.6389917" lon="9.036975"><ele>225.0</ele><time>2026-04-03T13:18:26.006Z</time></trkpt><trkpt lat="45.63905" lon="9.0370417"><ele>225.0</ele><time>2026-04-03T13:18:28.006Z</time></trkpt><trkpt lat="45.6390983" lon="9.0371467"><ele>225.0</ele><time>2026-04-03T13:18:30.007Z</time></trkpt><trkpt lat="45.6391283" lon="9.0372517"><ele>225.0</ele><time>2026-04-03T13:18:32.006Z</time></trkpt><trkpt lat="45.6391567" lon="9.0373617"><ele>225.0</ele><time>2026-04-03T13:18:34.006Z</time></trkpt><trkpt lat="45.6391767" lon="9.03748"><ele>225.0</ele><time>2026-04-03T13:18:36.006Z</time></trkpt><trkpt lat="45.6391933" lon="9.03761"><ele>225.0</ele><time>2026-04-03T13:18:38.007Z</time></trkpt><trkpt lat="45.6392133" lon="9.0377517"><ele>225.0</ele><time>2026-04-03T13:18:40.007Z</time></trkpt><trkpt lat="45.6392367" lon="9.037885"><ele>224.8</ele><time>2026-04-03T13:18:42.006Z</time></trkpt><trkpt lat="45.6392267" lon="9.0379967"><ele>224.6</ele><time>2026-04-03T13:18:44.007Z</time></trkpt><trkpt lat="45.6392083" lon="9.038125"><ele>224.39999999999998</ele><time>2026-04-03T13:18:46.006Z</time></trkpt><trkpt lat="45.6391983" lon="9.0382783"><ele>224.2</ele><time>2026-04-03T13:18:48.007Z</time></trkpt><trkpt lat="45.6391733" lon="9.0384233"><ele>224.0</ele><time>2026-04-03T13:18:50.007Z</time></trkpt><trkpt lat="45.6391433" lon="9.0385517"><ele>223.6</ele><time>2026-04-03T13:18:52.006Z</time></trkpt><trkpt lat="45.6391083" lon="9.0386833"><ele>223.2</ele><time>2026-04-03T13:18:54.007Z</time></trkpt><trkpt lat="45.639065" lon="9.038815"><ele>222.79999999999998</ele><time>2026-04-03T13:18:56.006Z</time></trkpt><trkpt lat="45.6390233" lon="9.038925"><ele>222.39999999999998</ele><time>2026-04-03T13:18:58.006Z</time></trkpt><trkpt lat="45.6389767" lon="9.0390267"><ele>222.0</ele><time>2026-04-03T13:19:00.006Z</time></trkpt><trkpt lat="45.6389367" lon="9.0391317"><ele>222.0</ele><time>2026-04-03T13:19:02.006Z</time></trkpt><trkpt lat="45.6389483" lon="9.0392267"><ele>222.0</ele><time>2026-04-03T13:19:04.006Z</time></trkpt><trkpt lat="45.6390167" lon="9.0393033"><ele>222.0</ele><time>2026-04-03T13:19:07.006Z</time></trkpt><trkpt lat="45.6389983" lon="9.0392033"><ele>222.0</ele><time>2026-04-03T13:19:12.006Z</time></trkpt><trkpt lat="45.6390067" lon="9.0390983"><ele>222.0</ele><time>2026-04-03T13:19:14.006Z</time></trkpt><trkpt lat="45.639045" lon="9.039015"><ele>222.0</ele><time>2026-04-03T13:19:16.007Z</time></trkpt><trkpt lat="45.6390833" lon="9.03891"><ele>222.0</ele><time>2026-04-03T13:19:19.006Z</time></trkpt><trkpt lat="45.6391067" lon="9.0388017"><ele>222.0</ele><time>2026-04-03T13:19:22.006Z</time></trkpt><trkpt lat="45.6391067" lon="9.038695"><ele>222.0</ele><time>2026-04-03T13:19:25.006Z</time></trkpt><trkpt lat="45.6391383" lon="9.0386067"><ele>222.0</ele><time>2026-04-03T13:19:27.006Z</time></trkpt><trkpt lat="45.6391833" lon="9.0384917"><ele>222.0</ele><time>2026-04-03T13:19:30.006Z</time></trkpt><trkpt lat="45.6392017" lon="9.03837"><ele>222.0</ele><time>2026-04-03T13:19:33.006Z</time></trkpt><trkpt lat="45.6392083" lon="9.03824"><ele>222.33333333333334</ele><time>2026-04-03T13:19:36.006Z</time></trkpt><trkpt lat="45.6392133" lon="9.03813"><ele>222.66666666666669</ele><time>2026-04-03T13:19:39.006Z</time></trkpt><trkpt lat="45.6392283" lon="9.03801"><ele>223.0</ele><time>2026-04-03T13:19:42.006Z</time></trkpt><trkpt lat="45.639235" lon="9.0378917"><ele>223.33333333333334</ele><time>2026-04-03T13:19:45.007Z</time></trkpt><trkpt lat="45.6392283" lon="9.0377583"><ele>223.66666666666669</ele><time>2026-04-03T13:19:48.006Z</time></trkpt><trkpt lat="45.6392267" lon="9.0376667"><ele>224.0</ele><time>2026-04-03T13:19:50.006Z</time></trkpt><trkpt lat="45.6392167" lon="9.037555"><ele>224.16666666666669</ele><time>2026-04-03T13:19:53.007Z</time></trkpt><trkpt lat="45.6392167" lon="9.0374633"><ele>224.33333333333334</ele><time>2026-04-03T13:19:55.006Z</time></trkpt><trkpt lat="45.6391733" lon="9.0373283"><ele>224.5</ele><time>2026-04-03T13:19:58.006Z</time></trkpt><trkpt lat="45.6391433" lon="9.037235"><ele>224.66666666666669</ele><time>2026-04-03T13:20:00.006Z</time></trkpt><trkpt lat="45.6390967" lon="9.0371233"><ele>224.83333333333334</ele><time>2026-04-03T13:20:03.006Z</time></trkpt><trkpt lat="45.6390483" lon="9.03704"><ele>225.0</ele><time>2026-04-03T13:20:06.006Z</time></trkpt><trkpt lat="45.6389633" lon="9.03699"><ele>225.0</ele><time>2026-04-03T13:20:09.006Z</time></trkpt><trkpt lat="45.6388767" lon="9.0369267"><ele>225.0</ele><time>2026-04-03T13:20:12.006Z</time></trkpt><trkpt lat="45.63879" lon="9.03689"><ele>225.0</ele><time>2026-04-03T13:20:14.007Z</time></trkpt><trkpt lat="45.6387033" lon="9.03686"><ele>225.0</ele><time>2026-04-03T13:20:16.006Z</time></trkpt><trkpt lat="45.638625" lon="9.0368167"><ele>225.0</ele><time>2026-04-03T13:20:18.006Z</time></trkpt><trkpt lat="45.6385567" lon="9.0367633"><ele>225.0</ele><time>2026-04-03T13:20:20.007Z</time></trkpt><trkpt lat="45.6384833" lon="9.0367367"><ele>225.0</ele><time>2026-04-03T13:20:22.006Z</time></trkpt><trkpt lat="45.63842" lon="9.0367117"><ele>225.0</ele><time>2026-04-03T13:20:24.006Z</time></trkpt><trkpt lat="45.6383367" lon="9.0366633"><ele>225.0</ele><time>2026-04-03T13:20:27.006Z</time></trkpt><trkpt lat="45.6382517" lon="9.0366417"><ele>225.0</ele><time>2026-04-03T13:20:30.006Z</time></trkpt><trkpt lat="45.638185" lon="9.036635"><ele>225.0</ele><time>2026-04-03T13:20:32.006Z</time></trkpt><trkpt lat="45.63809" lon="9.036595"><ele>225.0</ele><time>2026-04-03T13:20:35.007Z</time></trkpt><trkpt lat="45.6380367" lon="9.03654"><ele>225.00000000000003</ele><time>2026-04-03T13:20:37.006Z</time></trkpt><trkpt lat="45.6379917" lon="9.0364683"><ele>225.0</ele><time>2026-04-03T13:20:40.006Z</time></trkpt><trkpt lat="45.6379283" lon="9.0364933"><ele>225.00000000000003</ele><time>2026-04-03T13:20:45.006Z</time></trkpt><trkpt lat="45.6378883" lon="9.0365683"><ele>225.00000000000003</ele><time>2026-04-03T13:20:49.007Z</time></trkpt><trkpt lat="45.6378583" lon="9.03666"><ele>225.0</ele><time>2026-04-03T13:20:52.006Z</time></trkpt><trkpt lat="45.6378633" lon="9.0367583"><ele>225.00000000000003</ele><time>2026-04-03T13:20:54.006Z</time></trkpt><trkpt lat="45.63787" lon="9.0368883"><ele>225.00000000000003</ele><time>2026-04-03T13:20:57.007Z</time></trkpt><trkpt lat="45.637865" lon="9.03701"><ele>224.66666666666666</ele><time>2026-04-03T13:21:00.007Z</time></trkpt><trkpt lat="45.63786" lon="9.0371033"><ele>224.33333333333331</ele><time>2026-04-03T13:21:02.006Z</time></trkpt><trkpt lat="45.6378617" lon="9.037225"><ele>224.0</ele><time>2026-04-03T13:21:05.006Z</time></trkpt><trkpt lat="45.6378617" lon="9.037325"><ele>223.66666666666666</ele><time>2026-04-03T13:21:08.006Z</time></trkpt><trkpt lat="45.6378567" lon="9.0374433"><ele>223.33333333333331</ele><time>2026-04-03T13:21:11.006Z</time></trkpt><trkpt lat="45.637855" lon="9.03755"><ele>223.0</ele><time>2026-04-03T13:21:14.007Z</time></trkpt><trkpt lat="45.637845" lon="9.0376633"><ele>222.71428571428572</ele><time>2026-04-03T13:21:17.006Z</time></trkpt><trkpt lat="45.6378367" lon="9.037765"><ele>222.42857142857142</ele><time>2026-04-03T13:21:20.006Z</time></trkpt><trkpt lat="45.6378283" lon="9.037865"><ele>222.14285714285717</ele><time>2026-04-03T13:21:23.006Z</time></trkpt><trkpt lat="45.63781" lon="9.0379767"><ele>221.85714285714286</ele><time>2026-04-03T13:21:26.007Z</time></trkpt><trkpt lat="45.6378017" lon="9.0380917"><ele>221.57142857142858</ele><time>2026-04-03T13:21:29.006Z</time></trkpt><trkpt lat="45.6377983" lon="9.038195"><ele>221.2857142857143</ele><time>2026-04-03T13:21:32.007Z</time></trkpt><trkpt lat="45.6378033" lon="9.0382933"><ele>221.0</ele><time>2026-04-03T13:21:35.007Z</time></trkpt><trkpt lat="45.6378017" lon="9.0383983"><ele>220.83333333333334</ele><time>2026-04-03T13:21:38.006Z</time></trkpt><trkpt lat="45.637795" lon="9.03852"><ele>220.66666666666669</ele><time>2026-04-03T13:21:41.006Z</time></trkpt><trkpt lat="45.6378067" lon="9.038645"><ele>220.5</ele><time>2026-04-03T13:21:44.006Z</time></trkpt><trkpt lat="45.63783" lon="9.0387583"><ele>220.33333333333331</ele><time>2026-04-03T13:21:47.006Z</time></trkpt><trkpt lat="45.637875" lon="9.03886"><ele>220.16666666666666</ele><time>2026-04-03T13:21:50.007Z</time></trkpt><trkpt lat="45.6379217" lon="9.0389483"><ele>220.0</ele><time>2026-04-03T13:21:53.007Z</time></trkpt><trkpt lat="45.6379667" lon="9.0390417"><ele>220.16666666666666</ele><time>2026-04-03T13:21:56.006Z</time></trkpt><trkpt lat="45.6380267" lon="9.0391283"><ele>220.33333333333331</ele><time>2026-04-03T13:21:59.007Z</time></trkpt><trkpt lat="45.6380467" lon="9.0392467"><ele>220.5</ele><time>2026-04-03T13:22:02.006Z</time></trkpt><trkpt lat="45.6380567" lon="9.0393667"><ele>220.66666666666669</ele><time>2026-04-03T13:22:05.007Z</time></trkpt><trkpt lat="45.638055" lon="9.0394783"><ele>220.83333333333334</ele><time>2026-04-03T13:22:08.007Z</time></trkpt><trkpt lat="45.6380567" lon="9.039585"><ele>221.0</ele><time>2026-04-03T13:22:11.006Z</time></trkpt><trkpt lat="45.6380517" lon="9.0396883"><ele>221.00000000000003</ele><time>2026-04-03T13:22:14.006Z</time></trkpt><trkpt lat="45.638045" lon="9.0398083"><ele>221.0</ele><time>2026-04-03T13:22:17.006Z</time></trkpt><trkpt lat="45.638065" lon="9.0399317"><ele>221.0</ele><time>2026-04-03T13:22:20.006Z</time></trkpt><trkpt lat="45.63807" lon="9.0400217"><ele>221.0</ele><time>2026-04-03T13:22:23.006Z</time></trkpt><trkpt lat="45.63806" lon="9.0401417"><ele>221.00000000000003</ele><time>2026-04-03T13:22:26.007Z</time></trkpt><trkpt lat="45.6380467" lon="9.040265"><ele>221.0</ele><time>2026-04-03T13:22:29.006Z</time></trkpt><trkpt lat="45.6379817" lon="9.0403083"><ele>221.33333333333334</ele><time>2026-04-03T13:22:32.007Z</time></trkpt><trkpt lat="45.6378967" lon="9.0403133"><ele>221.66666666666669</ele><time>2026-04-03T13:22:35.007Z</time></trkpt><trkpt lat="45.6378117" lon="9.040315"><ele>222.0</ele><time>2026-04-03T13:22:38.006Z</time></trkpt><trkpt lat="45.6377267" lon="9.0402983"><ele>222.33333333333331</ele><time>2026-04-03T13:22:41.006Z</time></trkpt><trkpt lat="45.637645" lon="9.0402867"><ele>222.66666666666666</ele><time>2026-04-03T13:22:44.006Z</time></trkpt><trkpt lat="45.6375767" lon="9.0402833"><ele>223.0</ele><time>2026-04-03T13:22:46.006Z</time></trkpt><trkpt lat="45.6374967" lon="9.0402733"><ele>223.0</ele><time>2026-04-03T13:22:49.006Z</time></trkpt><trkpt lat="45.6374317" lon="9.0402667"><ele>223.0</ele><time>2026-04-03T13:22:51.006Z</time></trkpt><trkpt lat="45.6373367" lon="9.040275"><ele>223.0</ele><time>2026-04-03T13:22:54.006Z</time></trkpt><trkpt lat="45.63726" lon="9.0402817"><ele>223.0</ele><time>2026-04-03T13:22:56.006Z</time></trkpt><trkpt lat="45.63719" lon="9.0402833"><ele>223.0</ele><time>2026-04-03T13:22:58.006Z</time></trkpt><trkpt lat="45.637125" lon="9.04029"><ele>223.0</ele><time>2026-04-03T13:23:00.006Z</time></trkpt><trkpt lat="45.637055" lon="9.0402967"><ele>223.0</ele><time>2026-04-03T13:23:02.006Z</time></trkpt><trkpt lat="45.6369883" lon="9.04029"><ele>222.71428571428572</ele><time>2026-04-03T13:23:04.006Z</time></trkpt><trkpt lat="45.63691" lon="9.040295"><ele>222.42857142857142</ele><time>2026-04-03T13:23:06.006Z</time></trkpt><trkpt lat="45.6368383" lon="9.040295"><ele>222.14285714285717</ele><time>2026-04-03T13:23:08.006Z</time></trkpt><trkpt lat="45.6367683" lon="9.040295"><ele>221.85714285714286</ele><time>2026-04-03T13:23:10.006Z</time></trkpt><trkpt lat="45.6366917" lon="9.0402967"><ele>221.57142857142858</ele><time>2026-04-03T13:23:12.006Z</time></trkpt><trkpt lat="45.636625" lon="9.0402817"><ele>221.2857142857143</ele><time>2026-04-03T13:23:14.006Z</time></trkpt><trkpt lat="45.6365517" lon="9.0402767"><ele>221.0</ele><time>2026-04-03T13:23:16.006Z</time></trkpt><trkpt lat="45.6364867" lon="9.0402783"><ele>221.00000000000003</ele><time>2026-04-03T13:23:18.006Z</time></trkpt><trkpt lat="45.6364117" lon="9.040275"><ele>221.0</ele><time>2026-04-03T13:23:21.007Z</time></trkpt><trkpt lat="45.6363417" lon="9.0402717"><ele>221.0</ele><time>2026-04-03T13:23:23.007Z</time></trkpt><trkpt lat="45.6362783" lon="9.0402583"><ele>221.0</ele><time>2026-04-03T13:23:25.007Z</time></trkpt><trkpt lat="45.6362067" lon="9.0402517"><ele>221.0</ele><time>2026-04-03T13:23:27.007Z</time></trkpt><trkpt lat="45.6361383" lon="9.04024"><ele>221.00000000000003</ele><time>2026-04-03T13:23:29.007Z</time></trkpt><trkpt lat="45.636075" lon="9.04024"><ele>221.0</ele><time>2026-04-03T13:23:31.007Z</time></trkpt><trkpt lat="45.6360033" lon="9.0402283"><ele>220.83333333333334</ele><time>2026-04-03T13:23:33.007Z</time></trkpt><trkpt lat="45.6359283" lon="9.0402167"><ele>220.66666666666669</ele><time>2026-04-03T13:23:35.007Z</time></trkpt><trkpt lat="45.6358517" lon="9.0402133"><ele>220.5</ele><time>2026-04-03T13:23:37.007Z</time></trkpt><trkpt lat="45.6357683" lon="9.0402233"><ele>220.33333333333331</ele><time>2026-04-03T13:23:39.008Z</time></trkpt><trkpt lat="45.6356883" lon="9.040235"><ele>220.16666666666666</ele><time>2026-04-03T13:23:41.007Z</time></trkpt><trkpt lat="45.635605" lon="9.0402433"><ele>220.0</ele><time>2026-04-03T13:23:43.008Z</time></trkpt><trkpt lat="45.6355117" lon="9.0402483"><ele>219.99999999999997</ele><time>2026-04-03T13:23:45.007Z</time></trkpt><trkpt lat="45.6354167" lon="9.0402583"><ele>220.0</ele><time>2026-04-03T13:23:47.008Z</time></trkpt><trkpt lat="45.6353333" lon="9.040255"><ele>220.0</ele><time>2026-04-03T13:23:49.008Z</time></trkpt><trkpt lat="45.6352517" lon="9.040245"><ele>220.0</ele><time>2026-04-03T13:23:51.007Z</time></trkpt><trkpt lat="45.635155" lon="9.040235"><ele>219.99999999999997</ele><time>2026-04-03T13:23:53.007Z</time></trkpt><trkpt lat="45.6350733" lon="9.0402133"><ele>220.0</ele><time>2026-04-03T13:23:55.007Z</time></trkpt><trkpt lat="45.63499" lon="9.04021"><ele>219.83333333333331</ele><time>2026-04-03T13:23:57.007Z</time></trkpt><trkpt lat="45.6349083" lon="9.0402017"><ele>219.66666666666666</ele><time>2026-04-03T13:23:59.008Z</time></trkpt><trkpt lat="45.6348217" lon="9.04019"><ele>219.5</ele><time>2026-04-03T13:24:01.007Z</time></trkpt><trkpt lat="45.6347317" lon="9.0401833"><ele>219.33333333333331</ele><time>2026-04-03T13:24:03.007Z</time></trkpt><trkpt lat="45.6346333" lon="9.0401767"><ele>219.16666666666666</ele><time>2026-04-03T13:24:05.008Z</time></trkpt><trkpt lat="45.6345483" lon="9.04017"><ele>219.0</ele><time>2026-04-03T13:24:07.007Z</time></trkpt><trkpt lat="45.63446" lon="9.0401633"><ele>219.0</ele><time>2026-04-03T13:24:09.007Z</time></trkpt><trkpt lat="45.6343783" lon="9.0401533"><ele>219.0</ele><time>2026-04-03T13:24:11.008Z</time></trkpt><trkpt lat="45.6343017" lon="9.04014"><ele>219.0</ele><time>2026-04-03T13:24:13.007Z</time></trkpt><trkpt lat="45.6342267" lon="9.0401317"><ele>219.0</ele><time>2026-04-03T13:24:15.007Z</time></trkpt><trkpt lat="45.6341533" lon="9.0401267"><ele>219.0</ele><time>2026-04-03T13:24:17.008Z</time></trkpt><trkpt lat="45.6340767" lon="9.040115"><ele>219.0</ele><time>2026-04-03T13:24:19.007Z</time></trkpt><trkpt lat="45.6339917" lon="9.040105"><ele>219.0</ele><time>2026-04-03T13:24:21.007Z</time></trkpt><trkpt lat="45.633905" lon="9.040095"><ele>219.0</ele><time>2026-04-03T13:24:23.007Z</time></trkpt><trkpt lat="45.6338267" lon="9.0400933"><ele>219.0</ele><time>2026-04-03T13:24:25.007Z</time></trkpt><trkpt lat="45.6337517" lon="9.0400983"><ele>219.0</ele><time>2026-04-03T13:24:27.007Z</time></trkpt><trkpt lat="45.633675" lon="9.040075"><ele>219.0</ele><time>2026-04-03T13:24:29.007Z</time></trkpt><trkpt lat="45.633615" lon="9.0400433"><ele>219.0</ele><time>2026-04-03T13:24:31.007Z</time></trkpt><trkpt lat="45.6335383" lon="9.0400033"><ele>219.16666666666666</ele><time>2026-04-03T13:24:33.008Z</time></trkpt><trkpt lat="45.6334633" lon="9.04"><ele>219.33333333333331</ele><time>2026-04-03T13:24:35.007Z</time></trkpt><trkpt lat="45.6333833" lon="9.04003"><ele>219.5</ele><time>2026-04-03T13:24:37.008Z</time></trkpt><trkpt lat="45.6333" lon="9.0400417"><ele>219.66666666666666</ele><time>2026-04-03T13:24:39.008Z</time></trkpt><trkpt lat="45.633215" lon="9.0400383"><ele>219.83333333333331</ele><time>2026-04-03T13:24:41.007Z</time></trkpt><trkpt lat="45.6331367" lon="9.0400317"><ele>220.0</ele><time>2026-04-03T13:24:43.007Z</time></trkpt><trkpt lat="45.6330583" lon="9.0400267"><ele>219.99999999999997</ele><time>2026-04-03T13:24:45.008Z</time></trkpt><trkpt lat="45.632975" lon="9.0400383"><ele>220.0</ele><time>2026-04-03T13:24:47.007Z</time></trkpt><trkpt lat="45.63289" lon="9.0400367"><ele>220.0</ele><time>2026-04-03T13:24:49.007Z</time></trkpt><trkpt lat="45.6328033" lon="9.0400183"><ele>220.0</ele><time>2026-04-03T13:24:51.007Z</time></trkpt><trkpt lat="45.6327183" lon="9.0400083"><ele>219.99999999999997</ele><time>2026-04-03T13:24:53.007Z</time></trkpt><trkpt lat="45.632635" lon="9.0399867"><ele>220.0</ele><time>2026-04-03T13:24:55.007Z</time></trkpt><trkpt lat="45.6325467" lon="9.03998"><ele>219.83333333333331</ele><time>2026-04-03T13:24:57.008Z</time></trkpt><trkpt lat="45.6324567" lon="9.0399717"><ele>219.66666666666666</ele><time>2026-04-03T13:24:59.007Z</time></trkpt><trkpt lat="45.6323717" lon="9.0399583"><ele>219.5</ele><time>2026-04-03T13:25:01.008Z</time></trkpt><trkpt lat="45.63229" lon="9.0399567"><ele>219.33333333333331</ele><time>2026-04-03T13:25:03.007Z</time></trkpt><trkpt lat="45.6322083" lon="9.0399617"><ele>219.16666666666666</ele><time>2026-04-03T13:25:05.007Z</time></trkpt><trkpt lat="45.63212" lon="9.039955"><ele>219.0</ele><time>2026-04-03T13:25:07.007Z</time></trkpt><trkpt lat="45.6320333" lon="9.039955"><ele>218.83333333333334</ele><time>2026-04-03T13:25:09.008Z</time></trkpt><trkpt lat="45.63195" lon="9.0399567"><ele>218.66666666666669</ele><time>2026-04-03T13:25:11.007Z</time></trkpt><trkpt lat="45.6318683" lon="9.039945"><ele>218.5</ele><time>2026-04-03T13:25:13.007Z</time></trkpt><trkpt lat="45.6317867" lon="9.0399267"><ele>218.33333333333334</ele><time>2026-04-03T13:25:15.007Z</time></trkpt><trkpt lat="45.6317217" lon="9.0398567"><ele>218.16666666666669</ele><time>2026-04-03T13:25:17.008Z</time></trkpt><trkpt lat="45.6316617" lon="9.039735"><ele>218.0</ele><time>2026-04-03T13:25:19.008Z</time></trkpt><trkpt lat="45.631615" lon="9.0396183"><ele>218.0</ele><time>2026-04-03T13:25:21.007Z</time></trkpt><trkpt lat="45.63156" lon="9.0394933"><ele>218.0</ele><time>2026-04-03T13:25:23.007Z</time></trkpt><trkpt lat="45.6314883" lon="9.0393683"><ele>218.0</ele><time>2026-04-03T13:25:25.008Z</time></trkpt><trkpt lat="45.63142" lon="9.0392383"><ele>218.0</ele><time>2026-04-03T13:25:27.008Z</time></trkpt><trkpt lat="45.6313483" lon="9.039115"><ele>218.0</ele><time>2026-04-03T13:25:29.008Z</time></trkpt><trkpt lat="45.631275" lon="9.0389817"><ele>218.0</ele><time>2026-04-03T13:25:31.007Z</time></trkpt><trkpt lat="45.6312017" lon="9.0388633"><ele>218.0</ele><time>2026-04-03T13:25:33.007Z</time></trkpt><trkpt lat="45.631125" lon="9.038745"><ele>218.0</ele><time>2026-04-03T13:25:35.008Z</time></trkpt><trkpt lat="45.6310517" lon="9.0386183"><ele>218.0</ele><time>2026-04-03T13:25:37.007Z</time></trkpt><trkpt lat="45.6310217" lon="9.0385383"><ele>218.0</ele><time>2026-04-03T13:25:38.008Z</time></trkpt><trkpt lat="45.6309683" lon="9.0383833"><ele>217.8</ele><time>2026-04-03T13:25:40.007Z</time></trkpt><trkpt lat="45.6309183" lon="9.03824"><ele>217.60000000000002</ele><time>2026-04-03T13:25:42.007Z</time></trkpt><trkpt lat="45.6308733" lon="9.038095"><ele>217.39999999999998</ele><time>2026-04-03T13:25:44.007Z</time></trkpt><trkpt lat="45.6308133" lon="9.037965"><ele>217.2</ele><time>2026-04-03T13:25:46.007Z</time></trkpt><trkpt lat="45.630745" lon="9.037865"><ele>217.0</ele><time>2026-04-03T13:25:48.007Z</time></trkpt><trkpt lat="45.6306883" lon="9.0377617"><ele>216.99999999999997</ele><time>2026-04-03T13:25:50.007Z</time></trkpt><trkpt lat="45.630655" lon="9.03764"><ele>217.0</ele><time>2026-04-03T13:25:52.007Z</time></trkpt><trkpt lat="45.6306367" lon="9.0375333"><ele>217.0</ele><time>2026-04-03T13:25:54.007Z</time></trkpt><trkpt lat="45.63064" lon="9.0374367"><ele>217.0</ele><time>2026-04-03T13:25:56.007Z</time></trkpt><trkpt lat="45.6306317" lon="9.0373267"><ele>216.99999999999997</ele><time>2026-04-03T13:25:59.008Z</time></trkpt><trkpt lat="45.630665" lon="9.0372167"><ele>217.0</ele><time>2026-04-03T13:26:02.008Z</time></trkpt><trkpt lat="45.63064" lon="9.03712"><ele>216.99999999999997</ele><time>2026-04-03T13:26:07.008Z</time></trkpt><trkpt lat="45.6306033" lon="9.0371967"><ele>217.0</ele><time>2026-04-03T13:26:10.007Z</time></trkpt><trkpt lat="45.630545" lon="9.0372967"><ele>217.0</ele><time>2026-04-03T13:26:13.008Z</time></trkpt><trkpt lat="45.6304867" lon="9.0373567"><ele>217.0</ele><time>2026-04-03T13:26:15.007Z</time></trkpt><trkpt lat="45.6304283" lon="9.0374083"><ele>216.99999999999997</ele><time>2026-04-03T13:26:17.007Z</time></trkpt><trkpt lat="45.6303733" lon="9.0374883"><ele>217.0</ele><time>2026-04-03T13:26:19.007Z</time></trkpt><trkpt lat="45.6303083" lon="9.0375567"><ele>217.49999999999997</ele><time>2026-04-03T13:26:21.007Z</time></trkpt><trkpt lat="45.6302433" lon="9.0376283"><ele>218.0</ele><time>2026-04-03T13:26:23.007Z</time></trkpt><trkpt lat="45.6301783" lon="9.0377"><ele>218.5</ele><time>2026-04-03T13:26:25.007Z</time></trkpt><trkpt lat="45.6301167" lon="9.0377683"><ele>219.0</ele><time>2026-04-03T13:26:27.007Z</time></trkpt><trkpt lat="45.6300567" lon="9.03783"><ele>219.49999999999997</ele><time>2026-04-03T13:26:29.007Z</time></trkpt><trkpt lat="45.6299817" lon="9.0378917"><ele>220.0</ele><time>2026-04-03T13:26:31.007Z</time></trkpt><trkpt lat="45.6299067" lon="9.0379417"><ele>219.99999999999997</ele><time>2026-04-03T13:26:33.007Z</time></trkpt><trkpt lat="45.629845" lon="9.0380167"><ele>220.0</ele><time>2026-04-03T13:26:35.007Z</time></trkpt><trkpt lat="45.62977" lon="9.0380983"><ele>220.0</ele><time>2026-04-03T13:26:37.008Z</time></trkpt><trkpt lat="45.62969" lon="9.038155"><ele>220.0</ele><time>2026-04-03T13:26:39.007Z</time></trkpt><trkpt lat="45.6296117" lon="9.03821"><ele>219.99999999999997</ele><time>2026-04-03T13:26:41.007Z</time></trkpt><trkpt lat="45.62954" lon="9.0382533"><ele>220.0</ele><time>2026-04-03T13:26:43.007Z</time></trkpt><trkpt lat="45.6294683" lon="9.0383083"><ele>219.4</ele><time>2026-04-03T13:26:45.007Z</time></trkpt><trkpt lat="45.629385" lon="9.0383683"><ele>218.8</ele><time>2026-04-03T13:26:47.007Z</time></trkpt><trkpt lat="45.6293" lon="9.0384417"><ele>218.2</ele><time>2026-04-03T13:26:49.008Z</time></trkpt><trkpt lat="45.62923" lon="9.0385083"><ele>217.6</ele><time>2026-04-03T13:26:51.007Z</time></trkpt><trkpt lat="45.6291667" lon="9.038575"><ele>217.0</ele><time>2026-04-03T13:26:53.007Z</time></trkpt><trkpt lat="45.629085" lon="9.0386517"><ele>216.99999999999997</ele><time>2026-04-03T13:26:55.007Z</time></trkpt><trkpt lat="45.6290033" lon="9.038705"><ele>217.0</ele><time>2026-04-03T13:26:57.007Z</time></trkpt><trkpt lat="45.6289117" lon="9.0387267"><ele>217.0</ele><time>2026-04-03T13:26:59.007Z</time></trkpt><trkpt lat="45.6288317" lon="9.03876"><ele>217.0</ele><time>2026-04-03T13:27:01.007Z</time></trkpt><trkpt lat="45.6287633" lon="9.0388117"><ele>216.99999999999997</ele><time>2026-04-03T13:27:03.008Z</time></trkpt><trkpt lat="45.628695" lon="9.0388667"><ele>217.0</ele><time>2026-04-03T13:27:05.008Z</time></trkpt><trkpt lat="45.6286183" lon="9.0389117"><ele>216.99999999999997</ele><time>2026-04-03T13:27:07.007Z</time></trkpt><trkpt lat="45.62854" lon="9.0389417"><ele>217.0</ele><time>2026-04-03T13:27:09.007Z</time></trkpt><trkpt lat="45.62846" lon="9.0389717"><ele>217.0</ele><time>2026-04-03T13:27:11.007Z</time></trkpt><trkpt lat="45.6283817" lon="9.038995"><ele>217.0</ele><time>2026-04-03T13:27:13.008Z</time></trkpt><trkpt lat="45.6283117" lon="9.03904"><ele>216.99999999999997</ele><time>2026-04-03T13:27:15.008Z</time></trkpt><trkpt lat="45.628245" lon="9.03909"><ele>217.0</ele><time>2026-04-03T13:27:17.007Z</time></trkpt><trkpt lat="45.6281667" lon="9.0391417"><ele>216.99999999999997</ele><time>2026-04-03T13:27:20.007Z</time></trkpt><trkpt lat="45.62808" lon="9.0391183"><ele>217.0</ele><time>2026-04-03T13:27:22.007Z</time></trkpt><trkpt lat="45.62799" lon="9.0391117"><ele>217.0</ele><time>2026-04-03T13:27:24.008Z</time></trkpt><trkpt lat="45.6279117" lon="9.0391017"><ele>217.0</ele><time>2026-04-03T13:27:26.008Z</time></trkpt><trkpt lat="45.62784" lon="9.0390433"><ele>216.99999999999997</ele><time>2026-04-03T13:27:28.008Z</time></trkpt><trkpt lat="45.6277717" lon="9.03898"><ele>217.0</ele><time>2026-04-03T13:27:30.008Z</time></trkpt><trkpt lat="45.6276883" lon="9.0389167"><ele>216.99999999999997</ele><time>2026-04-03T13:27:32.007Z</time></trkpt><trkpt lat="45.6276117" lon="9.0388633"><ele>217.0</ele><time>2026-04-03T13:27:34.007Z</time></trkpt><trkpt lat="45.627525" lon="9.0388383"><ele>217.0</ele><time>2026-04-03T13:27:36.007Z</time></trkpt><trkpt lat="45.6274483" lon="9.0388383"><ele>217.0</ele><time>2026-04-03T13:27:38.008Z</time></trkpt><trkpt lat="45.627375" lon="9.03881"><ele>216.99999999999997</ele><time>2026-04-03T13:27:40.008Z</time></trkpt><trkpt lat="45.6273" lon="9.0387783"><ele>217.0</ele><time>2026-04-03T13:27:42.008Z</time></trkpt><trkpt lat="45.6272317" lon="9.0387567"><ele>216.99999999999997</ele><time>2026-04-03T13:27:44.007Z</time></trkpt><trkpt lat="45.6271467" lon="9.038755"><ele>217.0</ele><time>2026-04-03T13:27:46.007Z</time></trkpt><trkpt lat="45.6270583" lon="9.0387383"><ele>217.0</ele><time>2026-04-03T13:27:48.007Z</time></trkpt><trkpt lat="45.62702" lon="9.038645"><ele>217.0</ele><time>2026-04-03T13:27:50.007Z</time></trkpt><trkpt lat="45.6269667" lon="9.038595"><ele>216.99999999999997</ele><time>2026-04-03T13:27:52.007Z</time></trkpt><trkpt lat="45.62691" lon="9.0385433"><ele>217.0</ele><time>2026-04-03T13:27:54.007Z</time></trkpt><trkpt lat="45.6268417" lon="9.038515"><ele>216.99999999999997</ele><time>2026-04-03T13:27:56.007Z</time></trkpt><trkpt lat="45.6267667" lon="9.0384767"><ele>217.0</ele><time>2026-04-03T13:27:59.007Z</time></trkpt><trkpt lat="45.6267167" lon="9.038405"><ele>217.0</ele><time>2026-04-03T13:28:01.008Z</time></trkpt><trkpt lat="45.6266583" lon="9.0383133"><ele>217.0</ele><time>2026-04-03T13:28:04.008Z</time></trkpt><trkpt lat="45.6265933" lon="9.03824"><ele>216.99999999999997</ele><time>2026-04-03T13:28:07.008Z</time></trkpt><trkpt lat="45.6265467" lon="9.0381717"><ele>217.0</ele><time>2026-04-03T13:28:09.007Z</time></trkpt><trkpt lat="45.6264933" lon="9.0380817"><ele>216.85714285714286</ele><time>2026-04-03T13:28:12.007Z</time></trkpt><trkpt lat="45.6264333" lon="9.03801"><ele>216.71428571428572</ele><time>2026-04-03T13:28:15.007Z</time></trkpt><trkpt lat="45.6263733" lon="9.03795"><ele>216.57142857142856</ele><time>2026-04-03T13:28:18.008Z</time></trkpt><trkpt lat="45.6263667" lon="9.0378467"><ele>216.42857142857144</ele><time>2026-04-03T13:28:21.007Z</time></trkpt><trkpt lat="45.6264017" lon="9.0377467"><ele>216.28571428571428</ele><time>2026-04-03T13:28:24.007Z</time></trkpt><trkpt lat="45.6263283" lon="9.0377033"><ele>216.14285714285714</ele><time>2026-04-03T13:28:38.007Z</time></trkpt><trkpt lat="45.6262617" lon="9.0377117"><ele>216.0</ele><time>2026-04-03T13:28:42.008Z</time></trkpt><trkpt lat="45.6262417" lon="9.0375983"><ele>216.0</ele><time>2026-04-03T13:28:46.008Z</time></trkpt><trkpt lat="45.62619" lon="9.0375133"><ele>216.0</ele><time>2026-04-03T13:28:50.008Z</time></trkpt><trkpt lat="45.6261067" lon="9.0374983"><ele>216.0</ele><time>2026-04-03T13:28:53.007Z</time></trkpt><trkpt lat="45.6260017" lon="9.0375217"><ele>216.0</ele><time>2026-04-03T13:28:55.007Z</time></trkpt><trkpt lat="45.62593" lon="9.0375267"><ele>216.0</ele><time>2026-04-03T13:28:57.007Z</time></trkpt><trkpt lat="45.625855" lon="9.03748"><ele>216.0</ele><time>2026-04-03T13:28:59.007Z</time></trkpt><trkpt lat="45.6257983" lon="9.0374233"><ele>216.0</ele><time>2026-04-03T13:29:01.007Z</time></trkpt><trkpt lat="45.6257517" lon="9.037355"><ele>216.0</ele><time>2026-04-03T13:29:03.008Z</time></trkpt><trkpt lat="45.6257117" lon="9.0372767"><ele>216.0</ele><time>2026-04-03T13:29:05.008Z</time></trkpt><trkpt lat="45.625675" lon="9.0372"><ele>216.0</ele><time>2026-04-03T13:29:07.007Z</time></trkpt><trkpt lat="45.625645" lon="9.037095"><ele>216.0</ele><time>2026-04-03T13:29:09.007Z</time></trkpt><trkpt lat="45.625645" lon="9.0369783"><ele>216.0</ele><time>2026-04-03T13:29:11.007Z</time></trkpt><trkpt lat="45.62565" lon="9.0368867"><ele>216.0</ele><time>2026-04-03T13:29:13.007Z</time></trkpt><trkpt lat="45.6256733" lon="9.0367967"><ele>216.0</ele><time>2026-04-03T13:29:15.008Z</time></trkpt><trkpt lat="45.625665" lon="9.0366917"><ele>216.0</ele><time>2026-04-03T13:29:17.007Z</time></trkpt><trkpt lat="45.6256717" lon="9.0365983"><ele>216.0</ele><time>2026-04-03T13:29:19.007Z</time></trkpt><trkpt lat="45.62568" lon="9.0365067"><ele>216.0</ele><time>2026-04-03T13:29:21.008Z</time></trkpt><trkpt lat="45.6256983" lon="9.036375"><ele>216.0</ele><time>2026-04-03T13:29:24.007Z</time></trkpt><trkpt lat="45.6257183" lon="9.036285"><ele>216.0</ele><time>2026-04-03T13:29:26.007Z</time></trkpt><trkpt lat="45.62574" lon="9.0361967"><ele>216.0</ele><time>2026-04-03T13:29:28.007Z</time></trkpt><trkpt lat="45.625765" lon="9.03611"><ele>216.28571428571428</ele><time>2026-04-03T13:29:30.007Z</time></trkpt><trkpt lat="45.625775" lon="9.0360133"><ele>216.57142857142856</ele><time>2026-04-03T13:29:32.008Z</time></trkpt><trkpt lat="45.6257933" lon="9.0359117"><ele>216.85714285714286</ele><time>2026-04-03T13:29:34.008Z</time></trkpt><trkpt lat="45.62581" lon="9.0358183"><ele>217.14285714285714</ele><time>2026-04-03T13:29:36.007Z</time></trkpt><trkpt lat="45.625805" lon="9.0357133"><ele>217.42857142857144</ele><time>2026-04-03T13:29:38.007Z</time></trkpt><trkpt lat="45.6258017" lon="9.0356117"><ele>217.71428571428572</ele><time>2026-04-03T13:29:40.008Z</time></trkpt><trkpt lat="45.6257983" lon="9.0355033"><ele>218.0</ele><time>2026-04-03T13:29:42.007Z</time></trkpt><trkpt lat="45.6258" lon="9.0353967"><ele>218.00000000000003</ele><time>2026-04-03T13:29:44.007Z</time></trkpt><trkpt lat="45.6258183" lon="9.0352917"><ele>218.0</ele><time>2026-04-03T13:29:46.007Z</time></trkpt><trkpt lat="45.6258333" lon="9.0351867"><ele>218.0</ele><time>2026-04-03T13:29:48.008Z</time></trkpt><trkpt lat="45.6258517" lon="9.0350617"><ele>218.0</ele><time>2026-04-03T13:29:50.007Z</time></trkpt><trkpt lat="45.625885" lon="9.0349417"><ele>218.00000000000003</ele><time>2026-04-03T13:29:52.007Z</time></trkpt><trkpt lat="45.6259133" lon="9.034845"><ele>218.0</ele><time>2026-04-03T13:29:54.007Z</time></trkpt><trkpt lat="45.6259133" lon="9.03473"><ele>217.83333333333334</ele><time>2026-04-03T13:29:56.007Z</time></trkpt><trkpt lat="45.6258767" lon="9.0346167"><ele>217.66666666666669</ele><time>2026-04-03T13:29:58.007Z</time></trkpt><trkpt lat="45.62587" lon="9.034505"><ele>217.5</ele><time>2026-04-03T13:30:00.007Z</time></trkpt><trkpt lat="45.62587" lon="9.0343933"><ele>217.33333333333331</ele><time>2026-04-03T13:30:02.007Z</time></trkpt><trkpt lat="45.6258733" lon="9.0342817"><ele>217.16666666666666</ele><time>2026-04-03T13:30:04.007Z</time></trkpt><trkpt lat="45.6258817" lon="9.0341683"><ele>217.0</ele><time>2026-04-03T13:30:06.008Z</time></trkpt><trkpt lat="45.6259033" lon="9.0340583"><ele>216.99999999999997</ele><time>2026-04-03T13:30:08.007Z</time></trkpt><trkpt lat="45.625915" lon="9.0339483"><ele>217.0</ele><time>2026-04-03T13:30:10.007Z</time></trkpt><trkpt lat="45.625915" lon="9.033835"><ele>217.0</ele><time>2026-04-03T13:30:12.008Z</time></trkpt><trkpt lat="45.6259217" lon="9.0337417"><ele>217.0</ele><time>2026-04-03T13:30:14.008Z</time></trkpt><trkpt lat="45.62595" lon="9.03365"><ele>216.99999999999997</ele><time>2026-04-03T13:30:16.007Z</time></trkpt><trkpt lat="45.6259783" lon="9.0335283"><ele>217.0</ele><time>2026-04-03T13:30:19.007Z</time></trkpt><trkpt lat="45.6259933" lon="9.0334267"><ele>217.16666666666666</ele><time>2026-04-03T13:30:22.008Z</time></trkpt><trkpt lat="45.6259833" lon="9.0333017"><ele>217.33333333333331</ele><time>2026-04-03T13:30:26.007Z</time></trkpt><trkpt lat="45.625945" lon="9.03323"><ele>217.5</ele><time>2026-04-03T13:30:29.007Z</time></trkpt><trkpt lat="45.6258533" lon="9.0332433"><ele>217.66666666666669</ele><time>2026-04-03T13:30:32.008Z</time></trkpt><trkpt lat="45.6257867" lon="9.03321"><ele>217.83333333333334</ele><time>2026-04-03T13:30:35.007Z</time></trkpt><trkpt lat="45.6257033" lon="9.0332"><ele>218.0</ele><time>2026-04-03T13:30:38.008Z</time></trkpt><trkpt lat="45.62562" lon="9.0331783"><ele>218.00000000000003</ele><time>2026-04-03T13:30:41.008Z</time></trkpt><trkpt lat="45.62554" lon="9.033145"><ele>218.0</ele><time>2026-04-03T13:30:43.007Z</time></trkpt><trkpt lat="45.62547" lon="9.0331067"><ele>218.0</ele><time>2026-04-03T13:30:45.007Z</time></trkpt><trkpt lat="45.6253933" lon="9.0330367"><ele>218.0</ele><time>2026-04-03T13:30:48.007Z</time></trkpt><trkpt lat="45.625325" lon="9.0330167"><ele>218.00000000000003</ele><time>2026-04-03T13:30:52.008Z</time></trkpt><trkpt lat="45.625255" lon="9.0329983"><ele>218.0</ele><time>2026-04-03T13:30:56.008Z</time></trkpt><trkpt lat="45.625175" lon="9.0330183"><ele>215.0</ele><time>2026-04-03T13:30:59.007Z</time></trkpt><trkpt lat="45.6251083" lon="9.03299"><ele>215.0</ele><time>2026-04-03T13:31:02.007Z</time></trkpt><trkpt lat="45.6250383" lon="9.03298"><ele>215.0</ele><time>2026-04-03T13:31:05.008Z</time></trkpt></trkseg></trk></gpx>